<?xml version="1.0" encoding="UTF-8" standalone="no" ?>
<gpx xmlns="http://www.topografix.com/GPX/1/1" xmlns:xsi="http://www.w3.org/2001/XMLSchema-instance" xsi:schemaLocation="http://www.topografix.com/GPX/1/1 http://www.topografix.com/GPX/1/1/gpx.xsd" version="1.1" creator="VisuGPX - https://www.visugpx.com">
  <metadata>
    <name>lundi 2016 05</name>
    <desc><![CDATA[cumul des lundi du mois de mai 2016]]></desc>
  </metadata>
  <trk>
    <name><![CDATA[lundi 2016 05 23]]></name>
    <trkseg>
      <trkpt lat="48.8574" lon="2.34728">
        <ele>40.400001525879</ele>
        <time>2016-05-23T18:21:55.000Z</time>
      </trkpt>
      <trkpt lat="48.85749" lon="2.34749">
        <ele>40.200000762939</ele>
        <time>2016-05-23T18:22:11.000Z</time>
      </trkpt>
      <trkpt lat="48.85765" lon="2.34759">
        <ele>39.799999237061</ele>
        <time>2016-05-23T18:22:19.000Z</time>
      </trkpt>
      <trkpt lat="48.85781" lon="2.34774">
        <ele>40.400001525879</ele>
        <time>2016-05-23T18:22:32.000Z</time>
      </trkpt>
      <trkpt lat="48.85795" lon="2.34795">
        <ele>41.400001525879</ele>
        <time>2016-05-23T18:22:45.000Z</time>
      </trkpt>
      <trkpt lat="48.85813" lon="2.34809">
        <ele>43.400001525879</ele>
        <time>2016-05-23T18:22:51.000Z</time>
      </trkpt>
      <trkpt lat="48.85829" lon="2.34822">
        <ele>45</ele>
        <time>2016-05-23T18:23:00.000Z</time>
      </trkpt>
      <trkpt lat="48.85835" lon="2.34823">
        <ele>45.599998474121</ele>
        <time>2016-05-23T18:23:03.000Z</time>
      </trkpt>
      <trkpt lat="48.85854" lon="2.34826">
        <ele>47.799999237061</ele>
        <time>2016-05-23T18:23:26.000Z</time>
      </trkpt>
      <trkpt lat="48.85872" lon="2.34837">
        <ele>48</ele>
        <time>2016-05-23T18:23:32.000Z</time>
      </trkpt>
      <trkpt lat="48.85892" lon="2.34846">
        <ele>48</ele>
        <time>2016-05-23T18:23:38.000Z</time>
      </trkpt>
      <trkpt lat="48.8591" lon="2.34853">
        <ele>48</ele>
        <time>2016-05-23T18:23:44.000Z</time>
      </trkpt>
      <trkpt lat="48.85929" lon="2.34861">
        <ele>48</ele>
        <time>2016-05-23T18:23:49.000Z</time>
      </trkpt>
      <trkpt lat="48.85949" lon="2.34872">
        <ele>48.200000762939</ele>
        <time>2016-05-23T18:23:54.000Z</time>
      </trkpt>
      <trkpt lat="48.85967" lon="2.34883">
        <ele>48.400001525879</ele>
        <time>2016-05-23T18:23:58.000Z</time>
      </trkpt>
      <trkpt lat="48.85985" lon="2.34894">
        <ele>48.599998474121</ele>
        <time>2016-05-23T18:24:02.000Z</time>
      </trkpt>
      <trkpt lat="48.86002" lon="2.34906">
        <ele>48.799999237061</ele>
        <time>2016-05-23T18:24:06.000Z</time>
      </trkpt>
      <trkpt lat="48.8602" lon="2.34914">
        <ele>49</ele>
        <time>2016-05-23T18:24:09.000Z</time>
      </trkpt>
      <trkpt lat="48.8604" lon="2.34924">
        <ele>48.400001525879</ele>
        <time>2016-05-23T18:24:13.000Z</time>
      </trkpt>
      <trkpt lat="48.8605" lon="2.34929">
        <ele>48.200000762939</ele>
        <time>2016-05-23T18:24:15.000Z</time>
      </trkpt>
      <trkpt lat="48.86067" lon="2.34941">
        <ele>47.599998474121</ele>
        <time>2016-05-23T18:24:19.000Z</time>
      </trkpt>
      <trkpt lat="48.86087" lon="2.34953">
        <ele>47</ele>
        <time>2016-05-23T18:24:23.000Z</time>
      </trkpt>
      <trkpt lat="48.86109" lon="2.34965">
        <ele>46.400001525879</ele>
        <time>2016-05-23T18:24:27.000Z</time>
      </trkpt>
      <trkpt lat="48.86132" lon="2.34975">
        <ele>46.599998474121</ele>
        <time>2016-05-23T18:24:31.000Z</time>
      </trkpt>
      <trkpt lat="48.86149" lon="2.34982">
        <ele>46.799999237061</ele>
        <time>2016-05-23T18:24:34.000Z</time>
      </trkpt>
      <trkpt lat="48.86167" lon="2.34991">
        <ele>46.799999237061</ele>
        <time>2016-05-23T18:24:37.000Z</time>
      </trkpt>
      <trkpt lat="48.86185" lon="2.35004">
        <ele>47</ele>
        <time>2016-05-23T18:24:41.000Z</time>
      </trkpt>
      <trkpt lat="48.86202" lon="2.35016">
        <ele>47.400001525879</ele>
        <time>2016-05-23T18:24:45.000Z</time>
      </trkpt>
      <trkpt lat="48.86218" lon="2.35027">
        <ele>47.599998474121</ele>
        <time>2016-05-23T18:24:49.000Z</time>
      </trkpt>
      <trkpt lat="48.86232" lon="2.35033">
        <ele>48</ele>
        <time>2016-05-23T18:24:52.000Z</time>
      </trkpt>
      <trkpt lat="48.86246" lon="2.35041">
        <ele>48.200000762939</ele>
        <time>2016-05-23T18:24:55.000Z</time>
      </trkpt>
      <trkpt lat="48.86263" lon="2.35053">
        <ele>48.599998474121</ele>
        <time>2016-05-23T18:24:58.000Z</time>
      </trkpt>
      <trkpt lat="48.86284" lon="2.35065">
        <ele>48.599998474121</ele>
        <time>2016-05-23T18:25:02.000Z</time>
      </trkpt>
      <trkpt lat="48.86303" lon="2.35078">
        <ele>48.599998474121</ele>
        <time>2016-05-23T18:25:06.000Z</time>
      </trkpt>
      <trkpt lat="48.86317" lon="2.35087">
        <ele>48.400001525879</ele>
        <time>2016-05-23T18:25:10.000Z</time>
      </trkpt>
      <trkpt lat="48.86327" lon="2.35093">
        <ele>48.200000762939</ele>
        <time>2016-05-23T18:25:18.000Z</time>
      </trkpt>
      <trkpt lat="48.86328" lon="2.35094">
        <ele>48.200000762939</ele>
        <time>2016-05-23T18:25:19.000Z</time>
      </trkpt>
      <trkpt lat="48.86338" lon="2.35102">
        <ele>48</ele>
        <time>2016-05-23T18:25:25.000Z</time>
      </trkpt>
      <trkpt lat="48.86357" lon="2.35112">
        <ele>47.599998474121</ele>
        <time>2016-05-23T18:25:31.000Z</time>
      </trkpt>
      <trkpt lat="48.86373" lon="2.35124">
        <ele>47.400001525879</ele>
        <time>2016-05-23T18:25:36.000Z</time>
      </trkpt>
      <trkpt lat="48.86394" lon="2.35135">
        <ele>47.400001525879</ele>
        <time>2016-05-23T18:25:42.000Z</time>
      </trkpt>
      <trkpt lat="48.86415" lon="2.35142">
        <ele>47.200000762939</ele>
        <time>2016-05-23T18:25:47.000Z</time>
      </trkpt>
      <trkpt lat="48.86431" lon="2.35155">
        <ele>47</ele>
        <time>2016-05-23T18:25:51.000Z</time>
      </trkpt>
      <trkpt lat="48.86449" lon="2.35165">
        <ele>46.799999237061</ele>
        <time>2016-05-23T18:25:55.000Z</time>
      </trkpt>
      <trkpt lat="48.86469" lon="2.35176">
        <ele>46.799999237061</ele>
        <time>2016-05-23T18:26:00.000Z</time>
      </trkpt>
      <trkpt lat="48.86489" lon="2.35187">
        <ele>46.599998474121</ele>
        <time>2016-05-23T18:26:04.000Z</time>
      </trkpt>
      <trkpt lat="48.86509" lon="2.35197">
        <ele>46.599998474121</ele>
        <time>2016-05-23T18:26:08.000Z</time>
      </trkpt>
      <trkpt lat="48.8653" lon="2.35209">
        <ele>46.599998474121</ele>
        <time>2016-05-23T18:26:12.000Z</time>
      </trkpt>
      <trkpt lat="48.86551" lon="2.35221">
        <ele>47.400001525879</ele>
        <time>2016-05-23T18:26:16.000Z</time>
      </trkpt>
      <trkpt lat="48.86572" lon="2.35232">
        <ele>48</ele>
        <time>2016-05-23T18:26:20.000Z</time>
      </trkpt>
      <trkpt lat="48.8659" lon="2.35245">
        <ele>48.799999237061</ele>
        <time>2016-05-23T18:26:25.000Z</time>
      </trkpt>
      <trkpt lat="48.86597" lon="2.35248">
        <ele>48.799999237061</ele>
        <time>2016-05-23T18:26:28.000Z</time>
      </trkpt>
      <trkpt lat="48.86602" lon="2.35251">
        <ele>48.799999237061</ele>
        <time>2016-05-23T18:26:30.000Z</time>
      </trkpt>
      <trkpt lat="48.86604" lon="2.3528">
        <ele>48.599998474121</ele>
        <time>2016-05-23T18:26:35.000Z</time>
      </trkpt>
      <trkpt lat="48.866" lon="2.35311">
        <ele>48.200000762939</ele>
        <time>2016-05-23T18:26:40.000Z</time>
      </trkpt>
      <trkpt lat="48.86595" lon="2.35341">
        <ele>47.599998474121</ele>
        <time>2016-05-23T18:26:45.000Z</time>
      </trkpt>
      <trkpt lat="48.86596" lon="2.35373">
        <ele>47.599998474121</ele>
        <time>2016-05-23T18:26:50.000Z</time>
      </trkpt>
      <trkpt lat="48.86592" lon="2.35403">
        <ele>47.599998474121</ele>
        <time>2016-05-23T18:26:54.000Z</time>
      </trkpt>
      <trkpt lat="48.86589" lon="2.35419">
        <ele>48.200000762939</ele>
        <time>2016-05-23T18:26:56.000Z</time>
      </trkpt>
      <trkpt lat="48.86584" lon="2.3545">
        <ele>47.400001525879</ele>
        <time>2016-05-23T18:27:00.000Z</time>
      </trkpt>
      <trkpt lat="48.86581" lon="2.35478">
        <ele>47</ele>
        <time>2016-05-23T18:27:04.000Z</time>
      </trkpt>
      <trkpt lat="48.86579" lon="2.35484">
        <ele>47</ele>
        <time>2016-05-23T18:27:05.000Z</time>
      </trkpt>
      <trkpt lat="48.86572" lon="2.35509">
        <ele>46.599998474121</ele>
        <time>2016-05-23T18:27:09.000Z</time>
      </trkpt>
      <trkpt lat="48.86568" lon="2.35538">
        <ele>45</ele>
        <time>2016-05-23T18:27:14.000Z</time>
      </trkpt>
      <trkpt lat="48.86557" lon="2.35564">
        <ele>44.599998474121</ele>
        <time>2016-05-23T18:27:19.000Z</time>
      </trkpt>
      <trkpt lat="48.86551" lon="2.35584">
        <ele>44.400001525879</ele>
        <time>2016-05-23T18:27:23.000Z</time>
      </trkpt>
      <trkpt lat="48.86548" lon="2.35607">
        <ele>45</ele>
        <time>2016-05-23T18:27:28.000Z</time>
      </trkpt>
      <trkpt lat="48.86548" lon="2.35611">
        <ele>45</ele>
        <time>2016-05-23T18:27:29.000Z</time>
      </trkpt>
      <trkpt lat="48.86549" lon="2.35633">
        <ele>45</ele>
        <time>2016-05-23T18:27:33.000Z</time>
      </trkpt>
      <trkpt lat="48.86548" lon="2.35638">
        <ele>45</ele>
        <time>2016-05-23T18:27:34.000Z</time>
      </trkpt>
      <trkpt lat="48.86546" lon="2.35669">
        <ele>45.200000762939</ele>
        <time>2016-05-23T18:27:39.000Z</time>
      </trkpt>
      <trkpt lat="48.86539" lon="2.35697">
        <ele>45.599998474121</ele>
        <time>2016-05-23T18:27:43.000Z</time>
      </trkpt>
      <trkpt lat="48.86532" lon="2.35729">
        <ele>45.200000762939</ele>
        <time>2016-05-23T18:27:47.000Z</time>
      </trkpt>
      <trkpt lat="48.86527" lon="2.35762">
        <ele>45</ele>
        <time>2016-05-23T18:27:51.000Z</time>
      </trkpt>
      <trkpt lat="48.86521" lon="2.35793">
        <ele>45.599998474121</ele>
        <time>2016-05-23T18:27:55.000Z</time>
      </trkpt>
      <trkpt lat="48.86518" lon="2.35808">
        <ele>45.799999237061</ele>
        <time>2016-05-23T18:27:57.000Z</time>
      </trkpt>
      <trkpt lat="48.8651" lon="2.35839">
        <ele>45.799999237061</ele>
        <time>2016-05-23T18:28:01.000Z</time>
      </trkpt>
      <trkpt lat="48.86503" lon="2.35866">
        <ele>45.200000762939</ele>
        <time>2016-05-23T18:28:05.000Z</time>
      </trkpt>
      <trkpt lat="48.86496" lon="2.35895">
        <ele>44.599998474121</ele>
        <time>2016-05-23T18:28:09.000Z</time>
      </trkpt>
      <trkpt lat="48.86493" lon="2.3591">
        <ele>44.799999237061</ele>
        <time>2016-05-23T18:28:12.000Z</time>
      </trkpt>
      <trkpt lat="48.86488" lon="2.35929">
        <ele>45</ele>
        <time>2016-05-23T18:28:16.000Z</time>
      </trkpt>
      <trkpt lat="48.86485" lon="2.3594">
        <ele>45.200000762939</ele>
        <time>2016-05-23T18:28:18.000Z</time>
      </trkpt>
      <trkpt lat="48.86481" lon="2.35958">
        <ele>45.400001525879</ele>
        <time>2016-05-23T18:28:22.000Z</time>
      </trkpt>
      <trkpt lat="48.86479" lon="2.35982">
        <ele>44.799999237061</ele>
        <time>2016-05-23T18:28:26.000Z</time>
      </trkpt>
      <trkpt lat="48.86492" lon="2.36008">
        <ele>44.599998474121</ele>
        <time>2016-05-23T18:28:32.000Z</time>
      </trkpt>
      <trkpt lat="48.86501" lon="2.3602">
        <ele>44.400001525879</ele>
        <time>2016-05-23T18:28:35.000Z</time>
      </trkpt>
      <trkpt lat="48.86516" lon="2.36038">
        <ele>44.400001525879</ele>
        <time>2016-05-23T18:28:39.000Z</time>
      </trkpt>
      <trkpt lat="48.86531" lon="2.36056">
        <ele>44.200000762939</ele>
        <time>2016-05-23T18:28:43.000Z</time>
      </trkpt>
      <trkpt lat="48.86548" lon="2.36076">
        <ele>43.799999237061</ele>
        <time>2016-05-23T18:28:47.000Z</time>
      </trkpt>
      <trkpt lat="48.86563" lon="2.36094">
        <ele>43.599998474121</ele>
        <time>2016-05-23T18:28:50.000Z</time>
      </trkpt>
      <trkpt lat="48.86584" lon="2.36116">
        <ele>43.599998474121</ele>
        <time>2016-05-23T18:28:54.000Z</time>
      </trkpt>
      <trkpt lat="48.86601" lon="2.36131">
        <ele>43.599998474121</ele>
        <time>2016-05-23T18:28:57.000Z</time>
      </trkpt>
      <trkpt lat="48.86617" lon="2.36145">
        <ele>44</ele>
        <time>2016-05-23T18:28:59.000Z</time>
      </trkpt>
      <trkpt lat="48.86632" lon="2.36161">
        <ele>44.599998474121</ele>
        <time>2016-05-23T18:29:02.000Z</time>
      </trkpt>
      <trkpt lat="48.86647" lon="2.36182">
        <ele>45.200000762939</ele>
        <time>2016-05-23T18:29:06.000Z</time>
      </trkpt>
      <trkpt lat="48.86658" lon="2.36205">
        <ele>45.799999237061</ele>
        <time>2016-05-23T18:29:10.000Z</time>
      </trkpt>
      <trkpt lat="48.86668" lon="2.36236">
        <ele>46.400001525879</ele>
        <time>2016-05-23T18:29:15.000Z</time>
      </trkpt>
      <trkpt lat="48.86677" lon="2.36265">
        <ele>47.200000762939</ele>
        <time>2016-05-23T18:29:19.000Z</time>
      </trkpt>
      <trkpt lat="48.8669" lon="2.3629">
        <ele>48</ele>
        <time>2016-05-23T18:29:23.000Z</time>
      </trkpt>
      <trkpt lat="48.867" lon="2.36308">
        <ele>47.400001525879</ele>
        <time>2016-05-23T18:29:26.000Z</time>
      </trkpt>
      <trkpt lat="48.86716" lon="2.36324">
        <ele>46.200000762939</ele>
        <time>2016-05-23T18:29:30.000Z</time>
      </trkpt>
      <trkpt lat="48.86722" lon="2.3633">
        <ele>46</ele>
        <time>2016-05-23T18:29:32.000Z</time>
      </trkpt>
      <trkpt lat="48.86728" lon="2.36342">
        <ele>45</ele>
        <time>2016-05-23T18:29:37.000Z</time>
      </trkpt>
      <trkpt lat="48.86722" lon="2.36353">
        <ele>45.400001525879</ele>
        <time>2016-05-23T18:30:16.000Z</time>
      </trkpt>
      <trkpt lat="48.86716" lon="2.36346">
        <ele>46.200000762939</ele>
        <time>2016-05-23T18:32:17.000Z</time>
      </trkpt>
      <trkpt lat="48.86717" lon="2.36344">
        <ele>46</ele>
        <time>2016-05-23T18:33:50.000Z</time>
      </trkpt>
      <trkpt lat="48.86718" lon="2.36337">
        <ele>46.200000762939</ele>
        <time>2016-05-23T18:35:33.000Z</time>
      </trkpt>
      <trkpt lat="48.86721" lon="2.36343">
        <ele>45.599998474121</ele>
        <time>2016-05-23T18:36:40.000Z</time>
      </trkpt>
      <trkpt lat="48.86711" lon="2.36361">
        <ele>45.799999237061</ele>
        <time>2016-05-23T18:37:14.000Z</time>
      </trkpt>
      <trkpt lat="48.86698" lon="2.36386">
        <ele>44.599998474121</ele>
        <time>2016-05-23T18:37:21.000Z</time>
      </trkpt>
      <trkpt lat="48.86686" lon="2.36409">
        <ele>43.400001525879</ele>
        <time>2016-05-23T18:37:27.000Z</time>
      </trkpt>
      <trkpt lat="48.86675" lon="2.36432">
        <ele>43.599998474121</ele>
        <time>2016-05-23T18:37:32.000Z</time>
      </trkpt>
      <trkpt lat="48.86661" lon="2.36452">
        <ele>44</ele>
        <time>2016-05-23T18:37:37.000Z</time>
      </trkpt>
      <trkpt lat="48.86652" lon="2.36477">
        <ele>44.200000762939</ele>
        <time>2016-05-23T18:37:42.000Z</time>
      </trkpt>
      <trkpt lat="48.86651" lon="2.36507">
        <ele>44.200000762939</ele>
        <time>2016-05-23T18:37:48.000Z</time>
      </trkpt>
      <trkpt lat="48.86648" lon="2.36538">
        <ele>46</ele>
        <time>2016-05-23T18:37:53.000Z</time>
      </trkpt>
      <trkpt lat="48.86634" lon="2.36559">
        <ele>46.200000762939</ele>
        <time>2016-05-23T18:37:57.000Z</time>
      </trkpt>
      <trkpt lat="48.8662" lon="2.36575">
        <ele>46.599998474121</ele>
        <time>2016-05-23T18:38:01.000Z</time>
      </trkpt>
      <trkpt lat="48.86605" lon="2.36593">
        <ele>46.799999237061</ele>
        <time>2016-05-23T18:38:05.000Z</time>
      </trkpt>
      <trkpt lat="48.86589" lon="2.36611">
        <ele>46.599998474121</ele>
        <time>2016-05-23T18:38:09.000Z</time>
      </trkpt>
      <trkpt lat="48.86582" lon="2.36624">
        <ele>46.400001525879</ele>
        <time>2016-05-23T18:38:11.000Z</time>
      </trkpt>
      <trkpt lat="48.86573" lon="2.36651">
        <ele>46</ele>
        <time>2016-05-23T18:38:14.000Z</time>
      </trkpt>
      <trkpt lat="48.86558" lon="2.36678">
        <ele>45.599998474121</ele>
        <time>2016-05-23T18:38:18.000Z</time>
      </trkpt>
      <trkpt lat="48.86541" lon="2.36702">
        <ele>45.599998474121</ele>
        <time>2016-05-23T18:38:22.000Z</time>
      </trkpt>
      <trkpt lat="48.86526" lon="2.36727">
        <ele>45.799999237061</ele>
        <time>2016-05-23T18:38:26.000Z</time>
      </trkpt>
      <trkpt lat="48.86509" lon="2.36752">
        <ele>46</ele>
        <time>2016-05-23T18:38:30.000Z</time>
      </trkpt>
      <trkpt lat="48.86501" lon="2.36779">
        <ele>46.799999237061</ele>
        <time>2016-05-23T18:38:33.000Z</time>
      </trkpt>
      <trkpt lat="48.86487" lon="2.36804">
        <ele>47.200000762939</ele>
        <time>2016-05-23T18:38:37.000Z</time>
      </trkpt>
      <trkpt lat="48.8647" lon="2.36825">
        <ele>46.799999237061</ele>
        <time>2016-05-23T18:38:41.000Z</time>
      </trkpt>
      <trkpt lat="48.86456" lon="2.36849">
        <ele>46.200000762939</ele>
        <time>2016-05-23T18:38:45.000Z</time>
      </trkpt>
      <trkpt lat="48.86452" lon="2.36853">
        <ele>46.200000762939</ele>
        <time>2016-05-23T18:38:46.000Z</time>
      </trkpt>
      <trkpt lat="48.8644" lon="2.36885">
        <ele>46</ele>
        <time>2016-05-23T18:38:50.000Z</time>
      </trkpt>
      <trkpt lat="48.86426" lon="2.36913">
        <ele>45.799999237061</ele>
        <time>2016-05-23T18:38:54.000Z</time>
      </trkpt>
      <trkpt lat="48.86422" lon="2.36918">
        <ele>45.599998474121</ele>
        <time>2016-05-23T18:38:55.000Z</time>
      </trkpt>
      <trkpt lat="48.86404" lon="2.36938">
        <ele>45</ele>
        <time>2016-05-23T18:38:59.000Z</time>
      </trkpt>
      <trkpt lat="48.86386" lon="2.36958">
        <ele>44.799999237061</ele>
        <time>2016-05-23T18:39:03.000Z</time>
      </trkpt>
      <trkpt lat="48.86383" lon="2.36964">
        <ele>45</ele>
        <time>2016-05-23T18:39:04.000Z</time>
      </trkpt>
      <trkpt lat="48.86374" lon="2.36993">
        <ele>45.599998474121</ele>
        <time>2016-05-23T18:39:08.000Z</time>
      </trkpt>
      <trkpt lat="48.8636" lon="2.37015">
        <ele>45.400001525879</ele>
        <time>2016-05-23T18:39:12.000Z</time>
      </trkpt>
      <trkpt lat="48.86347" lon="2.3704">
        <ele>44.599998474121</ele>
        <time>2016-05-23T18:39:16.000Z</time>
      </trkpt>
      <trkpt lat="48.86348" lon="2.37053">
        <ele>44.200000762939</ele>
        <time>2016-05-23T18:39:17.000Z</time>
      </trkpt>
      <trkpt lat="48.86338" lon="2.37072">
        <ele>43.599998474121</ele>
        <time>2016-05-23T18:39:20.000Z</time>
      </trkpt>
      <trkpt lat="48.86328" lon="2.37084">
        <ele>43.599998474121</ele>
        <time>2016-05-23T18:39:24.000Z</time>
      </trkpt>
      <trkpt lat="48.86313" lon="2.3711">
        <ele>43.400001525879</ele>
        <time>2016-05-23T18:39:29.000Z</time>
      </trkpt>
      <trkpt lat="48.86299" lon="2.37132">
        <ele>43.599998474121</ele>
        <time>2016-05-23T18:39:33.000Z</time>
      </trkpt>
      <trkpt lat="48.86287" lon="2.37153">
        <ele>43.799999237061</ele>
        <time>2016-05-23T18:39:37.000Z</time>
      </trkpt>
      <trkpt lat="48.86281" lon="2.37162">
        <ele>44</ele>
        <time>2016-05-23T18:39:39.000Z</time>
      </trkpt>
      <trkpt lat="48.86269" lon="2.37185">
        <ele>44.200000762939</ele>
        <time>2016-05-23T18:39:43.000Z</time>
      </trkpt>
      <trkpt lat="48.86266" lon="2.3719">
        <ele>44.400001525879</ele>
        <time>2016-05-23T18:39:44.000Z</time>
      </trkpt>
      <trkpt lat="48.86257" lon="2.37206">
        <ele>44.400001525879</ele>
        <time>2016-05-23T18:39:47.000Z</time>
      </trkpt>
      <trkpt lat="48.86242" lon="2.37231">
        <ele>44.799999237061</ele>
        <time>2016-05-23T18:39:51.000Z</time>
      </trkpt>
      <trkpt lat="48.86228" lon="2.37256">
        <ele>45.200000762939</ele>
        <time>2016-05-23T18:39:55.000Z</time>
      </trkpt>
      <trkpt lat="48.86215" lon="2.37281">
        <ele>45.400001525879</ele>
        <time>2016-05-23T18:39:59.000Z</time>
      </trkpt>
      <trkpt lat="48.862" lon="2.37306">
        <ele>46.200000762939</ele>
        <time>2016-05-23T18:40:03.000Z</time>
      </trkpt>
      <trkpt lat="48.86185" lon="2.37331">
        <ele>46.799999237061</ele>
        <time>2016-05-23T18:40:07.000Z</time>
      </trkpt>
      <trkpt lat="48.86178" lon="2.37346">
        <ele>46.400001525879</ele>
        <time>2016-05-23T18:40:09.000Z</time>
      </trkpt>
      <trkpt lat="48.86165" lon="2.37372">
        <ele>45.400001525879</ele>
        <time>2016-05-23T18:40:13.000Z</time>
      </trkpt>
      <trkpt lat="48.86149" lon="2.37393">
        <ele>44.799999237061</ele>
        <time>2016-05-23T18:40:17.000Z</time>
      </trkpt>
      <trkpt lat="48.86132" lon="2.37416">
        <ele>44.400001525879</ele>
        <time>2016-05-23T18:40:21.000Z</time>
      </trkpt>
      <trkpt lat="48.86114" lon="2.37438">
        <ele>43.799999237061</ele>
        <time>2016-05-23T18:40:25.000Z</time>
      </trkpt>
      <trkpt lat="48.86098" lon="2.37464">
        <ele>42.799999237061</ele>
        <time>2016-05-23T18:40:29.000Z</time>
      </trkpt>
      <trkpt lat="48.86086" lon="2.37485">
        <ele>42.400001525879</ele>
        <time>2016-05-23T18:40:32.000Z</time>
      </trkpt>
      <trkpt lat="48.86072" lon="2.37511">
        <ele>43</ele>
        <time>2016-05-23T18:40:36.000Z</time>
      </trkpt>
      <trkpt lat="48.86057" lon="2.37535">
        <ele>43.599998474121</ele>
        <time>2016-05-23T18:40:40.000Z</time>
      </trkpt>
      <trkpt lat="48.86042" lon="2.37557">
        <ele>45.200000762939</ele>
        <time>2016-05-23T18:40:44.000Z</time>
      </trkpt>
      <trkpt lat="48.86032" lon="2.37577">
        <ele>46.400001525879</ele>
        <time>2016-05-23T18:40:47.000Z</time>
      </trkpt>
      <trkpt lat="48.8602" lon="2.376">
        <ele>47</ele>
        <time>2016-05-23T18:40:51.000Z</time>
      </trkpt>
      <trkpt lat="48.86005" lon="2.37627">
        <ele>46.400001525879</ele>
        <time>2016-05-23T18:40:56.000Z</time>
      </trkpt>
      <trkpt lat="48.85993" lon="2.37652">
        <ele>46.200000762939</ele>
        <time>2016-05-23T18:41:00.000Z</time>
      </trkpt>
      <trkpt lat="48.85977" lon="2.37673">
        <ele>46</ele>
        <time>2016-05-23T18:41:04.000Z</time>
      </trkpt>
      <trkpt lat="48.85962" lon="2.37698">
        <ele>46</ele>
        <time>2016-05-23T18:41:08.000Z</time>
      </trkpt>
      <trkpt lat="48.85948" lon="2.37724">
        <ele>46.400001525879</ele>
        <time>2016-05-23T18:41:12.000Z</time>
      </trkpt>
      <trkpt lat="48.85936" lon="2.37749">
        <ele>47</ele>
        <time>2016-05-23T18:41:16.000Z</time>
      </trkpt>
      <trkpt lat="48.85923" lon="2.37772">
        <ele>46.599998474121</ele>
        <time>2016-05-23T18:41:20.000Z</time>
      </trkpt>
      <trkpt lat="48.85907" lon="2.37796">
        <ele>46.200000762939</ele>
        <time>2016-05-23T18:41:24.000Z</time>
      </trkpt>
      <trkpt lat="48.85893" lon="2.3782">
        <ele>46.400001525879</ele>
        <time>2016-05-23T18:41:28.000Z</time>
      </trkpt>
      <trkpt lat="48.85881" lon="2.37843">
        <ele>46.400001525879</ele>
        <time>2016-05-23T18:41:32.000Z</time>
      </trkpt>
      <trkpt lat="48.85867" lon="2.37868">
        <ele>46.200000762939</ele>
        <time>2016-05-23T18:41:36.000Z</time>
      </trkpt>
      <trkpt lat="48.85854" lon="2.37888">
        <ele>46</ele>
        <time>2016-05-23T18:41:39.000Z</time>
      </trkpt>
      <trkpt lat="48.85837" lon="2.37912">
        <ele>45.400001525879</ele>
        <time>2016-05-23T18:41:43.000Z</time>
      </trkpt>
      <trkpt lat="48.85822" lon="2.37936">
        <ele>44.200000762939</ele>
        <time>2016-05-23T18:41:47.000Z</time>
      </trkpt>
      <trkpt lat="48.85808" lon="2.3796">
        <ele>43.599998474121</ele>
        <time>2016-05-23T18:41:51.000Z</time>
      </trkpt>
      <trkpt lat="48.85797" lon="2.37981">
        <ele>43.799999237061</ele>
        <time>2016-05-23T18:41:56.000Z</time>
      </trkpt>
      <trkpt lat="48.8579" lon="2.37994">
        <ele>44</ele>
        <time>2016-05-23T18:42:01.000Z</time>
      </trkpt>
      <trkpt lat="48.85777" lon="2.38012">
        <ele>44.599998474121</ele>
        <time>2016-05-23T18:42:16.000Z</time>
      </trkpt>
      <trkpt lat="48.85775" lon="2.38016">
        <ele>44.599998474121</ele>
        <time>2016-05-23T18:42:19.000Z</time>
      </trkpt>
      <trkpt lat="48.85765" lon="2.38039">
        <ele>45.599998474121</ele>
        <time>2016-05-23T18:42:37.000Z</time>
      </trkpt>
      <trkpt lat="48.85753" lon="2.3806">
        <ele>46.400001525879</ele>
        <time>2016-05-23T18:42:42.000Z</time>
      </trkpt>
      <trkpt lat="48.85737" lon="2.38085">
        <ele>46.599998474121</ele>
        <time>2016-05-23T18:42:47.000Z</time>
      </trkpt>
      <trkpt lat="48.85723" lon="2.38108">
        <ele>46.799999237061</ele>
        <time>2016-05-23T18:42:51.000Z</time>
      </trkpt>
      <trkpt lat="48.85707" lon="2.38126">
        <ele>47</ele>
        <time>2016-05-23T18:42:55.000Z</time>
      </trkpt>
      <trkpt lat="48.85692" lon="2.38146">
        <ele>47.599998474121</ele>
        <time>2016-05-23T18:42:59.000Z</time>
      </trkpt>
      <trkpt lat="48.85678" lon="2.38171">
        <ele>48</ele>
        <time>2016-05-23T18:43:04.000Z</time>
      </trkpt>
      <trkpt lat="48.85665" lon="2.38191">
        <ele>48</ele>
        <time>2016-05-23T18:43:08.000Z</time>
      </trkpt>
      <trkpt lat="48.8565" lon="2.38215">
        <ele>47.799999237061</ele>
        <time>2016-05-23T18:43:13.000Z</time>
      </trkpt>
      <trkpt lat="48.85638" lon="2.38238">
        <ele>47</ele>
        <time>2016-05-23T18:43:17.000Z</time>
      </trkpt>
      <trkpt lat="48.85626" lon="2.38263">
        <ele>46.400001525879</ele>
        <time>2016-05-23T18:43:21.000Z</time>
      </trkpt>
      <trkpt lat="48.85614" lon="2.38285">
        <ele>45.400001525879</ele>
        <time>2016-05-23T18:43:25.000Z</time>
      </trkpt>
      <trkpt lat="48.856" lon="2.3831">
        <ele>44.400001525879</ele>
        <time>2016-05-23T18:43:29.000Z</time>
      </trkpt>
      <trkpt lat="48.85586" lon="2.38329">
        <ele>44.799999237061</ele>
        <time>2016-05-23T18:43:33.000Z</time>
      </trkpt>
      <trkpt lat="48.8557" lon="2.38347">
        <ele>45.799999237061</ele>
        <time>2016-05-23T18:43:37.000Z</time>
      </trkpt>
      <trkpt lat="48.85555" lon="2.38369">
        <ele>46.400001525879</ele>
        <time>2016-05-23T18:43:41.000Z</time>
      </trkpt>
      <trkpt lat="48.85545" lon="2.38392">
        <ele>47</ele>
        <time>2016-05-23T18:43:45.000Z</time>
      </trkpt>
      <trkpt lat="48.85539" lon="2.38402">
        <ele>47.200000762939</ele>
        <time>2016-05-23T18:43:47.000Z</time>
      </trkpt>
      <trkpt lat="48.85527" lon="2.38423">
        <ele>48</ele>
        <time>2016-05-23T18:43:51.000Z</time>
      </trkpt>
      <trkpt lat="48.85514" lon="2.38445">
        <ele>48.200000762939</ele>
        <time>2016-05-23T18:43:55.000Z</time>
      </trkpt>
      <trkpt lat="48.85502" lon="2.38465">
        <ele>48.200000762939</ele>
        <time>2016-05-23T18:43:59.000Z</time>
      </trkpt>
      <trkpt lat="48.85487" lon="2.38492">
        <ele>47.799999237061</ele>
        <time>2016-05-23T18:44:04.000Z</time>
      </trkpt>
      <trkpt lat="48.85474" lon="2.38515">
        <ele>47.200000762939</ele>
        <time>2016-05-23T18:44:08.000Z</time>
      </trkpt>
      <trkpt lat="48.85461" lon="2.38538">
        <ele>47</ele>
        <time>2016-05-23T18:44:12.000Z</time>
      </trkpt>
      <trkpt lat="48.85447" lon="2.38563">
        <ele>47</ele>
        <time>2016-05-23T18:44:16.000Z</time>
      </trkpt>
      <trkpt lat="48.85434" lon="2.38587">
        <ele>47</ele>
        <time>2016-05-23T18:44:20.000Z</time>
      </trkpt>
      <trkpt lat="48.85419" lon="2.38609">
        <ele>47</ele>
        <time>2016-05-23T18:44:24.000Z</time>
      </trkpt>
      <trkpt lat="48.85405" lon="2.3863">
        <ele>47</ele>
        <time>2016-05-23T18:44:28.000Z</time>
      </trkpt>
      <trkpt lat="48.85391" lon="2.38649">
        <ele>49</ele>
        <time>2016-05-23T18:44:32.000Z</time>
      </trkpt>
      <trkpt lat="48.85377" lon="2.38668">
        <ele>50.599998474121</ele>
        <time>2016-05-23T18:44:36.000Z</time>
      </trkpt>
      <trkpt lat="48.85362" lon="2.3869">
        <ele>51</ele>
        <time>2016-05-23T18:44:41.000Z</time>
      </trkpt>
      <trkpt lat="48.85349" lon="2.38711">
        <ele>50.599998474121</ele>
        <time>2016-05-23T18:44:45.000Z</time>
      </trkpt>
      <trkpt lat="48.85336" lon="2.38733">
        <ele>49.400001525879</ele>
        <time>2016-05-23T18:44:49.000Z</time>
      </trkpt>
      <trkpt lat="48.85323" lon="2.38759">
        <ele>47.599998474121</ele>
        <time>2016-05-23T18:44:54.000Z</time>
      </trkpt>
      <trkpt lat="48.8532" lon="2.38766">
        <ele>47.200000762939</ele>
        <time>2016-05-23T18:44:55.000Z</time>
      </trkpt>
      <trkpt lat="48.85309" lon="2.38784">
        <ele>45.799999237061</ele>
        <time>2016-05-23T18:44:59.000Z</time>
      </trkpt>
      <trkpt lat="48.85297" lon="2.38806">
        <ele>47.599998474121</ele>
        <time>2016-05-23T18:45:04.000Z</time>
      </trkpt>
      <trkpt lat="48.85294" lon="2.38816">
        <ele>48.400001525879</ele>
        <time>2016-05-23T18:45:06.000Z</time>
      </trkpt>
      <trkpt lat="48.85291" lon="2.38825">
        <ele>49</ele>
        <time>2016-05-23T18:45:08.000Z</time>
      </trkpt>
      <trkpt lat="48.8528" lon="2.38851">
        <ele>50.400001525879</ele>
        <time>2016-05-23T18:45:16.000Z</time>
      </trkpt>
      <trkpt lat="48.8528" lon="2.38864">
        <ele>51</ele>
        <time>2016-05-23T18:45:19.000Z</time>
      </trkpt>
      <trkpt lat="48.8528" lon="2.38867">
        <ele>51</ele>
        <time>2016-05-23T18:45:20.000Z</time>
      </trkpt>
      <trkpt lat="48.85283" lon="2.38882">
        <ele>51.400001525879</ele>
        <time>2016-05-23T18:45:24.000Z</time>
      </trkpt>
      <trkpt lat="48.85288" lon="2.38911">
        <ele>52.400001525879</ele>
        <time>2016-05-23T18:45:30.000Z</time>
      </trkpt>
      <trkpt lat="48.85295" lon="2.38941">
        <ele>53</ele>
        <time>2016-05-23T18:45:36.000Z</time>
      </trkpt>
      <trkpt lat="48.85299" lon="2.3897">
        <ele>53.400001525879</ele>
        <time>2016-05-23T18:45:42.000Z</time>
      </trkpt>
      <trkpt lat="48.85302" lon="2.39001">
        <ele>53.599998474121</ele>
        <time>2016-05-23T18:45:48.000Z</time>
      </trkpt>
      <trkpt lat="48.85308" lon="2.39032">
        <ele>53.599998474121</ele>
        <time>2016-05-23T18:45:53.000Z</time>
      </trkpt>
      <trkpt lat="48.8532" lon="2.39057">
        <ele>53.599998474121</ele>
        <time>2016-05-23T18:45:58.000Z</time>
      </trkpt>
      <trkpt lat="48.85323" lon="2.39091">
        <ele>54.200000762939</ele>
        <time>2016-05-23T18:46:02.000Z</time>
      </trkpt>
      <trkpt lat="48.85331" lon="2.39116">
        <ele>55.200000762939</ele>
        <time>2016-05-23T18:46:05.000Z</time>
      </trkpt>
      <trkpt lat="48.85338" lon="2.39143">
        <ele>56.400001525879</ele>
        <time>2016-05-23T18:46:08.000Z</time>
      </trkpt>
      <trkpt lat="48.85341" lon="2.39172">
        <ele>56.599998474121</ele>
        <time>2016-05-23T18:46:11.000Z</time>
      </trkpt>
      <trkpt lat="48.85345" lon="2.39199">
        <ele>57</ele>
        <time>2016-05-23T18:46:14.000Z</time>
      </trkpt>
      <trkpt lat="48.85348" lon="2.39229">
        <ele>57.400001525879</ele>
        <time>2016-05-23T18:46:18.000Z</time>
      </trkpt>
      <trkpt lat="48.85347" lon="2.39239">
        <ele>57.599998474121</ele>
        <time>2016-05-23T18:46:19.000Z</time>
      </trkpt>
      <trkpt lat="48.85353" lon="2.39267">
        <ele>57.200000762939</ele>
        <time>2016-05-23T18:46:35.000Z</time>
      </trkpt>
      <trkpt lat="48.85357" lon="2.3929">
        <ele>56.599998474121</ele>
        <time>2016-05-23T18:47:10.000Z</time>
      </trkpt>
      <trkpt lat="48.85365" lon="2.39316">
        <ele>56.200000762939</ele>
        <time>2016-05-23T18:47:17.000Z</time>
      </trkpt>
      <trkpt lat="48.85373" lon="2.39344">
        <ele>56.599998474121</ele>
        <time>2016-05-23T18:47:22.000Z</time>
      </trkpt>
      <trkpt lat="48.85381" lon="2.39373">
        <ele>58</ele>
        <time>2016-05-23T18:47:26.000Z</time>
      </trkpt>
      <trkpt lat="48.85389" lon="2.39403">
        <ele>59.599998474121</ele>
        <time>2016-05-23T18:47:30.000Z</time>
      </trkpt>
      <trkpt lat="48.85398" lon="2.39433">
        <ele>60.799999237061</ele>
        <time>2016-05-23T18:47:34.000Z</time>
      </trkpt>
      <trkpt lat="48.85406" lon="2.39464">
        <ele>61.599998474121</ele>
        <time>2016-05-23T18:47:38.000Z</time>
      </trkpt>
      <trkpt lat="48.85413" lon="2.39499">
        <ele>62.799999237061</ele>
        <time>2016-05-23T18:47:42.000Z</time>
      </trkpt>
      <trkpt lat="48.85422" lon="2.39529">
        <ele>63.599998474121</ele>
        <time>2016-05-23T18:47:45.000Z</time>
      </trkpt>
      <trkpt lat="48.8543" lon="2.39556">
        <ele>64.199996948242</ele>
        <time>2016-05-23T18:47:48.000Z</time>
      </trkpt>
      <trkpt lat="48.85436" lon="2.39582">
        <ele>65</ele>
        <time>2016-05-23T18:47:52.000Z</time>
      </trkpt>
      <trkpt lat="48.85438" lon="2.3961">
        <ele>65.400001525879</ele>
        <time>2016-05-23T18:48:00.000Z</time>
      </trkpt>
      <trkpt lat="48.8544" lon="2.39618">
        <ele>65.400001525879</ele>
        <time>2016-05-23T18:48:04.000Z</time>
      </trkpt>
      <trkpt lat="48.85444" lon="2.39647">
        <ele>65.800003051758</ele>
        <time>2016-05-23T18:48:25.000Z</time>
      </trkpt>
      <trkpt lat="48.85451" lon="2.39676">
        <ele>66.199996948242</ele>
        <time>2016-05-23T18:48:32.000Z</time>
      </trkpt>
      <trkpt lat="48.85461" lon="2.39702">
        <ele>66.599998474121</ele>
        <time>2016-05-23T18:48:38.000Z</time>
      </trkpt>
      <trkpt lat="48.85473" lon="2.39725">
        <ele>67</ele>
        <time>2016-05-23T18:48:43.000Z</time>
      </trkpt>
      <trkpt lat="48.85484" lon="2.39748">
        <ele>67.400001525879</ele>
        <time>2016-05-23T18:48:48.000Z</time>
      </trkpt>
      <trkpt lat="48.85494" lon="2.39778">
        <ele>67.800003051758</ele>
        <time>2016-05-23T18:48:54.000Z</time>
      </trkpt>
      <trkpt lat="48.85502" lon="2.39803">
        <ele>68</ele>
        <time>2016-05-23T18:48:59.000Z</time>
      </trkpt>
      <trkpt lat="48.85511" lon="2.3983">
        <ele>67.599998474121</ele>
        <time>2016-05-23T18:49:04.000Z</time>
      </trkpt>
      <trkpt lat="48.85517" lon="2.39862">
        <ele>67.800003051758</ele>
        <time>2016-05-23T18:49:09.000Z</time>
      </trkpt>
      <trkpt lat="48.85521" lon="2.39889">
        <ele>68</ele>
        <time>2016-05-23T18:49:14.000Z</time>
      </trkpt>
      <trkpt lat="48.8553" lon="2.39916">
        <ele>68.199996948242</ele>
        <time>2016-05-23T18:49:20.000Z</time>
      </trkpt>
      <trkpt lat="48.85535" lon="2.39946">
        <ele>68.800003051758</ele>
        <time>2016-05-23T18:49:27.000Z</time>
      </trkpt>
      <trkpt lat="48.85543" lon="2.39971">
        <ele>69.400001525879</ele>
        <time>2016-05-23T18:49:32.000Z</time>
      </trkpt>
      <trkpt lat="48.85555" lon="2.39998">
        <ele>70</ele>
        <time>2016-05-23T18:49:38.000Z</time>
      </trkpt>
      <trkpt lat="48.85563" lon="2.40024">
        <ele>69</ele>
        <time>2016-05-23T18:49:44.000Z</time>
      </trkpt>
      <trkpt lat="48.85571" lon="2.4005">
        <ele>68.199996948242</ele>
        <time>2016-05-23T18:49:51.000Z</time>
      </trkpt>
      <trkpt lat="48.8557" lon="2.40066">
        <ele>68.199996948242</ele>
        <time>2016-05-23T18:49:57.000Z</time>
      </trkpt>
      <trkpt lat="48.85572" lon="2.40087">
        <ele>68.199996948242</ele>
        <time>2016-05-23T18:50:07.000Z</time>
      </trkpt>
      <trkpt lat="48.85567" lon="2.4009">
        <ele>68.599998474121</ele>
        <time>2016-05-23T18:50:11.000Z</time>
      </trkpt>
      <trkpt lat="48.85552" lon="2.40108">
        <ele>69.199996948242</ele>
        <time>2016-05-23T18:50:19.000Z</time>
      </trkpt>
      <trkpt lat="48.85537" lon="2.40131">
        <ele>68</ele>
        <time>2016-05-23T18:50:28.000Z</time>
      </trkpt>
      <trkpt lat="48.8552" lon="2.40149">
        <ele>66.599998474121</ele>
        <time>2016-05-23T18:50:34.000Z</time>
      </trkpt>
      <trkpt lat="48.85505" lon="2.40164">
        <ele>65.199996948242</ele>
        <time>2016-05-23T18:50:39.000Z</time>
      </trkpt>
      <trkpt lat="48.85487" lon="2.40178">
        <ele>64</ele>
        <time>2016-05-23T18:50:44.000Z</time>
      </trkpt>
      <trkpt lat="48.85468" lon="2.40193">
        <ele>62.599998474121</ele>
        <time>2016-05-23T18:50:48.000Z</time>
      </trkpt>
      <trkpt lat="48.85452" lon="2.40207">
        <ele>63.400001525879</ele>
        <time>2016-05-23T18:50:52.000Z</time>
      </trkpt>
      <trkpt lat="48.85438" lon="2.40229">
        <ele>64.400001525879</ele>
        <time>2016-05-23T18:50:58.000Z</time>
      </trkpt>
      <trkpt lat="48.85418" lon="2.40242">
        <ele>64.599998474121</ele>
        <time>2016-05-23T18:51:03.000Z</time>
      </trkpt>
      <trkpt lat="48.854" lon="2.40261">
        <ele>64.199996948242</ele>
        <time>2016-05-23T18:51:08.000Z</time>
      </trkpt>
      <trkpt lat="48.85384" lon="2.40275">
        <ele>63.599998474121</ele>
        <time>2016-05-23T18:51:12.000Z</time>
      </trkpt>
      <trkpt lat="48.85365" lon="2.40292">
        <ele>63.400001525879</ele>
        <time>2016-05-23T18:51:17.000Z</time>
      </trkpt>
      <trkpt lat="48.85347" lon="2.40309">
        <ele>63.200000762939</ele>
        <time>2016-05-23T18:51:22.000Z</time>
      </trkpt>
      <trkpt lat="48.85329" lon="2.40321">
        <ele>62.799999237061</ele>
        <time>2016-05-23T18:51:26.000Z</time>
      </trkpt>
      <trkpt lat="48.85312" lon="2.40337">
        <ele>62.200000762939</ele>
        <time>2016-05-23T18:51:31.000Z</time>
      </trkpt>
      <trkpt lat="48.85294" lon="2.40351">
        <ele>61.599998474121</ele>
        <time>2016-05-23T18:51:37.000Z</time>
      </trkpt>
      <trkpt lat="48.85277" lon="2.40364">
        <ele>61.200000762939</ele>
        <time>2016-05-23T18:51:43.000Z</time>
      </trkpt>
      <trkpt lat="48.85261" lon="2.4038">
        <ele>61.200000762939</ele>
        <time>2016-05-23T18:51:49.000Z</time>
      </trkpt>
      <trkpt lat="48.85251" lon="2.4039">
        <ele>61.200000762939</ele>
        <time>2016-05-23T18:51:56.000Z</time>
      </trkpt>
      <trkpt lat="48.85242" lon="2.40393">
        <ele>61.400001525879</ele>
        <time>2016-05-23T18:52:04.000Z</time>
      </trkpt>
      <trkpt lat="48.85224" lon="2.40394">
        <ele>62.400001525879</ele>
        <time>2016-05-23T18:52:11.000Z</time>
      </trkpt>
      <trkpt lat="48.85206" lon="2.404">
        <ele>63.200000762939</ele>
        <time>2016-05-23T18:52:17.000Z</time>
      </trkpt>
      <trkpt lat="48.85185" lon="2.40404">
        <ele>63.799999237061</ele>
        <time>2016-05-23T18:52:23.000Z</time>
      </trkpt>
      <trkpt lat="48.85166" lon="2.40412">
        <ele>62.799999237061</ele>
        <time>2016-05-23T18:52:28.000Z</time>
      </trkpt>
      <trkpt lat="48.85146" lon="2.40422">
        <ele>62.200000762939</ele>
        <time>2016-05-23T18:52:34.000Z</time>
      </trkpt>
      <trkpt lat="48.85129" lon="2.40424">
        <ele>61.400001525879</ele>
        <time>2016-05-23T18:52:40.000Z</time>
      </trkpt>
      <trkpt lat="48.8512" lon="2.40396">
        <ele>60.400001525879</ele>
        <time>2016-05-23T18:52:43.000Z</time>
      </trkpt>
      <trkpt lat="48.85119" lon="2.40389">
        <ele>60.400001525879</ele>
        <time>2016-05-23T18:52:44.000Z</time>
      </trkpt>
      <trkpt lat="48.85112" lon="2.40357">
        <ele>59.599998474121</ele>
        <time>2016-05-23T18:52:48.000Z</time>
      </trkpt>
      <trkpt lat="48.85103" lon="2.40328">
        <ele>59</ele>
        <time>2016-05-23T18:52:52.000Z</time>
      </trkpt>
      <trkpt lat="48.85098" lon="2.40301">
        <ele>59.400001525879</ele>
        <time>2016-05-23T18:52:56.000Z</time>
      </trkpt>
      <trkpt lat="48.85092" lon="2.40273">
        <ele>59.799999237061</ele>
        <time>2016-05-23T18:53:00.000Z</time>
      </trkpt>
      <trkpt lat="48.85088" lon="2.40243">
        <ele>59.799999237061</ele>
        <time>2016-05-23T18:53:04.000Z</time>
      </trkpt>
      <trkpt lat="48.85083" lon="2.40215">
        <ele>59.200000762939</ele>
        <time>2016-05-23T18:53:08.000Z</time>
      </trkpt>
      <trkpt lat="48.85088" lon="2.40191">
        <ele>59.400001525879</ele>
        <time>2016-05-23T18:53:12.000Z</time>
      </trkpt>
      <trkpt lat="48.8507" lon="2.40183">
        <ele>58.799999237061</ele>
        <time>2016-05-23T18:53:17.000Z</time>
      </trkpt>
      <trkpt lat="48.85062" lon="2.40183">
        <ele>58.400001525879</ele>
        <time>2016-05-23T18:53:19.000Z</time>
      </trkpt>
      <trkpt lat="48.85042" lon="2.40182">
        <ele>57.599998474121</ele>
        <time>2016-05-23T18:53:23.000Z</time>
      </trkpt>
      <trkpt lat="48.85029" lon="2.40188">
        <ele>57.799999237061</ele>
        <time>2016-05-23T18:53:26.000Z</time>
      </trkpt>
      <trkpt lat="48.85013" lon="2.40199">
        <ele>58.400001525879</ele>
        <time>2016-05-23T18:53:30.000Z</time>
      </trkpt>
      <trkpt lat="48.85005" lon="2.40206">
        <ele>58.799999237061</ele>
        <time>2016-05-23T18:53:32.000Z</time>
      </trkpt>
      <trkpt lat="48.84987" lon="2.40225">
        <ele>58.799999237061</ele>
        <time>2016-05-23T18:53:37.000Z</time>
      </trkpt>
      <trkpt lat="48.84983" lon="2.40227">
        <ele>58.400001525879</ele>
        <time>2016-05-23T18:53:38.000Z</time>
      </trkpt>
      <trkpt lat="48.84973" lon="2.40233">
        <ele>57.400001525879</ele>
        <time>2016-05-23T18:53:40.000Z</time>
      </trkpt>
      <trkpt lat="48.84957" lon="2.40239">
        <ele>55.799999237061</ele>
        <time>2016-05-23T18:53:43.000Z</time>
      </trkpt>
      <trkpt lat="48.84938" lon="2.40245">
        <ele>54.200000762939</ele>
        <time>2016-05-23T18:53:48.000Z</time>
      </trkpt>
      <trkpt lat="48.8492" lon="2.40255">
        <ele>54.200000762939</ele>
        <time>2016-05-23T18:53:53.000Z</time>
      </trkpt>
      <trkpt lat="48.84916" lon="2.40257">
        <ele>54.200000762939</ele>
        <time>2016-05-23T18:53:54.000Z</time>
      </trkpt>
      <trkpt lat="48.84901" lon="2.40243">
        <ele>54.599998474121</ele>
        <time>2016-05-23T18:53:59.000Z</time>
      </trkpt>
      <trkpt lat="48.84896" lon="2.40233">
        <ele>54.799999237061</ele>
        <time>2016-05-23T18:54:01.000Z</time>
      </trkpt>
      <trkpt lat="48.8489" lon="2.40215">
        <ele>55.400001525879</ele>
        <time>2016-05-23T18:54:04.000Z</time>
      </trkpt>
      <trkpt lat="48.84886" lon="2.40186">
        <ele>56.400001525879</ele>
        <time>2016-05-23T18:54:08.000Z</time>
      </trkpt>
      <trkpt lat="48.84883" lon="2.40159">
        <ele>57.599998474121</ele>
        <time>2016-05-23T18:54:12.000Z</time>
      </trkpt>
      <trkpt lat="48.84875" lon="2.40139">
        <ele>57.400001525879</ele>
        <time>2016-05-23T18:54:15.000Z</time>
      </trkpt>
      <trkpt lat="48.84869" lon="2.40117">
        <ele>57.400001525879</ele>
        <time>2016-05-23T18:54:18.000Z</time>
      </trkpt>
      <trkpt lat="48.8487" lon="2.40083">
        <ele>57.599998474121</ele>
        <time>2016-05-23T18:54:22.000Z</time>
      </trkpt>
      <trkpt lat="48.8487" lon="2.40054">
        <ele>57</ele>
        <time>2016-05-23T18:54:26.000Z</time>
      </trkpt>
      <trkpt lat="48.84876" lon="2.40022">
        <ele>56.599998474121</ele>
        <time>2016-05-23T18:54:31.000Z</time>
      </trkpt>
      <trkpt lat="48.84878" lon="2.39991">
        <ele>55.400001525879</ele>
        <time>2016-05-23T18:54:36.000Z</time>
      </trkpt>
      <trkpt lat="48.84882" lon="2.39969">
        <ele>55.200000762939</ele>
        <time>2016-05-23T18:54:40.000Z</time>
      </trkpt>
      <trkpt lat="48.84877" lon="2.39942">
        <ele>54.799999237061</ele>
        <time>2016-05-23T18:54:45.000Z</time>
      </trkpt>
      <trkpt lat="48.84865" lon="2.39932">
        <ele>54.400001525879</ele>
        <time>2016-05-23T18:54:50.000Z</time>
      </trkpt>
      <trkpt lat="48.84861" lon="2.39931">
        <ele>54.400001525879</ele>
        <time>2016-05-23T18:54:52.000Z</time>
      </trkpt>
      <trkpt lat="48.84856" lon="2.39929">
        <ele>54.200000762939</ele>
        <time>2016-05-23T18:54:54.000Z</time>
      </trkpt>
      <trkpt lat="48.84839" lon="2.39921">
        <ele>53.799999237061</ele>
        <time>2016-05-23T18:55:00.000Z</time>
      </trkpt>
      <trkpt lat="48.84822" lon="2.39907">
        <ele>54.200000762939</ele>
        <time>2016-05-23T18:55:09.000Z</time>
      </trkpt>
      <trkpt lat="48.84821" lon="2.39898">
        <ele>55</ele>
        <time>2016-05-23T18:55:12.000Z</time>
      </trkpt>
      <trkpt lat="48.84832" lon="2.39884">
        <ele>56</ele>
        <time>2016-05-23T18:55:49.000Z</time>
      </trkpt>
      <trkpt lat="48.84836" lon="2.39874">
        <ele>56.400001525879</ele>
        <time>2016-05-23T18:56:18.000Z</time>
      </trkpt>
      <trkpt lat="48.84833" lon="2.39875">
        <ele>56.400001525879</ele>
        <time>2016-05-23T18:56:40.000Z</time>
      </trkpt>
      <trkpt lat="48.84833" lon="2.39867">
        <ele>56.799999237061</ele>
        <time>2016-05-23T18:57:27.000Z</time>
      </trkpt>
      <trkpt lat="48.84837" lon="2.39877">
        <ele>56.400001525879</ele>
        <time>2016-05-23T18:57:50.000Z</time>
      </trkpt>
      <trkpt lat="48.84834" lon="2.39876">
        <ele>56.400001525879</ele>
        <time>2016-05-23T18:57:54.000Z</time>
      </trkpt>
      <trkpt lat="48.84835" lon="2.39869">
        <ele>56.799999237061</ele>
        <time>2016-05-23T18:58:31.000Z</time>
      </trkpt>
      <trkpt lat="48.84834" lon="2.3987">
        <ele>56.799999237061</ele>
        <time>2016-05-23T18:59:01.000Z</time>
      </trkpt>
      <trkpt lat="48.84829" lon="2.39871">
        <ele>56.799999237061</ele>
        <time>2016-05-23T19:00:02.000Z</time>
      </trkpt>
      <trkpt lat="48.84824" lon="2.39875">
        <ele>56.599998474121</ele>
        <time>2016-05-23T19:01:10.000Z</time>
      </trkpt>
      <trkpt lat="48.84823" lon="2.39876">
        <ele>56.599998474121</ele>
        <time>2016-05-23T19:01:13.000Z</time>
      </trkpt>
      <trkpt lat="48.84819" lon="2.39861">
        <ele>57.400001525879</ele>
        <time>2016-05-23T19:01:47.000Z</time>
      </trkpt>
      <trkpt lat="48.84805" lon="2.39858">
        <ele>58</ele>
        <time>2016-05-23T19:01:55.000Z</time>
      </trkpt>
      <trkpt lat="48.84802" lon="2.39882">
        <ele>56</ele>
        <time>2016-05-23T19:02:01.000Z</time>
      </trkpt>
      <trkpt lat="48.84793" lon="2.39897">
        <ele>54.799999237061</ele>
        <time>2016-05-23T19:02:08.000Z</time>
      </trkpt>
      <trkpt lat="48.84784" lon="2.39894">
        <ele>54.799999237061</ele>
        <time>2016-05-23T19:02:12.000Z</time>
      </trkpt>
      <trkpt lat="48.84765" lon="2.39887">
        <ele>55.400001525879</ele>
        <time>2016-05-23T19:02:20.000Z</time>
      </trkpt>
      <trkpt lat="48.84746" lon="2.39879">
        <ele>56.400001525879</ele>
        <time>2016-05-23T19:02:26.000Z</time>
      </trkpt>
      <trkpt lat="48.84726" lon="2.39875">
        <ele>57.200000762939</ele>
        <time>2016-05-23T19:02:31.000Z</time>
      </trkpt>
      <trkpt lat="48.8471" lon="2.39894">
        <ele>57</ele>
        <time>2016-05-23T19:02:36.000Z</time>
      </trkpt>
      <trkpt lat="48.84697" lon="2.39918">
        <ele>56.599998474121</ele>
        <time>2016-05-23T19:02:41.000Z</time>
      </trkpt>
      <trkpt lat="48.84685" lon="2.39942">
        <ele>57</ele>
        <time>2016-05-23T19:02:46.000Z</time>
      </trkpt>
      <trkpt lat="48.84672" lon="2.39971">
        <ele>56.599998474121</ele>
        <time>2016-05-23T19:02:51.000Z</time>
      </trkpt>
      <trkpt lat="48.84657" lon="2.39995">
        <ele>56.599998474121</ele>
        <time>2016-05-23T19:02:56.000Z</time>
      </trkpt>
      <trkpt lat="48.84642" lon="2.40019">
        <ele>56.200000762939</ele>
        <time>2016-05-23T19:03:01.000Z</time>
      </trkpt>
      <trkpt lat="48.84629" lon="2.4004">
        <ele>56</ele>
        <time>2016-05-23T19:03:05.000Z</time>
      </trkpt>
      <trkpt lat="48.84614" lon="2.40066">
        <ele>56</ele>
        <time>2016-05-23T19:03:08.000Z</time>
      </trkpt>
      <trkpt lat="48.84597" lon="2.4009">
        <ele>55.400001525879</ele>
        <time>2016-05-23T19:03:12.000Z</time>
      </trkpt>
      <trkpt lat="48.84582" lon="2.40107">
        <ele>54.400001525879</ele>
        <time>2016-05-23T19:03:15.000Z</time>
      </trkpt>
      <trkpt lat="48.84563" lon="2.40127">
        <ele>53.400001525879</ele>
        <time>2016-05-23T19:03:19.000Z</time>
      </trkpt>
      <trkpt lat="48.84547" lon="2.40145">
        <ele>53.599998474121</ele>
        <time>2016-05-23T19:03:23.000Z</time>
      </trkpt>
      <trkpt lat="48.84533" lon="2.40167">
        <ele>53.799999237061</ele>
        <time>2016-05-23T19:03:27.000Z</time>
      </trkpt>
      <trkpt lat="48.84526" lon="2.40177">
        <ele>54</ele>
        <time>2016-05-23T19:03:29.000Z</time>
      </trkpt>
      <trkpt lat="48.84509" lon="2.40187">
        <ele>53.400001525879</ele>
        <time>2016-05-23T19:03:33.000Z</time>
      </trkpt>
      <trkpt lat="48.84505" lon="2.40188">
        <ele>53.200000762939</ele>
        <time>2016-05-23T19:03:34.000Z</time>
      </trkpt>
      <trkpt lat="48.84499" lon="2.4019">
        <ele>52.799999237061</ele>
        <time>2016-05-23T19:03:35.000Z</time>
      </trkpt>
      <trkpt lat="48.84477" lon="2.40188">
        <ele>51.799999237061</ele>
        <time>2016-05-23T19:03:39.000Z</time>
      </trkpt>
      <trkpt lat="48.84458" lon="2.40183">
        <ele>50.799999237061</ele>
        <time>2016-05-23T19:03:42.000Z</time>
      </trkpt>
      <trkpt lat="48.8444" lon="2.40178">
        <ele>50.599998474121</ele>
        <time>2016-05-23T19:03:45.000Z</time>
      </trkpt>
      <trkpt lat="48.8442" lon="2.40174">
        <ele>50.799999237061</ele>
        <time>2016-05-23T19:03:48.000Z</time>
      </trkpt>
      <trkpt lat="48.84402" lon="2.40168">
        <ele>51</ele>
        <time>2016-05-23T19:03:51.000Z</time>
      </trkpt>
      <trkpt lat="48.84379" lon="2.40159">
        <ele>51.400001525879</ele>
        <time>2016-05-23T19:03:55.000Z</time>
      </trkpt>
      <trkpt lat="48.84356" lon="2.40152">
        <ele>51.599998474121</ele>
        <time>2016-05-23T19:03:59.000Z</time>
      </trkpt>
      <trkpt lat="48.84336" lon="2.40148">
        <ele>52.400001525879</ele>
        <time>2016-05-23T19:04:02.000Z</time>
      </trkpt>
      <trkpt lat="48.84314" lon="2.40144">
        <ele>53.400001525879</ele>
        <time>2016-05-23T19:04:05.000Z</time>
      </trkpt>
      <trkpt lat="48.84295" lon="2.40139">
        <ele>54.400001525879</ele>
        <time>2016-05-23T19:04:08.000Z</time>
      </trkpt>
      <trkpt lat="48.84278" lon="2.40135">
        <ele>55.200000762939</ele>
        <time>2016-05-23T19:04:11.000Z</time>
      </trkpt>
      <trkpt lat="48.84256" lon="2.40129">
        <ele>55.599998474121</ele>
        <time>2016-05-23T19:04:15.000Z</time>
      </trkpt>
      <trkpt lat="48.84236" lon="2.40117">
        <ele>55.599998474121</ele>
        <time>2016-05-23T19:04:19.000Z</time>
      </trkpt>
      <trkpt lat="48.84231" lon="2.40115">
        <ele>55.599998474121</ele>
        <time>2016-05-23T19:04:20.000Z</time>
      </trkpt>
      <trkpt lat="48.84211" lon="2.40106">
        <ele>55.599998474121</ele>
        <time>2016-05-23T19:04:24.000Z</time>
      </trkpt>
      <trkpt lat="48.84191" lon="2.40099">
        <ele>55</ele>
        <time>2016-05-23T19:04:28.000Z</time>
      </trkpt>
      <trkpt lat="48.84173" lon="2.40092">
        <ele>54.799999237061</ele>
        <time>2016-05-23T19:04:31.000Z</time>
      </trkpt>
      <trkpt lat="48.84155" lon="2.40084">
        <ele>54.599998474121</ele>
        <time>2016-05-23T19:04:34.000Z</time>
      </trkpt>
      <trkpt lat="48.84137" lon="2.40076">
        <ele>54.599998474121</ele>
        <time>2016-05-23T19:04:37.000Z</time>
      </trkpt>
      <trkpt lat="48.84114" lon="2.40065">
        <ele>54.799999237061</ele>
        <time>2016-05-23T19:04:41.000Z</time>
      </trkpt>
      <trkpt lat="48.84092" lon="2.40054">
        <ele>55.200000762939</ele>
        <time>2016-05-23T19:04:45.000Z</time>
      </trkpt>
      <trkpt lat="48.84074" lon="2.40045">
        <ele>55.799999237061</ele>
        <time>2016-05-23T19:04:48.000Z</time>
      </trkpt>
      <trkpt lat="48.84056" lon="2.40038">
        <ele>56.200000762939</ele>
        <time>2016-05-23T19:04:51.000Z</time>
      </trkpt>
      <trkpt lat="48.84036" lon="2.4003">
        <ele>56.599998474121</ele>
        <time>2016-05-23T19:04:55.000Z</time>
      </trkpt>
      <trkpt lat="48.84016" lon="2.40026">
        <ele>57</ele>
        <time>2016-05-23T19:04:59.000Z</time>
      </trkpt>
      <trkpt lat="48.83996" lon="2.40029">
        <ele>56.599998474121</ele>
        <time>2016-05-23T19:05:04.000Z</time>
      </trkpt>
      <trkpt lat="48.83991" lon="2.40028">
        <ele>56.599998474121</ele>
        <time>2016-05-23T19:05:06.000Z</time>
      </trkpt>
      <trkpt lat="48.83974" lon="2.40014">
        <ele>56.799999237061</ele>
        <time>2016-05-23T19:05:20.000Z</time>
      </trkpt>
      <trkpt lat="48.83969" lon="2.40007">
        <ele>57</ele>
        <time>2016-05-23T19:05:25.000Z</time>
      </trkpt>
      <trkpt lat="48.83965" lon="2.40031">
        <ele>56.200000762939</ele>
        <time>2016-05-23T19:05:33.000Z</time>
      </trkpt>
      <trkpt lat="48.83947" lon="2.40047">
        <ele>55.400001525879</ele>
        <time>2016-05-23T19:05:44.000Z</time>
      </trkpt>
      <trkpt lat="48.83929" lon="2.40057">
        <ele>54.799999237061</ele>
        <time>2016-05-23T19:05:50.000Z</time>
      </trkpt>
      <trkpt lat="48.83912" lon="2.40073">
        <ele>53.799999237061</ele>
        <time>2016-05-23T19:05:55.000Z</time>
      </trkpt>
      <trkpt lat="48.83895" lon="2.40091">
        <ele>52.599998474121</ele>
        <time>2016-05-23T19:05:59.000Z</time>
      </trkpt>
      <trkpt lat="48.83879" lon="2.40121">
        <ele>51.200000762939</ele>
        <time>2016-05-23T19:06:03.000Z</time>
      </trkpt>
      <trkpt lat="48.83867" lon="2.40144">
        <ele>50</ele>
        <time>2016-05-23T19:06:06.000Z</time>
      </trkpt>
      <trkpt lat="48.83849" lon="2.40159">
        <ele>49</ele>
        <time>2016-05-23T19:06:10.000Z</time>
      </trkpt>
      <trkpt lat="48.83837" lon="2.40158">
        <ele>48.599998474121</ele>
        <time>2016-05-23T19:06:12.000Z</time>
      </trkpt>
      <trkpt lat="48.83817" lon="2.40171">
        <ele>48</ele>
        <time>2016-05-23T19:06:16.000Z</time>
      </trkpt>
      <trkpt lat="48.83812" lon="2.40174">
        <ele>47.799999237061</ele>
        <time>2016-05-23T19:06:17.000Z</time>
      </trkpt>
      <trkpt lat="48.83792" lon="2.40186">
        <ele>47</ele>
        <time>2016-05-23T19:06:21.000Z</time>
      </trkpt>
      <trkpt lat="48.83776" lon="2.40199">
        <ele>46.200000762939</ele>
        <time>2016-05-23T19:06:25.000Z</time>
      </trkpt>
      <trkpt lat="48.83766" lon="2.40205">
        <ele>45.799999237061</ele>
        <time>2016-05-23T19:06:27.000Z</time>
      </trkpt>
      <trkpt lat="48.83747" lon="2.40205">
        <ele>45.400001525879</ele>
        <time>2016-05-23T19:06:31.000Z</time>
      </trkpt>
      <trkpt lat="48.83728" lon="2.40212">
        <ele>45</ele>
        <time>2016-05-23T19:06:59.000Z</time>
      </trkpt>
      <trkpt lat="48.83714" lon="2.40226">
        <ele>45.400001525879</ele>
        <time>2016-05-23T19:07:18.000Z</time>
      </trkpt>
      <trkpt lat="48.83699" lon="2.40241">
        <ele>45.799999237061</ele>
        <time>2016-05-23T19:07:24.000Z</time>
      </trkpt>
      <trkpt lat="48.8368" lon="2.4025">
        <ele>46</ele>
        <time>2016-05-23T19:07:29.000Z</time>
      </trkpt>
      <trkpt lat="48.83659" lon="2.40263">
        <ele>45.599998474121</ele>
        <time>2016-05-23T19:07:34.000Z</time>
      </trkpt>
      <trkpt lat="48.83642" lon="2.40279">
        <ele>45.200000762939</ele>
        <time>2016-05-23T19:07:39.000Z</time>
      </trkpt>
      <trkpt lat="48.83623" lon="2.40289">
        <ele>45</ele>
        <time>2016-05-23T19:07:45.000Z</time>
      </trkpt>
      <trkpt lat="48.83604" lon="2.40303">
        <ele>44.799999237061</ele>
        <time>2016-05-23T19:07:49.000Z</time>
      </trkpt>
      <trkpt lat="48.83584" lon="2.40318">
        <ele>44.799999237061</ele>
        <time>2016-05-23T19:07:53.000Z</time>
      </trkpt>
      <trkpt lat="48.83563" lon="2.40333">
        <ele>45.599998474121</ele>
        <time>2016-05-23T19:07:57.000Z</time>
      </trkpt>
      <trkpt lat="48.83558" lon="2.40339">
        <ele>45.799999237061</ele>
        <time>2016-05-23T19:07:58.000Z</time>
      </trkpt>
      <trkpt lat="48.8354" lon="2.40349">
        <ele>46.400001525879</ele>
        <time>2016-05-23T19:08:03.000Z</time>
      </trkpt>
      <trkpt lat="48.83536" lon="2.40351">
        <ele>46.400001525879</ele>
        <time>2016-05-23T19:08:04.000Z</time>
      </trkpt>
      <trkpt lat="48.83517" lon="2.40369">
        <ele>46.400001525879</ele>
        <time>2016-05-23T19:08:09.000Z</time>
      </trkpt>
      <trkpt lat="48.83508" lon="2.40383">
        <ele>45.799999237061</ele>
        <time>2016-05-23T19:08:12.000Z</time>
      </trkpt>
      <trkpt lat="48.83489" lon="2.40399">
        <ele>45.799999237061</ele>
        <time>2016-05-23T19:08:17.000Z</time>
      </trkpt>
      <trkpt lat="48.8347" lon="2.40413">
        <ele>46.599998474121</ele>
        <time>2016-05-23T19:08:22.000Z</time>
      </trkpt>
      <trkpt lat="48.83455" lon="2.40421">
        <ele>46.799999237061</ele>
        <time>2016-05-23T19:08:26.000Z</time>
      </trkpt>
      <trkpt lat="48.83444" lon="2.40423">
        <ele>47</ele>
        <time>2016-05-23T19:08:30.000Z</time>
      </trkpt>
      <trkpt lat="48.83441" lon="2.40426">
        <ele>47.400001525879</ele>
        <time>2016-05-23T19:08:32.000Z</time>
      </trkpt>
      <trkpt lat="48.83437" lon="2.40429">
        <ele>47.599998474121</ele>
        <time>2016-05-23T19:08:36.000Z</time>
      </trkpt>
      <trkpt lat="48.83437" lon="2.4043">
        <ele>47.599998474121</ele>
        <time>2016-05-23T19:08:37.000Z</time>
      </trkpt>
      <trkpt lat="48.83432" lon="2.40433">
        <ele>48.200000762939</ele>
        <time>2016-05-23T19:08:41.000Z</time>
      </trkpt>
      <trkpt lat="48.83418" lon="2.4043">
        <ele>49</ele>
        <time>2016-05-23T19:09:08.000Z</time>
      </trkpt>
      <trkpt lat="48.83403" lon="2.40407">
        <ele>48.599998474121</ele>
        <time>2016-05-23T19:09:14.000Z</time>
      </trkpt>
      <trkpt lat="48.8339" lon="2.40379">
        <ele>46.200000762939</ele>
        <time>2016-05-23T19:09:19.000Z</time>
      </trkpt>
      <trkpt lat="48.83388" lon="2.40373">
        <ele>45.599998474121</ele>
        <time>2016-05-23T19:09:20.000Z</time>
      </trkpt>
      <trkpt lat="48.83378" lon="2.40347">
        <ele>43.799999237061</ele>
        <time>2016-05-23T19:09:24.000Z</time>
      </trkpt>
      <trkpt lat="48.83369" lon="2.40319">
        <ele>43.400001525879</ele>
        <time>2016-05-23T19:09:28.000Z</time>
      </trkpt>
      <trkpt lat="48.83361" lon="2.40292">
        <ele>44</ele>
        <time>2016-05-23T19:09:32.000Z</time>
      </trkpt>
      <trkpt lat="48.83352" lon="2.40263">
        <ele>44.599998474121</ele>
        <time>2016-05-23T19:09:36.000Z</time>
      </trkpt>
      <trkpt lat="48.83343" lon="2.40234">
        <ele>45.400001525879</ele>
        <time>2016-05-23T19:09:40.000Z</time>
      </trkpt>
      <trkpt lat="48.83332" lon="2.40204">
        <ele>46.400001525879</ele>
        <time>2016-05-23T19:09:44.000Z</time>
      </trkpt>
      <trkpt lat="48.83321" lon="2.40174">
        <ele>47.200000762939</ele>
        <time>2016-05-23T19:09:48.000Z</time>
      </trkpt>
      <trkpt lat="48.83313" lon="2.4015">
        <ele>47.599998474121</ele>
        <time>2016-05-23T19:09:51.000Z</time>
      </trkpt>
      <trkpt lat="48.83304" lon="2.40125">
        <ele>47.799999237061</ele>
        <time>2016-05-23T19:09:54.000Z</time>
      </trkpt>
      <trkpt lat="48.83296" lon="2.40099">
        <ele>48</ele>
        <time>2016-05-23T19:09:57.000Z</time>
      </trkpt>
      <trkpt lat="48.83288" lon="2.40065">
        <ele>48.400001525879</ele>
        <time>2016-05-23T19:10:01.000Z</time>
      </trkpt>
      <trkpt lat="48.83279" lon="2.4004">
        <ele>48.599998474121</ele>
        <time>2016-05-23T19:10:04.000Z</time>
      </trkpt>
      <trkpt lat="48.83269" lon="2.4001">
        <ele>48.799999237061</ele>
        <time>2016-05-23T19:10:08.000Z</time>
      </trkpt>
      <trkpt lat="48.83264" lon="2.39984">
        <ele>49</ele>
        <time>2016-05-23T19:10:11.000Z</time>
      </trkpt>
      <trkpt lat="48.83254" lon="2.39954">
        <ele>49.400001525879</ele>
        <time>2016-05-23T19:10:15.000Z</time>
      </trkpt>
      <trkpt lat="48.83247" lon="2.39922">
        <ele>49.599998474121</ele>
        <time>2016-05-23T19:10:19.000Z</time>
      </trkpt>
      <trkpt lat="48.83236" lon="2.39891">
        <ele>49.200000762939</ele>
        <time>2016-05-23T19:10:23.000Z</time>
      </trkpt>
      <trkpt lat="48.83231" lon="2.39875">
        <ele>49</ele>
        <time>2016-05-23T19:10:25.000Z</time>
      </trkpt>
      <trkpt lat="48.83223" lon="2.3985">
        <ele>48</ele>
        <time>2016-05-23T19:10:28.000Z</time>
      </trkpt>
      <trkpt lat="48.83212" lon="2.39827">
        <ele>47.200000762939</ele>
        <time>2016-05-23T19:10:32.000Z</time>
      </trkpt>
      <trkpt lat="48.83202" lon="2.39802">
        <ele>46.599998474121</ele>
        <time>2016-05-23T19:10:37.000Z</time>
      </trkpt>
      <trkpt lat="48.83194" lon="2.3978">
        <ele>46</ele>
        <time>2016-05-23T19:10:43.000Z</time>
      </trkpt>
      <trkpt lat="48.83194" lon="2.39774">
        <ele>45.799999237061</ele>
        <time>2016-05-23T19:10:46.000Z</time>
      </trkpt>
      <trkpt lat="48.83186" lon="2.39753">
        <ele>44.799999237061</ele>
        <time>2016-05-23T19:11:23.000Z</time>
      </trkpt>
      <trkpt lat="48.83177" lon="2.39732">
        <ele>43.400001525879</ele>
        <time>2016-05-23T19:11:30.000Z</time>
      </trkpt>
      <trkpt lat="48.83166" lon="2.39709">
        <ele>41.799999237061</ele>
        <time>2016-05-23T19:11:36.000Z</time>
      </trkpt>
      <trkpt lat="48.83155" lon="2.39685">
        <ele>40.200000762939</ele>
        <time>2016-05-23T19:11:41.000Z</time>
      </trkpt>
      <trkpt lat="48.83148" lon="2.39668">
        <ele>39.200000762939</ele>
        <time>2016-05-23T19:11:44.000Z</time>
      </trkpt>
      <trkpt lat="48.83138" lon="2.39643">
        <ele>37.799999237061</ele>
        <time>2016-05-23T19:11:48.000Z</time>
      </trkpt>
      <trkpt lat="48.83127" lon="2.39616">
        <ele>36.599998474121</ele>
        <time>2016-05-23T19:11:52.000Z</time>
      </trkpt>
      <trkpt lat="48.83117" lon="2.39589">
        <ele>35</ele>
        <time>2016-05-23T19:11:56.000Z</time>
      </trkpt>
      <trkpt lat="48.83108" lon="2.3956">
        <ele>34.799999237061</ele>
        <time>2016-05-23T19:12:00.000Z</time>
      </trkpt>
      <trkpt lat="48.83098" lon="2.3953">
        <ele>35.599998474121</ele>
        <time>2016-05-23T19:12:04.000Z</time>
      </trkpt>
      <trkpt lat="48.83089" lon="2.395">
        <ele>36.400001525879</ele>
        <time>2016-05-23T19:12:08.000Z</time>
      </trkpt>
      <trkpt lat="48.8308" lon="2.3947">
        <ele>36.400001525879</ele>
        <time>2016-05-23T19:12:12.000Z</time>
      </trkpt>
      <trkpt lat="48.83072" lon="2.39441">
        <ele>36.200000762939</ele>
        <time>2016-05-23T19:12:16.000Z</time>
      </trkpt>
      <trkpt lat="48.8307" lon="2.39428">
        <ele>36.200000762939</ele>
        <time>2016-05-23T19:12:18.000Z</time>
      </trkpt>
      <trkpt lat="48.83064" lon="2.39399">
        <ele>36.400001525879</ele>
        <time>2016-05-23T19:12:22.000Z</time>
      </trkpt>
      <trkpt lat="48.83061" lon="2.39386">
        <ele>36.599998474121</ele>
        <time>2016-05-23T19:12:24.000Z</time>
      </trkpt>
      <trkpt lat="48.83054" lon="2.3936">
        <ele>37</ele>
        <time>2016-05-23T19:12:28.000Z</time>
      </trkpt>
      <trkpt lat="48.83047" lon="2.39326">
        <ele>37.599998474121</ele>
        <time>2016-05-23T19:12:32.000Z</time>
      </trkpt>
      <trkpt lat="48.83041" lon="2.39296">
        <ele>37.400001525879</ele>
        <time>2016-05-23T19:12:35.000Z</time>
      </trkpt>
      <trkpt lat="48.83035" lon="2.39269">
        <ele>37.200000762939</ele>
        <time>2016-05-23T19:12:38.000Z</time>
      </trkpt>
      <trkpt lat="48.83032" lon="2.39259">
        <ele>37.200000762939</ele>
        <time>2016-05-23T19:12:39.000Z</time>
      </trkpt>
      <trkpt lat="48.83023" lon="2.39235">
        <ele>36.599998474121</ele>
        <time>2016-05-23T19:12:42.000Z</time>
      </trkpt>
      <trkpt lat="48.8302" lon="2.39229">
        <ele>36.599998474121</ele>
        <time>2016-05-23T19:12:43.000Z</time>
      </trkpt>
      <trkpt lat="48.83006" lon="2.39203">
        <ele>36.200000762939</ele>
        <time>2016-05-23T19:12:47.000Z</time>
      </trkpt>
      <trkpt lat="48.83003" lon="2.39195">
        <ele>36</ele>
        <time>2016-05-23T19:12:48.000Z</time>
      </trkpt>
      <trkpt lat="48.82995" lon="2.39171">
        <ele>35.400001525879</ele>
        <time>2016-05-23T19:12:51.000Z</time>
      </trkpt>
      <trkpt lat="48.82985" lon="2.39145">
        <ele>36</ele>
        <time>2016-05-23T19:12:54.000Z</time>
      </trkpt>
      <trkpt lat="48.82976" lon="2.39119">
        <ele>36.599998474121</ele>
        <time>2016-05-23T19:12:57.000Z</time>
      </trkpt>
      <trkpt lat="48.82965" lon="2.39094">
        <ele>37</ele>
        <time>2016-05-23T19:13:00.000Z</time>
      </trkpt>
      <trkpt lat="48.82955" lon="2.39068">
        <ele>37.599998474121</ele>
        <time>2016-05-23T19:13:03.000Z</time>
      </trkpt>
      <trkpt lat="48.82944" lon="2.39041">
        <ele>38.400001525879</ele>
        <time>2016-05-23T19:13:06.000Z</time>
      </trkpt>
      <trkpt lat="48.82934" lon="2.39013">
        <ele>38.400001525879</ele>
        <time>2016-05-23T19:13:09.000Z</time>
      </trkpt>
      <trkpt lat="48.82923" lon="2.38987">
        <ele>37.400001525879</ele>
        <time>2016-05-23T19:13:12.000Z</time>
      </trkpt>
      <trkpt lat="48.82913" lon="2.38962">
        <ele>36</ele>
        <time>2016-05-23T19:13:15.000Z</time>
      </trkpt>
      <trkpt lat="48.82901" lon="2.38932">
        <ele>34.200000762939</ele>
        <time>2016-05-23T19:13:19.000Z</time>
      </trkpt>
      <trkpt lat="48.82891" lon="2.38907">
        <ele>33</ele>
        <time>2016-05-23T19:13:23.000Z</time>
      </trkpt>
      <trkpt lat="48.82886" lon="2.38895">
        <ele>32.599998474121</ele>
        <time>2016-05-23T19:13:25.000Z</time>
      </trkpt>
      <trkpt lat="48.82874" lon="2.38869">
        <ele>31.60000038147</ele>
        <time>2016-05-23T19:13:29.000Z</time>
      </trkpt>
      <trkpt lat="48.82862" lon="2.38842">
        <ele>30.60000038147</ele>
        <time>2016-05-23T19:13:33.000Z</time>
      </trkpt>
      <trkpt lat="48.82851" lon="2.38817">
        <ele>29.799999237061</ele>
        <time>2016-05-23T19:13:37.000Z</time>
      </trkpt>
      <trkpt lat="48.82837" lon="2.38789">
        <ele>29.799999237061</ele>
        <time>2016-05-23T19:13:41.000Z</time>
      </trkpt>
      <trkpt lat="48.82823" lon="2.38761">
        <ele>29.60000038147</ele>
        <time>2016-05-23T19:13:45.000Z</time>
      </trkpt>
      <trkpt lat="48.82812" lon="2.38737">
        <ele>29.60000038147</ele>
        <time>2016-05-23T19:13:48.000Z</time>
      </trkpt>
      <trkpt lat="48.828" lon="2.3871">
        <ele>30.200000762939</ele>
        <time>2016-05-23T19:13:51.000Z</time>
      </trkpt>
      <trkpt lat="48.82787" lon="2.38685">
        <ele>30.60000038147</ele>
        <time>2016-05-23T19:13:54.000Z</time>
      </trkpt>
      <trkpt lat="48.82774" lon="2.38659">
        <ele>30.799999237061</ele>
        <time>2016-05-23T19:13:57.000Z</time>
      </trkpt>
      <trkpt lat="48.82762" lon="2.38632">
        <ele>31.200000762939</ele>
        <time>2016-05-23T19:14:00.000Z</time>
      </trkpt>
      <trkpt lat="48.82749" lon="2.38605">
        <ele>31.200000762939</ele>
        <time>2016-05-23T19:14:03.000Z</time>
      </trkpt>
      <trkpt lat="48.82735" lon="2.38577">
        <ele>31.39999961853</ele>
        <time>2016-05-23T19:14:06.000Z</time>
      </trkpt>
      <trkpt lat="48.82722" lon="2.38551">
        <ele>31.200000762939</ele>
        <time>2016-05-23T19:14:09.000Z</time>
      </trkpt>
      <trkpt lat="48.82708" lon="2.38525">
        <ele>31</ele>
        <time>2016-05-23T19:14:12.000Z</time>
      </trkpt>
      <trkpt lat="48.82696" lon="2.38499">
        <ele>31</ele>
        <time>2016-05-23T19:14:15.000Z</time>
      </trkpt>
      <trkpt lat="48.82684" lon="2.38472">
        <ele>31.39999961853</ele>
        <time>2016-05-23T19:14:18.000Z</time>
      </trkpt>
      <trkpt lat="48.82673" lon="2.38447">
        <ele>32</ele>
        <time>2016-05-23T19:14:21.000Z</time>
      </trkpt>
      <trkpt lat="48.82661" lon="2.38425">
        <ele>32.599998474121</ele>
        <time>2016-05-23T19:14:24.000Z</time>
      </trkpt>
      <trkpt lat="48.82649" lon="2.384">
        <ele>33</ele>
        <time>2016-05-23T19:14:27.000Z</time>
      </trkpt>
      <trkpt lat="48.82638" lon="2.38377">
        <ele>33.200000762939</ele>
        <time>2016-05-23T19:14:30.000Z</time>
      </trkpt>
      <trkpt lat="48.8263" lon="2.38352">
        <ele>33.400001525879</ele>
        <time>2016-05-23T19:14:33.000Z</time>
      </trkpt>
      <trkpt lat="48.82619" lon="2.38324">
        <ele>33.799999237061</ele>
        <time>2016-05-23T19:14:37.000Z</time>
      </trkpt>
      <trkpt lat="48.8261" lon="2.38298">
        <ele>34</ele>
        <time>2016-05-23T19:14:41.000Z</time>
      </trkpt>
      <trkpt lat="48.82602" lon="2.38266">
        <ele>34</ele>
        <time>2016-05-23T19:14:45.000Z</time>
      </trkpt>
      <trkpt lat="48.82593" lon="2.38242">
        <ele>34.200000762939</ele>
        <time>2016-05-23T19:14:49.000Z</time>
      </trkpt>
      <trkpt lat="48.82583" lon="2.38215">
        <ele>34.200000762939</ele>
        <time>2016-05-23T19:14:54.000Z</time>
      </trkpt>
      <trkpt lat="48.82577" lon="2.38194">
        <ele>34</ele>
        <time>2016-05-23T19:14:58.000Z</time>
      </trkpt>
      <trkpt lat="48.82574" lon="2.3818">
        <ele>34</ele>
        <time>2016-05-23T19:15:02.000Z</time>
      </trkpt>
      <trkpt lat="48.82568" lon="2.3817">
        <ele>34</ele>
        <time>2016-05-23T19:15:34.000Z</time>
      </trkpt>
      <trkpt lat="48.82565" lon="2.38155">
        <ele>33.799999237061</ele>
        <time>2016-05-23T19:15:43.000Z</time>
      </trkpt>
      <trkpt lat="48.82566" lon="2.38154">
        <ele>33.799999237061</ele>
        <time>2016-05-23T19:16:46.000Z</time>
      </trkpt>
      <trkpt lat="48.82583" lon="2.38144">
        <ele>33.200000762939</ele>
        <time>2016-05-23T19:17:06.000Z</time>
      </trkpt>
      <trkpt lat="48.82584" lon="2.38139">
        <ele>33.400001525879</ele>
        <time>2016-05-23T19:17:08.000Z</time>
      </trkpt>
      <trkpt lat="48.82594" lon="2.38115">
        <ele>33.599998474121</ele>
        <time>2016-05-23T19:17:17.000Z</time>
      </trkpt>
      <trkpt lat="48.82603" lon="2.38088">
        <ele>34</ele>
        <time>2016-05-23T19:17:25.000Z</time>
      </trkpt>
      <trkpt lat="48.82609" lon="2.38063">
        <ele>33.799999237061</ele>
        <time>2016-05-23T19:17:32.000Z</time>
      </trkpt>
      <trkpt lat="48.82627" lon="2.3805">
        <ele>33.200000762939</ele>
        <time>2016-05-23T19:17:40.000Z</time>
      </trkpt>
      <trkpt lat="48.82644" lon="2.38033">
        <ele>32.599998474121</ele>
        <time>2016-05-23T19:17:49.000Z</time>
      </trkpt>
      <trkpt lat="48.82661" lon="2.3802">
        <ele>31.200000762939</ele>
        <time>2016-05-23T19:17:55.000Z</time>
      </trkpt>
      <trkpt lat="48.82676" lon="2.38004">
        <ele>30</ele>
        <time>2016-05-23T19:18:00.000Z</time>
      </trkpt>
      <trkpt lat="48.82692" lon="2.37991">
        <ele>29.200000762939</ele>
        <time>2016-05-23T19:18:05.000Z</time>
      </trkpt>
      <trkpt lat="48.82711" lon="2.37993">
        <ele>28.799999237061</ele>
        <time>2016-05-23T19:18:12.000Z</time>
      </trkpt>
      <trkpt lat="48.82718" lon="2.38001">
        <ele>28.799999237061</ele>
        <time>2016-05-23T19:18:16.000Z</time>
      </trkpt>
      <trkpt lat="48.82733" lon="2.3799">
        <ele>28.60000038147</ele>
        <time>2016-05-23T19:18:28.000Z</time>
      </trkpt>
      <trkpt lat="48.82747" lon="2.37973">
        <ele>28.799999237061</ele>
        <time>2016-05-23T19:18:34.000Z</time>
      </trkpt>
      <trkpt lat="48.82765" lon="2.37954">
        <ele>28.799999237061</ele>
        <time>2016-05-23T19:18:39.000Z</time>
      </trkpt>
      <trkpt lat="48.82782" lon="2.37942">
        <ele>29.39999961853</ele>
        <time>2016-05-23T19:18:43.000Z</time>
      </trkpt>
      <trkpt lat="48.828" lon="2.37924">
        <ele>30</ele>
        <time>2016-05-23T19:18:48.000Z</time>
      </trkpt>
      <trkpt lat="48.82819" lon="2.37908">
        <ele>30.39999961853</ele>
        <time>2016-05-23T19:18:53.000Z</time>
      </trkpt>
      <trkpt lat="48.82832" lon="2.37896">
        <ele>31.39999961853</ele>
        <time>2016-05-23T19:18:57.000Z</time>
      </trkpt>
      <trkpt lat="48.82838" lon="2.37892">
        <ele>31.60000038147</ele>
        <time>2016-05-23T19:18:59.000Z</time>
      </trkpt>
      <trkpt lat="48.82849" lon="2.37882">
        <ele>32.400001525879</ele>
        <time>2016-05-23T19:19:03.000Z</time>
      </trkpt>
      <trkpt lat="48.82841" lon="2.37856">
        <ele>33.400001525879</ele>
        <time>2016-05-23T19:19:09.000Z</time>
      </trkpt>
      <trkpt lat="48.82831" lon="2.37832">
        <ele>34.400001525879</ele>
        <time>2016-05-23T19:19:14.000Z</time>
      </trkpt>
      <trkpt lat="48.82821" lon="2.37809">
        <ele>34.200000762939</ele>
        <time>2016-05-23T19:19:20.000Z</time>
      </trkpt>
      <trkpt lat="48.82807" lon="2.37786">
        <ele>33.799999237061</ele>
        <time>2016-05-23T19:19:27.000Z</time>
      </trkpt>
      <trkpt lat="48.82795" lon="2.37756">
        <ele>34</ele>
        <time>2016-05-23T19:19:32.000Z</time>
      </trkpt>
      <trkpt lat="48.8278" lon="2.37728">
        <ele>34.200000762939</ele>
        <time>2016-05-23T19:19:36.000Z</time>
      </trkpt>
      <trkpt lat="48.8277" lon="2.37704">
        <ele>34.799999237061</ele>
        <time>2016-05-23T19:19:39.000Z</time>
      </trkpt>
      <trkpt lat="48.82761" lon="2.37671">
        <ele>36.400001525879</ele>
        <time>2016-05-23T19:19:43.000Z</time>
      </trkpt>
      <trkpt lat="48.82758" lon="2.37652">
        <ele>37.400001525879</ele>
        <time>2016-05-23T19:19:46.000Z</time>
      </trkpt>
      <trkpt lat="48.82755" lon="2.37631">
        <ele>39</ele>
        <time>2016-05-23T19:19:49.000Z</time>
      </trkpt>
      <trkpt lat="48.82748" lon="2.37602">
        <ele>41.400001525879</ele>
        <time>2016-05-23T19:19:53.000Z</time>
      </trkpt>
      <trkpt lat="48.82739" lon="2.37574">
        <ele>43</ele>
        <time>2016-05-23T19:19:57.000Z</time>
      </trkpt>
      <trkpt lat="48.82733" lon="2.37547">
        <ele>43</ele>
        <time>2016-05-23T19:20:01.000Z</time>
      </trkpt>
      <trkpt lat="48.82725" lon="2.3752">
        <ele>43.400001525879</ele>
        <time>2016-05-23T19:20:05.000Z</time>
      </trkpt>
      <trkpt lat="48.82718" lon="2.37498">
        <ele>44</ele>
        <time>2016-05-23T19:20:08.000Z</time>
      </trkpt>
      <trkpt lat="48.82713" lon="2.37477">
        <ele>45.599998474121</ele>
        <time>2016-05-23T19:20:11.000Z</time>
      </trkpt>
      <trkpt lat="48.82711" lon="2.37459">
        <ele>46.799999237061</ele>
        <time>2016-05-23T19:20:14.000Z</time>
      </trkpt>
      <trkpt lat="48.82709" lon="2.37444">
        <ele>47.799999237061</ele>
        <time>2016-05-23T19:20:17.000Z</time>
      </trkpt>
      <trkpt lat="48.82712" lon="2.37432">
        <ele>48.799999237061</ele>
        <time>2016-05-23T19:20:21.000Z</time>
      </trkpt>
      <trkpt lat="48.82714" lon="2.37429">
        <ele>49</ele>
        <time>2016-05-23T19:20:23.000Z</time>
      </trkpt>
      <trkpt lat="48.82719" lon="2.37422">
        <ele>49.799999237061</ele>
        <time>2016-05-23T19:20:27.000Z</time>
      </trkpt>
      <trkpt lat="48.82721" lon="2.37416">
        <ele>50.200000762939</ele>
        <time>2016-05-23T19:20:29.000Z</time>
      </trkpt>
      <trkpt lat="48.82726" lon="2.37389">
        <ele>51</ele>
        <time>2016-05-23T19:20:34.000Z</time>
      </trkpt>
      <trkpt lat="48.82731" lon="2.37357">
        <ele>51.799999237061</ele>
        <time>2016-05-23T19:20:39.000Z</time>
      </trkpt>
      <trkpt lat="48.8274" lon="2.37325">
        <ele>52.799999237061</ele>
        <time>2016-05-23T19:20:44.000Z</time>
      </trkpt>
      <trkpt lat="48.82744" lon="2.3729">
        <ele>54.400001525879</ele>
        <time>2016-05-23T19:20:48.000Z</time>
      </trkpt>
      <trkpt lat="48.8275" lon="2.3726">
        <ele>56</ele>
        <time>2016-05-23T19:20:52.000Z</time>
      </trkpt>
      <trkpt lat="48.82754" lon="2.3723">
        <ele>56.799999237061</ele>
        <time>2016-05-23T19:20:55.000Z</time>
      </trkpt>
      <trkpt lat="48.82758" lon="2.37195">
        <ele>56.799999237061</ele>
        <time>2016-05-23T19:20:59.000Z</time>
      </trkpt>
      <trkpt lat="48.82758" lon="2.37177">
        <ele>56.799999237061</ele>
        <time>2016-05-23T19:21:02.000Z</time>
      </trkpt>
      <trkpt lat="48.82759" lon="2.37164">
        <ele>56.799999237061</ele>
        <time>2016-05-23T19:21:06.000Z</time>
      </trkpt>
      <trkpt lat="48.82761" lon="2.37159">
        <ele>57.200000762939</ele>
        <time>2016-05-23T19:21:11.000Z</time>
      </trkpt>
      <trkpt lat="48.82757" lon="2.37152">
        <ele>57.400001525879</ele>
        <time>2016-05-23T19:21:31.000Z</time>
      </trkpt>
      <trkpt lat="48.82763" lon="2.37132">
        <ele>57.400001525879</ele>
        <time>2016-05-23T19:22:03.000Z</time>
      </trkpt>
      <trkpt lat="48.82761" lon="2.37102">
        <ele>57.400001525879</ele>
        <time>2016-05-23T19:22:12.000Z</time>
      </trkpt>
      <trkpt lat="48.82763" lon="2.37094">
        <ele>57.400001525879</ele>
        <time>2016-05-23T19:22:15.000Z</time>
      </trkpt>
      <trkpt lat="48.82775" lon="2.3707">
        <ele>57.200000762939</ele>
        <time>2016-05-23T19:22:23.000Z</time>
      </trkpt>
      <trkpt lat="48.82787" lon="2.37049">
        <ele>57.400001525879</ele>
        <time>2016-05-23T19:22:28.000Z</time>
      </trkpt>
      <trkpt lat="48.82803" lon="2.37035">
        <ele>57.599998474121</ele>
        <time>2016-05-23T19:22:32.000Z</time>
      </trkpt>
      <trkpt lat="48.82821" lon="2.37019">
        <ele>56.799999237061</ele>
        <time>2016-05-23T19:22:36.000Z</time>
      </trkpt>
      <trkpt lat="48.82841" lon="2.37009">
        <ele>55.799999237061</ele>
        <time>2016-05-23T19:22:40.000Z</time>
      </trkpt>
      <trkpt lat="48.8282" lon="2.3697">
        <ele>56.200000762939</ele>
        <time>2016-05-23T19:22:45.000Z</time>
      </trkpt>
      <trkpt lat="48.82814" lon="2.36939">
        <ele>56.400001525879</ele>
        <time>2016-05-23T19:22:50.000Z</time>
      </trkpt>
      <trkpt lat="48.82817" lon="2.36913">
        <ele>55.799999237061</ele>
        <time>2016-05-23T19:22:54.000Z</time>
      </trkpt>
      <trkpt lat="48.82819" lon="2.36891">
        <ele>55</ele>
        <time>2016-05-23T19:22:57.000Z</time>
      </trkpt>
      <trkpt lat="48.82826" lon="2.36864">
        <ele>54.799999237061</ele>
        <time>2016-05-23T19:23:02.000Z</time>
      </trkpt>
      <trkpt lat="48.82829" lon="2.3686">
        <ele>55</ele>
        <time>2016-05-23T19:23:03.000Z</time>
      </trkpt>
      <trkpt lat="48.8284" lon="2.36839">
        <ele>55.599998474121</ele>
        <time>2016-05-23T19:23:06.000Z</time>
      </trkpt>
      <trkpt lat="48.82847" lon="2.36806">
        <ele>54.599998474121</ele>
        <time>2016-05-23T19:23:11.000Z</time>
      </trkpt>
      <trkpt lat="48.82853" lon="2.36782">
        <ele>53.599998474121</ele>
        <time>2016-05-23T19:23:15.000Z</time>
      </trkpt>
      <trkpt lat="48.82854" lon="2.36774">
        <ele>53.200000762939</ele>
        <time>2016-05-23T19:23:17.000Z</time>
      </trkpt>
      <trkpt lat="48.82846" lon="2.36746">
        <ele>51.799999237061</ele>
        <time>2016-05-23T19:23:22.000Z</time>
      </trkpt>
      <trkpt lat="48.82841" lon="2.3673">
        <ele>52.200000762939</ele>
        <time>2016-05-23T19:23:28.000Z</time>
      </trkpt>
      <trkpt lat="48.82828" lon="2.36708">
        <ele>52.400001525879</ele>
        <time>2016-05-23T19:23:36.000Z</time>
      </trkpt>
      <trkpt lat="48.82815" lon="2.36682">
        <ele>53</ele>
        <time>2016-05-23T19:23:43.000Z</time>
      </trkpt>
      <trkpt lat="48.828" lon="2.36664">
        <ele>53</ele>
        <time>2016-05-23T19:23:49.000Z</time>
      </trkpt>
      <trkpt lat="48.82785" lon="2.36644">
        <ele>52.799999237061</ele>
        <time>2016-05-23T19:23:56.000Z</time>
      </trkpt>
      <trkpt lat="48.82771" lon="2.36623">
        <ele>52.599998474121</ele>
        <time>2016-05-23T19:24:04.000Z</time>
      </trkpt>
      <trkpt lat="48.82753" lon="2.36612">
        <ele>54.599998474121</ele>
        <time>2016-05-23T19:24:14.000Z</time>
      </trkpt>
      <trkpt lat="48.82743" lon="2.36612">
        <ele>55.400001525879</ele>
        <time>2016-05-23T19:24:19.000Z</time>
      </trkpt>
      <trkpt lat="48.82724" lon="2.36616">
        <ele>57.200000762939</ele>
        <time>2016-05-23T19:24:26.000Z</time>
      </trkpt>
      <trkpt lat="48.82706" lon="2.36622">
        <ele>58</ele>
        <time>2016-05-23T19:24:33.000Z</time>
      </trkpt>
      <trkpt lat="48.82703" lon="2.36623">
        <ele>58.200000762939</ele>
        <time>2016-05-23T19:24:35.000Z</time>
      </trkpt>
      <trkpt lat="48.82687" lon="2.36639">
        <ele>58.200000762939</ele>
        <time>2016-05-23T19:24:48.000Z</time>
      </trkpt>
      <trkpt lat="48.82669" lon="2.36649">
        <ele>58.200000762939</ele>
        <time>2016-05-23T19:24:54.000Z</time>
      </trkpt>
      <trkpt lat="48.82652" lon="2.3666">
        <ele>58.200000762939</ele>
        <time>2016-05-23T19:24:59.000Z</time>
      </trkpt>
      <trkpt lat="48.82631" lon="2.36675">
        <ele>58.799999237061</ele>
        <time>2016-05-23T19:25:04.000Z</time>
      </trkpt>
      <trkpt lat="48.82612" lon="2.36688">
        <ele>60.400001525879</ele>
        <time>2016-05-23T19:25:09.000Z</time>
      </trkpt>
      <trkpt lat="48.82591" lon="2.36699">
        <ele>61.599998474121</ele>
        <time>2016-05-23T19:25:14.000Z</time>
      </trkpt>
      <trkpt lat="48.82573" lon="2.3671">
        <ele>62.599998474121</ele>
        <time>2016-05-23T19:25:18.000Z</time>
      </trkpt>
      <trkpt lat="48.82553" lon="2.36723">
        <ele>61.200000762939</ele>
        <time>2016-05-23T19:25:22.000Z</time>
      </trkpt>
      <trkpt lat="48.82533" lon="2.36739">
        <ele>59</ele>
        <time>2016-05-23T19:25:26.000Z</time>
      </trkpt>
      <trkpt lat="48.82514" lon="2.36755">
        <ele>57.799999237061</ele>
        <time>2016-05-23T19:25:30.000Z</time>
      </trkpt>
      <trkpt lat="48.825" lon="2.36762">
        <ele>57.599998474121</ele>
        <time>2016-05-23T19:25:33.000Z</time>
      </trkpt>
      <trkpt lat="48.82479" lon="2.36772">
        <ele>57.200000762939</ele>
        <time>2016-05-23T19:25:37.000Z</time>
      </trkpt>
      <trkpt lat="48.82457" lon="2.36783">
        <ele>57.799999237061</ele>
        <time>2016-05-23T19:25:41.000Z</time>
      </trkpt>
      <trkpt lat="48.82438" lon="2.36795">
        <ele>59.400001525879</ele>
        <time>2016-05-23T19:25:45.000Z</time>
      </trkpt>
      <trkpt lat="48.8242" lon="2.36802">
        <ele>61.200000762939</ele>
        <time>2016-05-23T19:25:50.000Z</time>
      </trkpt>
      <trkpt lat="48.82401" lon="2.36814">
        <ele>61.799999237061</ele>
        <time>2016-05-23T19:25:56.000Z</time>
      </trkpt>
      <trkpt lat="48.82383" lon="2.36824">
        <ele>61.400001525879</ele>
        <time>2016-05-23T19:26:00.000Z</time>
      </trkpt>
      <trkpt lat="48.8237" lon="2.36834">
        <ele>61.200000762939</ele>
        <time>2016-05-23T19:26:03.000Z</time>
      </trkpt>
      <trkpt lat="48.82361" lon="2.36838">
        <ele>61.400001525879</ele>
        <time>2016-05-23T19:26:05.000Z</time>
      </trkpt>
      <trkpt lat="48.82344" lon="2.36847">
        <ele>61.200000762939</ele>
        <time>2016-05-23T19:26:09.000Z</time>
      </trkpt>
      <trkpt lat="48.82323" lon="2.36855">
        <ele>60.599998474121</ele>
        <time>2016-05-23T19:26:14.000Z</time>
      </trkpt>
      <trkpt lat="48.82317" lon="2.36858">
        <ele>60.599998474121</ele>
        <time>2016-05-23T19:26:16.000Z</time>
      </trkpt>
      <trkpt lat="48.82308" lon="2.36863">
        <ele>60.400001525879</ele>
        <time>2016-05-23T19:26:19.000Z</time>
      </trkpt>
      <trkpt lat="48.82295" lon="2.36866">
        <ele>59.599998474121</ele>
        <time>2016-05-23T19:26:25.000Z</time>
      </trkpt>
      <trkpt lat="48.82286" lon="2.36857">
        <ele>59</ele>
        <time>2016-05-23T19:26:58.000Z</time>
      </trkpt>
      <trkpt lat="48.82282" lon="2.36829">
        <ele>58.400001525879</ele>
        <time>2016-05-23T19:27:05.000Z</time>
      </trkpt>
      <trkpt lat="48.82277" lon="2.36801">
        <ele>58.599998474121</ele>
        <time>2016-05-23T19:27:11.000Z</time>
      </trkpt>
      <trkpt lat="48.82271" lon="2.36776">
        <ele>58.599998474121</ele>
        <time>2016-05-23T19:27:16.000Z</time>
      </trkpt>
      <trkpt lat="48.82266" lon="2.36745">
        <ele>59.200000762939</ele>
        <time>2016-05-23T19:27:22.000Z</time>
      </trkpt>
      <trkpt lat="48.82262" lon="2.36723">
        <ele>59.200000762939</ele>
        <time>2016-05-23T19:27:30.000Z</time>
      </trkpt>
      <trkpt lat="48.82269" lon="2.36698">
        <ele>59</ele>
        <time>2016-05-23T19:28:01.000Z</time>
      </trkpt>
      <trkpt lat="48.82281" lon="2.36676">
        <ele>59.400001525879</ele>
        <time>2016-05-23T19:28:09.000Z</time>
      </trkpt>
      <trkpt lat="48.82283" lon="2.36645">
        <ele>58.799999237061</ele>
        <time>2016-05-23T19:28:19.000Z</time>
      </trkpt>
      <trkpt lat="48.82282" lon="2.36636">
        <ele>58.599998474121</ele>
        <time>2016-05-23T19:28:23.000Z</time>
      </trkpt>
      <trkpt lat="48.82304" lon="2.36662">
        <ele>59</ele>
        <time>2016-05-23T19:28:31.000Z</time>
      </trkpt>
      <trkpt lat="48.82318" lon="2.36684">
        <ele>59.799999237061</ele>
        <time>2016-05-23T19:28:35.000Z</time>
      </trkpt>
      <trkpt lat="48.8232" lon="2.36688">
        <ele>59.799999237061</ele>
        <time>2016-05-23T19:28:36.000Z</time>
      </trkpt>
      <trkpt lat="48.82335" lon="2.36714">
        <ele>60.799999237061</ele>
        <time>2016-05-23T19:28:43.000Z</time>
      </trkpt>
      <trkpt lat="48.82608" lon="2.36336">
        <ele>49.200000762939</ele>
        <time>2016-05-23T19:30:36.000Z</time>
      </trkpt>
      <trkpt lat="48.82623" lon="2.36341">
        <ele>50</ele>
        <time>2016-05-23T19:30:57.000Z</time>
      </trkpt>
      <trkpt lat="48.82641" lon="2.36356">
        <ele>51</ele>
        <time>2016-05-23T19:31:02.000Z</time>
      </trkpt>
      <trkpt lat="48.82655" lon="2.36365">
        <ele>51.799999237061</ele>
        <time>2016-05-23T19:31:07.000Z</time>
      </trkpt>
      <trkpt lat="48.82657" lon="2.36366">
        <ele>51.799999237061</ele>
        <time>2016-05-23T19:31:10.000Z</time>
      </trkpt>
      <trkpt lat="48.82675" lon="2.36352">
        <ele>53.400001525879</ele>
        <time>2016-05-23T19:31:22.000Z</time>
      </trkpt>
      <trkpt lat="48.82692" lon="2.36336">
        <ele>54.799999237061</ele>
        <time>2016-05-23T19:31:28.000Z</time>
      </trkpt>
      <trkpt lat="48.8271" lon="2.36315">
        <ele>54</ele>
        <time>2016-05-23T19:31:33.000Z</time>
      </trkpt>
      <trkpt lat="48.82724" lon="2.36295">
        <ele>53.200000762939</ele>
        <time>2016-05-23T19:31:36.000Z</time>
      </trkpt>
      <trkpt lat="48.82738" lon="2.36274">
        <ele>52.799999237061</ele>
        <time>2016-05-23T19:31:39.000Z</time>
      </trkpt>
      <trkpt lat="48.82754" lon="2.3625">
        <ele>52.400001525879</ele>
        <time>2016-05-23T19:31:43.000Z</time>
      </trkpt>
      <trkpt lat="48.82771" lon="2.36226">
        <ele>52.799999237061</ele>
        <time>2016-05-23T19:31:47.000Z</time>
      </trkpt>
      <trkpt lat="48.82779" lon="2.36213">
        <ele>53.599998474121</ele>
        <time>2016-05-23T19:31:49.000Z</time>
      </trkpt>
      <trkpt lat="48.82791" lon="2.36192">
        <ele>54.599998474121</ele>
        <time>2016-05-23T19:31:52.000Z</time>
      </trkpt>
      <trkpt lat="48.82802" lon="2.36178">
        <ele>55.599998474121</ele>
        <time>2016-05-23T19:31:55.000Z</time>
      </trkpt>
      <trkpt lat="48.82808" lon="2.36169">
        <ele>56.200000762939</ele>
        <time>2016-05-23T19:31:57.000Z</time>
      </trkpt>
      <trkpt lat="48.82825" lon="2.36152">
        <ele>57</ele>
        <time>2016-05-23T19:32:01.000Z</time>
      </trkpt>
      <trkpt lat="48.82843" lon="2.36129">
        <ele>57.200000762939</ele>
        <time>2016-05-23T19:32:05.000Z</time>
      </trkpt>
      <trkpt lat="48.82852" lon="2.36118">
        <ele>57.400001525879</ele>
        <time>2016-05-23T19:32:07.000Z</time>
      </trkpt>
      <trkpt lat="48.82872" lon="2.36098">
        <ele>55.799999237061</ele>
        <time>2016-05-23T19:32:11.000Z</time>
      </trkpt>
      <trkpt lat="48.82881" lon="2.36089">
        <ele>55.799999237061</ele>
        <time>2016-05-23T19:32:13.000Z</time>
      </trkpt>
      <trkpt lat="48.82899" lon="2.36074">
        <ele>55.599998474121</ele>
        <time>2016-05-23T19:32:17.000Z</time>
      </trkpt>
      <trkpt lat="48.82902" lon="2.36069">
        <ele>55.799999237061</ele>
        <time>2016-05-23T19:32:18.000Z</time>
      </trkpt>
      <trkpt lat="48.8292" lon="2.36055">
        <ele>56</ele>
        <time>2016-05-23T19:32:23.000Z</time>
      </trkpt>
      <trkpt lat="48.82923" lon="2.36054">
        <ele>56</ele>
        <time>2016-05-23T19:32:24.000Z</time>
      </trkpt>
      <trkpt lat="48.82928" lon="2.36051">
        <ele>56.400001525879</ele>
        <time>2016-05-23T19:32:26.000Z</time>
      </trkpt>
      <trkpt lat="48.8294" lon="2.36036">
        <ele>57.799999237061</ele>
        <time>2016-05-23T19:32:31.000Z</time>
      </trkpt>
      <trkpt lat="48.82948" lon="2.36024">
        <ele>58.799999237061</ele>
        <time>2016-05-23T19:32:35.000Z</time>
      </trkpt>
      <trkpt lat="48.82952" lon="2.36014">
        <ele>59.799999237061</ele>
        <time>2016-05-23T19:32:38.000Z</time>
      </trkpt>
      <trkpt lat="48.82958" lon="2.36001">
        <ele>61</ele>
        <time>2016-05-23T19:32:42.000Z</time>
      </trkpt>
      <trkpt lat="48.82973" lon="2.3598">
        <ele>61.599998474121</ele>
        <time>2016-05-23T19:32:49.000Z</time>
      </trkpt>
      <trkpt lat="48.82983" lon="2.35951">
        <ele>62.200000762939</ele>
        <time>2016-05-23T19:32:57.000Z</time>
      </trkpt>
      <trkpt lat="48.82996" lon="2.3593">
        <ele>63</ele>
        <time>2016-05-23T19:33:03.000Z</time>
      </trkpt>
      <trkpt lat="48.83008" lon="2.35912">
        <ele>63.599998474121</ele>
        <time>2016-05-23T19:33:08.000Z</time>
      </trkpt>
      <trkpt lat="48.83024" lon="2.35892">
        <ele>64.800003051758</ele>
        <time>2016-05-23T19:33:13.000Z</time>
      </trkpt>
      <trkpt lat="48.83038" lon="2.35871">
        <ele>66</ele>
        <time>2016-05-23T19:33:18.000Z</time>
      </trkpt>
      <trkpt lat="48.83054" lon="2.35853">
        <ele>66.400001525879</ele>
        <time>2016-05-23T19:33:25.000Z</time>
      </trkpt>
      <trkpt lat="48.8307" lon="2.35838">
        <ele>65.400001525879</ele>
        <time>2016-05-23T19:33:29.000Z</time>
      </trkpt>
      <trkpt lat="48.83089" lon="2.35822">
        <ele>65.199996948242</ele>
        <time>2016-05-23T19:33:34.000Z</time>
      </trkpt>
      <trkpt lat="48.83108" lon="2.35821">
        <ele>64.400001525879</ele>
        <time>2016-05-23T19:33:38.000Z</time>
      </trkpt>
      <trkpt lat="48.83138" lon="2.3582">
        <ele>63.599998474121</ele>
        <time>2016-05-23T19:33:43.000Z</time>
      </trkpt>
      <trkpt lat="48.83145" lon="2.35816">
        <ele>63.599998474121</ele>
        <time>2016-05-23T19:33:48.000Z</time>
      </trkpt>
      <trkpt lat="48.83163" lon="2.35812">
        <ele>63.400001525879</ele>
        <time>2016-05-23T19:34:14.000Z</time>
      </trkpt>
      <trkpt lat="48.8318" lon="2.3581">
        <ele>62.799999237061</ele>
        <time>2016-05-23T19:34:19.000Z</time>
      </trkpt>
      <trkpt lat="48.83181" lon="2.35795">
        <ele>63.200000762939</ele>
        <time>2016-05-23T19:34:23.000Z</time>
      </trkpt>
      <trkpt lat="48.83166" lon="2.3577">
        <ele>64.400001525879</ele>
        <time>2016-05-23T19:34:27.000Z</time>
      </trkpt>
      <trkpt lat="48.83155" lon="2.35745">
        <ele>65.199996948242</ele>
        <time>2016-05-23T19:34:31.000Z</time>
      </trkpt>
      <trkpt lat="48.83143" lon="2.35723">
        <ele>64.800003051758</ele>
        <time>2016-05-23T19:34:36.000Z</time>
      </trkpt>
      <trkpt lat="48.8314" lon="2.35694">
        <ele>64</ele>
        <time>2016-05-23T19:34:41.000Z</time>
      </trkpt>
      <trkpt lat="48.83143" lon="2.35681">
        <ele>63.799999237061</ele>
        <time>2016-05-23T19:34:43.000Z</time>
      </trkpt>
      <trkpt lat="48.83161" lon="2.35667">
        <ele>63.400001525879</ele>
        <time>2016-05-23T19:34:49.000Z</time>
      </trkpt>
      <trkpt lat="48.83181" lon="2.35656">
        <ele>63</ele>
        <time>2016-05-23T19:34:55.000Z</time>
      </trkpt>
      <trkpt lat="48.832" lon="2.35647">
        <ele>62.400001525879</ele>
        <time>2016-05-23T19:35:00.000Z</time>
      </trkpt>
      <trkpt lat="48.83217" lon="2.35635">
        <ele>62</ele>
        <time>2016-05-23T19:35:06.000Z</time>
      </trkpt>
      <trkpt lat="48.83221" lon="2.35625">
        <ele>61.599998474121</ele>
        <time>2016-05-23T19:35:09.000Z</time>
      </trkpt>
      <trkpt lat="48.83224" lon="2.35595">
        <ele>61.200000762939</ele>
        <time>2016-05-23T19:35:15.000Z</time>
      </trkpt>
      <trkpt lat="48.83222" lon="2.35566">
        <ele>61.400001525879</ele>
        <time>2016-05-23T19:35:21.000Z</time>
      </trkpt>
      <trkpt lat="48.83222" lon="2.35539">
        <ele>61.599998474121</ele>
        <time>2016-05-23T19:35:27.000Z</time>
      </trkpt>
      <trkpt lat="48.83223" lon="2.35533">
        <ele>61.799999237061</ele>
        <time>2016-05-23T19:35:29.000Z</time>
      </trkpt>
      <trkpt lat="48.83234" lon="2.35506">
        <ele>62</ele>
        <time>2016-05-23T19:35:40.000Z</time>
      </trkpt>
      <trkpt lat="48.83251" lon="2.35492">
        <ele>62.599998474121</ele>
        <time>2016-05-23T19:35:45.000Z</time>
      </trkpt>
      <trkpt lat="48.83271" lon="2.35479">
        <ele>62.799999237061</ele>
        <time>2016-05-23T19:35:50.000Z</time>
      </trkpt>
      <trkpt lat="48.8329" lon="2.35467">
        <ele>62.200000762939</ele>
        <time>2016-05-23T19:35:54.000Z</time>
      </trkpt>
      <trkpt lat="48.83309" lon="2.35449">
        <ele>61.599998474121</ele>
        <time>2016-05-23T19:35:59.000Z</time>
      </trkpt>
      <trkpt lat="48.83321" lon="2.35435">
        <ele>61</ele>
        <time>2016-05-23T19:36:04.000Z</time>
      </trkpt>
      <trkpt lat="48.83313" lon="2.35411">
        <ele>60.799999237061</ele>
        <time>2016-05-23T19:36:11.000Z</time>
      </trkpt>
      <trkpt lat="48.833" lon="2.35392">
        <ele>60</ele>
        <time>2016-05-23T19:36:16.000Z</time>
      </trkpt>
      <trkpt lat="48.83286" lon="2.35367">
        <ele>58.799999237061</ele>
        <time>2016-05-23T19:36:21.000Z</time>
      </trkpt>
      <trkpt lat="48.8327" lon="2.35346">
        <ele>58</ele>
        <time>2016-05-23T19:36:27.000Z</time>
      </trkpt>
      <trkpt lat="48.83254" lon="2.35325">
        <ele>58</ele>
        <time>2016-05-23T19:36:33.000Z</time>
      </trkpt>
      <trkpt lat="48.83238" lon="2.35314">
        <ele>58.599998474121</ele>
        <time>2016-05-23T19:36:38.000Z</time>
      </trkpt>
      <trkpt lat="48.83223" lon="2.35295">
        <ele>59</ele>
        <time>2016-05-23T19:36:43.000Z</time>
      </trkpt>
      <trkpt lat="48.83204" lon="2.35281">
        <ele>60</ele>
        <time>2016-05-23T19:36:49.000Z</time>
      </trkpt>
      <trkpt lat="48.83195" lon="2.35281">
        <ele>60.400001525879</ele>
        <time>2016-05-23T19:36:53.000Z</time>
      </trkpt>
      <trkpt lat="48.83179" lon="2.35273">
        <ele>60.599998474121</ele>
        <time>2016-05-23T19:37:09.000Z</time>
      </trkpt>
      <trkpt lat="48.83175" lon="2.35266">
        <ele>60.400001525879</ele>
        <time>2016-05-23T19:37:14.000Z</time>
      </trkpt>
      <trkpt lat="48.83174" lon="2.35265">
        <ele>60.400001525879</ele>
        <time>2016-05-23T19:37:15.000Z</time>
      </trkpt>
      <trkpt lat="48.83169" lon="2.35255">
        <ele>60.200000762939</ele>
        <time>2016-05-23T19:37:25.000Z</time>
      </trkpt>
      <trkpt lat="48.8319" lon="2.35242">
        <ele>59.599998474121</ele>
        <time>2016-05-23T19:37:36.000Z</time>
      </trkpt>
      <trkpt lat="48.83206" lon="2.35225">
        <ele>57</ele>
        <time>2016-05-23T19:37:42.000Z</time>
      </trkpt>
      <trkpt lat="48.83217" lon="2.35198">
        <ele>54.400001525879</ele>
        <time>2016-05-23T19:37:54.000Z</time>
      </trkpt>
      <trkpt lat="48.83214" lon="2.3517">
        <ele>53.400001525879</ele>
        <time>2016-05-23T19:38:02.000Z</time>
      </trkpt>
      <trkpt lat="48.832" lon="2.35147">
        <ele>53</ele>
        <time>2016-05-23T19:38:10.000Z</time>
      </trkpt>
      <trkpt lat="48.83186" lon="2.35128">
        <ele>52.599998474121</ele>
        <time>2016-05-23T19:38:18.000Z</time>
      </trkpt>
      <trkpt lat="48.83171" lon="2.35097">
        <ele>51.400001525879</ele>
        <time>2016-05-23T19:38:25.000Z</time>
      </trkpt>
      <trkpt lat="48.83165" lon="2.35075">
        <ele>50.400001525879</ele>
        <time>2016-05-23T19:38:31.000Z</time>
      </trkpt>
      <trkpt lat="48.8318" lon="2.35062">
        <ele>48.400001525879</ele>
        <time>2016-05-23T19:38:52.000Z</time>
      </trkpt>
      <trkpt lat="48.8319" lon="2.35038">
        <ele>45.799999237061</ele>
        <time>2016-05-23T19:39:01.000Z</time>
      </trkpt>
      <trkpt lat="48.83197" lon="2.3501">
        <ele>43.200000762939</ele>
        <time>2016-05-23T19:39:09.000Z</time>
      </trkpt>
      <trkpt lat="48.83196" lon="2.34988">
        <ele>42.200000762939</ele>
        <time>2016-05-23T19:39:17.000Z</time>
      </trkpt>
      <trkpt lat="48.83206" lon="2.34994">
        <ele>41.799999237061</ele>
        <time>2016-05-23T19:39:30.000Z</time>
      </trkpt>
      <trkpt lat="48.83205" lon="2.34983">
        <ele>41.599998474121</ele>
        <time>2016-05-23T19:40:11.000Z</time>
      </trkpt>
      <trkpt lat="48.8321" lon="2.34984">
        <ele>41.200000762939</ele>
        <time>2016-05-23T19:40:27.000Z</time>
      </trkpt>
      <trkpt lat="48.83225" lon="2.34979">
        <ele>40.200000762939</ele>
        <time>2016-05-23T19:40:36.000Z</time>
      </trkpt>
      <trkpt lat="48.83221" lon="2.34977">
        <ele>40.400001525879</ele>
        <time>2016-05-23T19:40:40.000Z</time>
      </trkpt>
      <trkpt lat="48.83208" lon="2.34956">
        <ele>40.400001525879</ele>
        <time>2016-05-23T19:40:47.000Z</time>
      </trkpt>
      <trkpt lat="48.83195" lon="2.34936">
        <ele>40.400001525879</ele>
        <time>2016-05-23T19:40:53.000Z</time>
      </trkpt>
      <trkpt lat="48.83178" lon="2.34915">
        <ele>40.599998474121</ele>
        <time>2016-05-23T19:40:59.000Z</time>
      </trkpt>
      <trkpt lat="48.83163" lon="2.349">
        <ele>41.200000762939</ele>
        <time>2016-05-23T19:41:03.000Z</time>
      </trkpt>
      <trkpt lat="48.83144" lon="2.34876">
        <ele>42.200000762939</ele>
        <time>2016-05-23T19:41:09.000Z</time>
      </trkpt>
      <trkpt lat="48.8313" lon="2.34856">
        <ele>42.799999237061</ele>
        <time>2016-05-23T19:41:12.000Z</time>
      </trkpt>
      <trkpt lat="48.83121" lon="2.34841">
        <ele>43.200000762939</ele>
        <time>2016-05-23T19:41:19.000Z</time>
      </trkpt>
      <trkpt lat="48.83122" lon="2.34836">
        <ele>43.200000762939</ele>
        <time>2016-05-23T19:41:27.000Z</time>
      </trkpt>
      <trkpt lat="48.83136" lon="2.3485">
        <ele>42.599998474121</ele>
        <time>2016-05-23T19:41:51.000Z</time>
      </trkpt>
      <trkpt lat="48.83136" lon="2.34851">
        <ele>42.599998474121</ele>
        <time>2016-05-23T19:41:52.000Z</time>
      </trkpt>
      <trkpt lat="48.83122" lon="2.34846">
        <ele>43.200000762939</ele>
        <time>2016-05-23T19:41:59.000Z</time>
      </trkpt>
      <trkpt lat="48.83106" lon="2.34827">
        <ele>44.200000762939</ele>
        <time>2016-05-23T19:42:05.000Z</time>
      </trkpt>
      <trkpt lat="48.83096" lon="2.3482">
        <ele>44.599998474121</ele>
        <time>2016-05-23T19:42:12.000Z</time>
      </trkpt>
      <trkpt lat="48.83089" lon="2.34829">
        <ele>45</ele>
        <time>2016-05-23T19:42:19.000Z</time>
      </trkpt>
      <trkpt lat="48.83088" lon="2.34831">
        <ele>45</ele>
        <time>2016-05-23T19:42:22.000Z</time>
      </trkpt>
      <trkpt lat="48.83088" lon="2.34841">
        <ele>45</ele>
        <time>2016-05-23T19:42:32.000Z</time>
      </trkpt>
      <trkpt lat="48.83107" lon="2.34838">
        <ele>44</ele>
        <time>2016-05-23T19:42:40.000Z</time>
      </trkpt>
      <trkpt lat="48.83129" lon="2.34808">
        <ele>43.599998474121</ele>
        <time>2016-05-23T19:42:44.000Z</time>
      </trkpt>
      <trkpt lat="48.83148" lon="2.34802">
        <ele>43</ele>
        <time>2016-05-23T19:42:50.000Z</time>
      </trkpt>
      <trkpt lat="48.83153" lon="2.34798">
        <ele>42.799999237061</ele>
        <time>2016-05-23T19:42:52.000Z</time>
      </trkpt>
      <trkpt lat="48.8317" lon="2.34785">
        <ele>43.799999237061</ele>
        <time>2016-05-23T19:42:58.000Z</time>
      </trkpt>
      <trkpt lat="48.83176" lon="2.34778">
        <ele>44.400001525879</ele>
        <time>2016-05-23T19:43:00.000Z</time>
      </trkpt>
      <trkpt lat="48.83175" lon="2.3474">
        <ele>47</ele>
        <time>2016-05-23T19:43:08.000Z</time>
      </trkpt>
      <trkpt lat="48.83203" lon="2.34716">
        <ele>47.200000762939</ele>
        <time>2016-05-23T19:43:13.000Z</time>
      </trkpt>
      <trkpt lat="48.83216" lon="2.34711">
        <ele>47</ele>
        <time>2016-05-23T19:43:15.000Z</time>
      </trkpt>
      <trkpt lat="48.83236" lon="2.34708">
        <ele>46.400001525879</ele>
        <time>2016-05-23T19:43:18.000Z</time>
      </trkpt>
      <trkpt lat="48.83242" lon="2.34705">
        <ele>46.599998474121</ele>
        <time>2016-05-23T19:43:19.000Z</time>
      </trkpt>
      <trkpt lat="48.83257" lon="2.34704">
        <ele>46.599998474121</ele>
        <time>2016-05-23T19:43:22.000Z</time>
      </trkpt>
      <trkpt lat="48.83262" lon="2.34699">
        <ele>47</ele>
        <time>2016-05-23T19:43:27.000Z</time>
      </trkpt>
      <trkpt lat="48.83277" lon="2.34693">
        <ele>47.200000762939</ele>
        <time>2016-05-23T19:43:46.000Z</time>
      </trkpt>
      <trkpt lat="48.83286" lon="2.34689">
        <ele>47.200000762939</ele>
        <time>2016-05-23T19:43:52.000Z</time>
      </trkpt>
      <trkpt lat="48.83284" lon="2.34682">
        <ele>47.599998474121</ele>
        <time>2016-05-23T19:43:56.000Z</time>
      </trkpt>
      <trkpt lat="48.8328" lon="2.34653">
        <ele>48.400001525879</ele>
        <time>2016-05-23T19:44:10.000Z</time>
      </trkpt>
      <trkpt lat="48.83295" lon="2.34645">
        <ele>47.400001525879</ele>
        <time>2016-05-23T19:44:17.000Z</time>
      </trkpt>
      <trkpt lat="48.83312" lon="2.34637">
        <ele>46.200000762939</ele>
        <time>2016-05-23T19:44:22.000Z</time>
      </trkpt>
      <trkpt lat="48.83326" lon="2.34614">
        <ele>46.400001525879</ele>
        <time>2016-05-23T19:44:24.000Z</time>
      </trkpt>
      <trkpt lat="48.83345" lon="2.34605">
        <ele>46.799999237061</ele>
        <time>2016-05-23T19:44:28.000Z</time>
      </trkpt>
      <trkpt lat="48.83359" lon="2.34593">
        <ele>47.400001525879</ele>
        <time>2016-05-23T19:44:37.000Z</time>
      </trkpt>
      <trkpt lat="48.8338" lon="2.34597">
        <ele>47.200000762939</ele>
        <time>2016-05-23T19:44:41.000Z</time>
      </trkpt>
      <trkpt lat="48.83387" lon="2.34599">
        <ele>47</ele>
        <time>2016-05-23T19:44:42.000Z</time>
      </trkpt>
      <trkpt lat="48.83406" lon="2.34601">
        <ele>46.599998474121</ele>
        <time>2016-05-23T19:44:45.000Z</time>
      </trkpt>
      <trkpt lat="48.8343" lon="2.34606">
        <ele>46.200000762939</ele>
        <time>2016-05-23T19:44:48.000Z</time>
      </trkpt>
      <trkpt lat="48.83451" lon="2.3461">
        <ele>46.400001525879</ele>
        <time>2016-05-23T19:44:50.000Z</time>
      </trkpt>
      <trkpt lat="48.83471" lon="2.34615">
        <ele>47</ele>
        <time>2016-05-23T19:44:53.000Z</time>
      </trkpt>
      <trkpt lat="48.83477" lon="2.34616">
        <ele>47.200000762939</ele>
        <time>2016-05-23T19:44:55.000Z</time>
      </trkpt>
      <trkpt lat="48.83481" lon="2.34617">
        <ele>47.200000762939</ele>
        <time>2016-05-23T19:44:57.000Z</time>
      </trkpt>
      <trkpt lat="48.83489" lon="2.34619">
        <ele>47.599998474121</ele>
        <time>2016-05-23T19:45:02.000Z</time>
      </trkpt>
      <trkpt lat="48.83492" lon="2.3462">
        <ele>47.599998474121</ele>
        <time>2016-05-23T19:45:03.000Z</time>
      </trkpt>
      <trkpt lat="48.83499" lon="2.34624">
        <ele>47.799999237061</ele>
        <time>2016-05-23T19:45:07.000Z</time>
      </trkpt>
      <trkpt lat="48.83516" lon="2.3464">
        <ele>47.799999237061</ele>
        <time>2016-05-23T19:45:15.000Z</time>
      </trkpt>
      <trkpt lat="48.83536" lon="2.34649">
        <ele>47.799999237061</ele>
        <time>2016-05-23T19:45:22.000Z</time>
      </trkpt>
      <trkpt lat="48.83554" lon="2.34654">
        <ele>47.400001525879</ele>
        <time>2016-05-23T19:45:27.000Z</time>
      </trkpt>
      <trkpt lat="48.83577" lon="2.34655">
        <ele>47.400001525879</ele>
        <time>2016-05-23T19:45:33.000Z</time>
      </trkpt>
      <trkpt lat="48.83598" lon="2.34653">
        <ele>47.400001525879</ele>
        <time>2016-05-23T19:45:38.000Z</time>
      </trkpt>
      <trkpt lat="48.83615" lon="2.3464">
        <ele>47.599998474121</ele>
        <time>2016-05-23T19:45:42.000Z</time>
      </trkpt>
      <trkpt lat="48.83627" lon="2.34611">
        <ele>48.200000762939</ele>
        <time>2016-05-23T19:45:47.000Z</time>
      </trkpt>
      <trkpt lat="48.83632" lon="2.34582">
        <ele>47.799999237061</ele>
        <time>2016-05-23T19:45:51.000Z</time>
      </trkpt>
      <trkpt lat="48.83643" lon="2.34559">
        <ele>47.400001525879</ele>
        <time>2016-05-23T19:45:55.000Z</time>
      </trkpt>
      <trkpt lat="48.83648" lon="2.34549">
        <ele>47.400001525879</ele>
        <time>2016-05-23T19:45:58.000Z</time>
      </trkpt>
      <trkpt lat="48.83653" lon="2.34539">
        <ele>47.599998474121</ele>
        <time>2016-05-23T19:46:01.000Z</time>
      </trkpt>
      <trkpt lat="48.83663" lon="2.34533">
        <ele>48.400001525879</ele>
        <time>2016-05-23T19:46:06.000Z</time>
      </trkpt>
      <trkpt lat="48.83682" lon="2.34535">
        <ele>48.599998474121</ele>
        <time>2016-05-23T19:46:15.000Z</time>
      </trkpt>
      <trkpt lat="48.83704" lon="2.34536">
        <ele>49.400001525879</ele>
        <time>2016-05-23T19:46:21.000Z</time>
      </trkpt>
      <trkpt lat="48.83724" lon="2.34539">
        <ele>50.200000762939</ele>
        <time>2016-05-23T19:46:26.000Z</time>
      </trkpt>
      <trkpt lat="48.83742" lon="2.34543">
        <ele>50.400001525879</ele>
        <time>2016-05-23T19:46:31.000Z</time>
      </trkpt>
      <trkpt lat="48.8376" lon="2.34546">
        <ele>50.599998474121</ele>
        <time>2016-05-23T19:46:40.000Z</time>
      </trkpt>
      <trkpt lat="48.83781" lon="2.34543">
        <ele>51.200000762939</ele>
        <time>2016-05-23T19:46:47.000Z</time>
      </trkpt>
      <trkpt lat="48.83803" lon="2.34551">
        <ele>52</ele>
        <time>2016-05-23T19:46:52.000Z</time>
      </trkpt>
      <trkpt lat="48.83824" lon="2.34559">
        <ele>52.599998474121</ele>
        <time>2016-05-23T19:46:56.000Z</time>
      </trkpt>
      <trkpt lat="48.83846" lon="2.34565">
        <ele>52.799999237061</ele>
        <time>2016-05-23T19:47:00.000Z</time>
      </trkpt>
      <trkpt lat="48.83868" lon="2.3457">
        <ele>52.799999237061</ele>
        <time>2016-05-23T19:47:04.000Z</time>
      </trkpt>
      <trkpt lat="48.83891" lon="2.34573">
        <ele>52.799999237061</ele>
        <time>2016-05-23T19:47:08.000Z</time>
      </trkpt>
      <trkpt lat="48.83911" lon="2.34578">
        <ele>53</ele>
        <time>2016-05-23T19:47:11.000Z</time>
      </trkpt>
      <trkpt lat="48.83932" lon="2.34583">
        <ele>52.799999237061</ele>
        <time>2016-05-23T19:47:14.000Z</time>
      </trkpt>
      <trkpt lat="48.83953" lon="2.34594">
        <ele>53.200000762939</ele>
        <time>2016-05-23T19:47:17.000Z</time>
      </trkpt>
      <trkpt lat="48.83975" lon="2.34598">
        <ele>53.799999237061</ele>
        <time>2016-05-23T19:47:20.000Z</time>
      </trkpt>
      <trkpt lat="48.8399" lon="2.34599">
        <ele>54.400001525879</ele>
        <time>2016-05-23T19:47:22.000Z</time>
      </trkpt>
      <trkpt lat="48.84013" lon="2.34595">
        <ele>55.400001525879</ele>
        <time>2016-05-23T19:47:26.000Z</time>
      </trkpt>
      <trkpt lat="48.84028" lon="2.34605">
        <ele>55.599998474121</ele>
        <time>2016-05-23T19:47:30.000Z</time>
      </trkpt>
      <trkpt lat="48.84031" lon="2.34606">
        <ele>55.599998474121</ele>
        <time>2016-05-23T19:47:32.000Z</time>
      </trkpt>
      <trkpt lat="48.8403" lon="2.34608">
        <ele>55.599998474121</ele>
        <time>2016-05-23T19:47:54.000Z</time>
      </trkpt>
      <trkpt lat="48.84033" lon="2.34616">
        <ele>55.599998474121</ele>
        <time>2016-05-23T19:47:59.000Z</time>
      </trkpt>
      <trkpt lat="48.84044" lon="2.34639">
        <ele>55.400001525879</ele>
        <time>2016-05-23T19:48:06.000Z</time>
      </trkpt>
      <trkpt lat="48.84049" lon="2.3467">
        <ele>55</ele>
        <time>2016-05-23T19:48:13.000Z</time>
      </trkpt>
      <trkpt lat="48.84046" lon="2.34704">
        <ele>54.799999237061</ele>
        <time>2016-05-23T19:48:22.000Z</time>
      </trkpt>
      <trkpt lat="48.84152" lon="2.34815">
        <ele>57</ele>
        <time>2016-05-23T19:48:43.000Z</time>
      </trkpt>
      <trkpt lat="48.84152" lon="2.34817">
        <ele>57</ele>
        <time>2016-05-23T19:48:44.000Z</time>
      </trkpt>
      <trkpt lat="48.84162" lon="2.34813">
        <ele>57.400001525879</ele>
        <time>2016-05-23T19:48:53.000Z</time>
      </trkpt>
      <trkpt lat="48.84164" lon="2.34813">
        <ele>57.599998474121</ele>
        <time>2016-05-23T19:48:54.000Z</time>
      </trkpt>
      <trkpt lat="48.84169" lon="2.34814">
        <ele>57.599998474121</ele>
        <time>2016-05-23T19:48:58.000Z</time>
      </trkpt>
      <trkpt lat="48.8418" lon="2.34814">
        <ele>57.799999237061</ele>
        <time>2016-05-23T19:49:06.000Z</time>
      </trkpt>
      <trkpt lat="48.84199" lon="2.34814">
        <ele>58.400001525879</ele>
        <time>2016-05-23T19:49:13.000Z</time>
      </trkpt>
      <trkpt lat="48.84217" lon="2.34813">
        <ele>59.400001525879</ele>
        <time>2016-05-23T19:49:20.000Z</time>
      </trkpt>
      <trkpt lat="48.84229" lon="2.34813">
        <ele>60</ele>
        <time>2016-05-23T19:49:26.000Z</time>
      </trkpt>
      <trkpt lat="48.84246" lon="2.34809">
        <ele>60.799999237061</ele>
        <time>2016-05-23T19:49:33.000Z</time>
      </trkpt>
      <trkpt lat="48.84259" lon="2.34815">
        <ele>61.400001525879</ele>
        <time>2016-05-23T19:49:44.000Z</time>
      </trkpt>
      <trkpt lat="48.84262" lon="2.34812">
        <ele>61.599998474121</ele>
        <time>2016-05-23T19:49:47.000Z</time>
      </trkpt>
      <trkpt lat="48.84275" lon="2.34802">
        <ele>62.400001525879</ele>
        <time>2016-05-23T19:50:03.000Z</time>
      </trkpt>
      <trkpt lat="48.84268" lon="2.34773">
        <ele>62.400001525879</ele>
        <time>2016-05-23T19:50:11.000Z</time>
      </trkpt>
      <trkpt lat="48.84263" lon="2.34743">
        <ele>62.200000762939</ele>
        <time>2016-05-23T19:50:19.000Z</time>
      </trkpt>
      <trkpt lat="48.84254" lon="2.34727">
        <ele>60.799999237061</ele>
        <time>2016-05-23T19:50:29.000Z</time>
      </trkpt>
      <trkpt lat="48.84256" lon="2.34726">
        <ele>61</ele>
        <time>2016-05-23T19:50:33.000Z</time>
      </trkpt>
      <trkpt lat="48.84246" lon="2.34708">
        <ele>59.400001525879</ele>
        <time>2016-05-23T19:50:39.000Z</time>
      </trkpt>
      <trkpt lat="48.84237" lon="2.34684">
        <ele>57.400001525879</ele>
        <time>2016-05-23T19:50:43.000Z</time>
      </trkpt>
      <trkpt lat="48.8423" lon="2.34656">
        <ele>56.200000762939</ele>
        <time>2016-05-23T19:50:49.000Z</time>
      </trkpt>
      <trkpt lat="48.84226" lon="2.34628">
        <ele>56.599998474121</ele>
        <time>2016-05-23T19:50:55.000Z</time>
      </trkpt>
      <trkpt lat="48.84213" lon="2.34603">
        <ele>56.599998474121</ele>
        <time>2016-05-23T19:51:04.000Z</time>
      </trkpt>
      <trkpt lat="48.84193" lon="2.34587">
        <ele>56</ele>
        <time>2016-05-23T19:51:10.000Z</time>
      </trkpt>
      <trkpt lat="48.84173" lon="2.34573">
        <ele>56.200000762939</ele>
        <time>2016-05-23T19:51:15.000Z</time>
      </trkpt>
      <trkpt lat="48.84155" lon="2.34572">
        <ele>56.799999237061</ele>
        <time>2016-05-23T19:51:19.000Z</time>
      </trkpt>
      <trkpt lat="48.84134" lon="2.34569">
        <ele>57.200000762939</ele>
        <time>2016-05-23T19:51:24.000Z</time>
      </trkpt>
      <trkpt lat="48.84115" lon="2.34558">
        <ele>57.599998474121</ele>
        <time>2016-05-23T19:51:29.000Z</time>
      </trkpt>
      <trkpt lat="48.84095" lon="2.34547">
        <ele>57.200000762939</ele>
        <time>2016-05-23T19:51:33.000Z</time>
      </trkpt>
      <trkpt lat="48.84079" lon="2.34534">
        <ele>56.200000762939</ele>
        <time>2016-05-23T19:51:38.000Z</time>
      </trkpt>
      <trkpt lat="48.84076" lon="2.3453">
        <ele>56</ele>
        <time>2016-05-23T19:51:40.000Z</time>
      </trkpt>
      <trkpt lat="48.84079" lon="2.3452">
        <ele>56</ele>
        <time>2016-05-23T19:51:44.000Z</time>
      </trkpt>
      <trkpt lat="48.8409" lon="2.34521">
        <ele>56.599998474121</ele>
        <time>2016-05-23T19:51:51.000Z</time>
      </trkpt>
      <trkpt lat="48.8409" lon="2.34496">
        <ele>56.200000762939</ele>
        <time>2016-05-23T19:52:16.000Z</time>
      </trkpt>
      <trkpt lat="48.841" lon="2.34467">
        <ele>57</ele>
        <time>2016-05-23T19:52:22.000Z</time>
      </trkpt>
      <trkpt lat="48.84106" lon="2.34439">
        <ele>57.599998474121</ele>
        <time>2016-05-23T19:52:27.000Z</time>
      </trkpt>
      <trkpt lat="48.84111" lon="2.34411">
        <ele>58.200000762939</ele>
        <time>2016-05-23T19:52:32.000Z</time>
      </trkpt>
      <trkpt lat="48.84122" lon="2.34386">
        <ele>58.799999237061</ele>
        <time>2016-05-23T19:52:37.000Z</time>
      </trkpt>
      <trkpt lat="48.84132" lon="2.34363">
        <ele>59.200000762939</ele>
        <time>2016-05-23T19:52:42.000Z</time>
      </trkpt>
      <trkpt lat="48.84146" lon="2.3434">
        <ele>59.799999237061</ele>
        <time>2016-05-23T19:52:48.000Z</time>
      </trkpt>
      <trkpt lat="48.84155" lon="2.34338">
        <ele>60.200000762939</ele>
        <time>2016-05-23T19:52:50.000Z</time>
      </trkpt>
      <trkpt lat="48.84174" lon="2.34328">
        <ele>60.799999237061</ele>
        <time>2016-05-23T19:52:55.000Z</time>
      </trkpt>
      <trkpt lat="48.84191" lon="2.3432">
        <ele>61.200000762939</ele>
        <time>2016-05-23T19:53:00.000Z</time>
      </trkpt>
      <trkpt lat="48.84209" lon="2.34314">
        <ele>61.400001525879</ele>
        <time>2016-05-23T19:53:05.000Z</time>
      </trkpt>
      <trkpt lat="48.84226" lon="2.34303">
        <ele>61.799999237061</ele>
        <time>2016-05-23T19:53:11.000Z</time>
      </trkpt>
      <trkpt lat="48.84244" lon="2.34293">
        <ele>62.200000762939</ele>
        <time>2016-05-23T19:53:20.000Z</time>
      </trkpt>
      <trkpt lat="48.84258" lon="2.34289">
        <ele>62.599998474121</ele>
        <time>2016-05-23T19:53:27.000Z</time>
      </trkpt>
      <trkpt lat="48.84268" lon="2.34265">
        <ele>63.400001525879</ele>
        <time>2016-05-23T19:53:41.000Z</time>
      </trkpt>
      <trkpt lat="48.84271" lon="2.34237">
        <ele>64</ele>
        <time>2016-05-23T19:53:46.000Z</time>
      </trkpt>
      <trkpt lat="48.84272" lon="2.34206">
        <ele>64.400001525879</ele>
        <time>2016-05-23T19:53:51.000Z</time>
      </trkpt>
      <trkpt lat="48.84271" lon="2.34176">
        <ele>64.800003051758</ele>
        <time>2016-05-23T19:53:56.000Z</time>
      </trkpt>
      <trkpt lat="48.8428" lon="2.34152">
        <ele>64.400001525879</ele>
        <time>2016-05-23T19:54:01.000Z</time>
      </trkpt>
      <trkpt lat="48.84283" lon="2.34147">
        <ele>64.199996948242</ele>
        <time>2016-05-23T19:54:05.000Z</time>
      </trkpt>
      <trkpt lat="48.84266" lon="2.34143">
        <ele>64.599998474121</ele>
        <time>2016-05-23T19:54:17.000Z</time>
      </trkpt>
      <trkpt lat="48.84245" lon="2.34139">
        <ele>64.599998474121</ele>
        <time>2016-05-23T19:54:22.000Z</time>
      </trkpt>
      <trkpt lat="48.84226" lon="2.34139">
        <ele>64</ele>
        <time>2016-05-23T19:54:28.000Z</time>
      </trkpt>
      <trkpt lat="48.8422" lon="2.34141">
        <ele>63.599998474121</ele>
        <time>2016-05-23T19:54:32.000Z</time>
      </trkpt>
      <trkpt lat="48.8423" lon="2.34113">
        <ele>64.199996948242</ele>
        <time>2016-05-23T19:54:44.000Z</time>
      </trkpt>
      <trkpt lat="48.84239" lon="2.34089">
        <ele>63.599998474121</ele>
        <time>2016-05-23T19:54:55.000Z</time>
      </trkpt>
      <trkpt lat="48.84235" lon="2.34079">
        <ele>63.400001525879</ele>
        <time>2016-05-23T19:55:01.000Z</time>
      </trkpt>
      <trkpt lat="48.84237" lon="2.34074">
        <ele>63.599998474121</ele>
        <time>2016-05-23T19:55:06.000Z</time>
      </trkpt>
      <trkpt lat="48.84237" lon="2.34075">
        <ele>63.400001525879</ele>
        <time>2016-05-23T19:55:07.000Z</time>
      </trkpt>
      <trkpt lat="48.84233" lon="2.34071">
        <ele>63.599998474121</ele>
        <time>2016-05-23T19:55:10.000Z</time>
      </trkpt>
      <trkpt lat="48.84209" lon="2.34058">
        <ele>64</ele>
        <time>2016-05-23T19:55:13.000Z</time>
      </trkpt>
      <trkpt lat="48.84192" lon="2.34049">
        <ele>64.400001525879</ele>
        <time>2016-05-23T19:55:16.000Z</time>
      </trkpt>
      <trkpt lat="48.84188" lon="2.34048">
        <ele>64.400001525879</ele>
        <time>2016-05-23T19:55:17.000Z</time>
      </trkpt>
      <trkpt lat="48.84169" lon="2.34037">
        <ele>64.199996948242</ele>
        <time>2016-05-23T19:55:22.000Z</time>
      </trkpt>
      <trkpt lat="48.84149" lon="2.34025">
        <ele>64.199996948242</ele>
        <time>2016-05-23T19:55:27.000Z</time>
      </trkpt>
      <trkpt lat="48.8413" lon="2.34013">
        <ele>64</ele>
        <time>2016-05-23T19:55:32.000Z</time>
      </trkpt>
      <trkpt lat="48.84129" lon="2.34008">
        <ele>64.199996948242</ele>
        <time>2016-05-23T19:55:36.000Z</time>
      </trkpt>
      <trkpt lat="48.84128" lon="2.33969">
        <ele>64.199996948242</ele>
        <time>2016-05-23T19:55:41.000Z</time>
      </trkpt>
      <trkpt lat="48.84128" lon="2.33963">
        <ele>64.199996948242</ele>
        <time>2016-05-23T19:55:42.000Z</time>
      </trkpt>
      <trkpt lat="48.8413" lon="2.33935">
        <ele>64.199996948242</ele>
        <time>2016-05-23T19:55:47.000Z</time>
      </trkpt>
      <trkpt lat="48.84136" lon="2.33913">
        <ele>64</ele>
        <time>2016-05-23T19:55:51.000Z</time>
      </trkpt>
      <trkpt lat="48.84138" lon="2.33886">
        <ele>64</ele>
        <time>2016-05-23T19:55:55.000Z</time>
      </trkpt>
      <trkpt lat="48.84139" lon="2.3388">
        <ele>64</ele>
        <time>2016-05-23T19:55:56.000Z</time>
      </trkpt>
      <trkpt lat="48.84144" lon="2.33858">
        <ele>64.199996948242</ele>
        <time>2016-05-23T19:56:00.000Z</time>
      </trkpt>
      <trkpt lat="48.84147" lon="2.33826">
        <ele>64.800003051758</ele>
        <time>2016-05-23T19:56:05.000Z</time>
      </trkpt>
      <trkpt lat="48.8415" lon="2.33799">
        <ele>64</ele>
        <time>2016-05-23T19:56:12.000Z</time>
      </trkpt>
      <trkpt lat="48.84168" lon="2.33787">
        <ele>64.199996948242</ele>
        <time>2016-05-23T19:56:20.000Z</time>
      </trkpt>
      <trkpt lat="48.84176" lon="2.33781">
        <ele>64.400001525879</ele>
        <time>2016-05-23T19:56:26.000Z</time>
      </trkpt>
      <trkpt lat="48.84175" lon="2.33778">
        <ele>64.199996948242</ele>
        <time>2016-05-23T19:56:27.000Z</time>
      </trkpt>
      <trkpt lat="48.8418" lon="2.33749">
        <ele>63.799999237061</ele>
        <time>2016-05-23T19:56:43.000Z</time>
      </trkpt>
      <trkpt lat="48.842" lon="2.33749">
        <ele>63.799999237061</ele>
        <time>2016-05-23T19:56:50.000Z</time>
      </trkpt>
      <trkpt lat="48.84218" lon="2.33754">
        <ele>63.200000762939</ele>
        <time>2016-05-23T19:56:55.000Z</time>
      </trkpt>
      <trkpt lat="48.8423" lon="2.33759">
        <ele>62.799999237061</ele>
        <time>2016-05-23T19:56:58.000Z</time>
      </trkpt>
      <trkpt lat="48.84251" lon="2.33759">
        <ele>62.400001525879</ele>
        <time>2016-05-23T19:57:04.000Z</time>
      </trkpt>
      <trkpt lat="48.84252" lon="2.33747">
        <ele>62.400001525879</ele>
        <time>2016-05-23T19:57:05.000Z</time>
      </trkpt>
      <trkpt lat="48.84254" lon="2.33715">
        <ele>61</ele>
        <time>2016-05-23T19:57:10.000Z</time>
      </trkpt>
      <trkpt lat="48.84252" lon="2.3369">
        <ele>60.200000762939</ele>
        <time>2016-05-23T19:57:13.000Z</time>
      </trkpt>
      <trkpt lat="48.84249" lon="2.33662">
        <ele>59.400001525879</ele>
        <time>2016-05-23T19:57:17.000Z</time>
      </trkpt>
      <trkpt lat="48.84248" lon="2.33632">
        <ele>60.599998474121</ele>
        <time>2016-05-23T19:57:22.000Z</time>
      </trkpt>
      <trkpt lat="48.84252" lon="2.33603">
        <ele>61.200000762939</ele>
        <time>2016-05-23T19:57:28.000Z</time>
      </trkpt>
      <trkpt lat="48.84261" lon="2.33574">
        <ele>61.400001525879</ele>
        <time>2016-05-23T19:57:35.000Z</time>
      </trkpt>
      <trkpt lat="48.84273" lon="2.33548">
        <ele>60.599998474121</ele>
        <time>2016-05-23T19:57:42.000Z</time>
      </trkpt>
      <trkpt lat="48.84286" lon="2.33525">
        <ele>59.200000762939</ele>
        <time>2016-05-23T19:57:48.000Z</time>
      </trkpt>
      <trkpt lat="48.8427" lon="2.33496">
        <ele>60</ele>
        <time>2016-05-23T19:57:52.000Z</time>
      </trkpt>
      <trkpt lat="48.84268" lon="2.33467">
        <ele>60</ele>
        <time>2016-05-23T19:57:59.000Z</time>
      </trkpt>
      <trkpt lat="48.84271" lon="2.33462">
        <ele>60</ele>
        <time>2016-05-23T19:58:00.000Z</time>
      </trkpt>
      <trkpt lat="48.84285" lon="2.33436">
        <ele>59.200000762939</ele>
        <time>2016-05-23T19:58:06.000Z</time>
      </trkpt>
      <trkpt lat="48.84297" lon="2.33414">
        <ele>58.200000762939</ele>
        <time>2016-05-23T19:58:12.000Z</time>
      </trkpt>
      <trkpt lat="48.84316" lon="2.33406">
        <ele>57</ele>
        <time>2016-05-23T19:58:16.000Z</time>
      </trkpt>
      <trkpt lat="48.84338" lon="2.33394">
        <ele>55.599998474121</ele>
        <time>2016-05-23T19:58:22.000Z</time>
      </trkpt>
      <trkpt lat="48.84355" lon="2.3337">
        <ele>54</ele>
        <time>2016-05-23T19:58:28.000Z</time>
      </trkpt>
      <trkpt lat="48.84374" lon="2.33347">
        <ele>53.799999237061</ele>
        <time>2016-05-23T19:58:33.000Z</time>
      </trkpt>
      <trkpt lat="48.84395" lon="2.33328">
        <ele>53.599998474121</ele>
        <time>2016-05-23T19:58:38.000Z</time>
      </trkpt>
      <trkpt lat="48.84414" lon="2.33318">
        <ele>53.400001525879</ele>
        <time>2016-05-23T19:58:41.000Z</time>
      </trkpt>
      <trkpt lat="48.84424" lon="2.33311">
        <ele>53.400001525879</ele>
        <time>2016-05-23T19:58:43.000Z</time>
      </trkpt>
      <trkpt lat="48.84442" lon="2.33299">
        <ele>53.799999237061</ele>
        <time>2016-05-23T19:58:46.000Z</time>
      </trkpt>
      <trkpt lat="48.8446" lon="2.33277">
        <ele>54</ele>
        <time>2016-05-23T19:58:51.000Z</time>
      </trkpt>
      <trkpt lat="48.84478" lon="2.33265">
        <ele>53.400001525879</ele>
        <time>2016-05-23T19:58:55.000Z</time>
      </trkpt>
      <trkpt lat="48.84497" lon="2.33249">
        <ele>52.200000762939</ele>
        <time>2016-05-23T19:59:01.000Z</time>
      </trkpt>
      <trkpt lat="48.8451" lon="2.3325">
        <ele>51.599998474121</ele>
        <time>2016-05-23T19:59:02.000Z</time>
      </trkpt>
      <trkpt lat="48.8453" lon="2.3325">
        <ele>51</ele>
        <time>2016-05-23T19:59:05.000Z</time>
      </trkpt>
      <trkpt lat="48.84535" lon="2.33249">
        <ele>51.400001525879</ele>
        <time>2016-05-23T19:59:06.000Z</time>
      </trkpt>
      <trkpt lat="48.84551" lon="2.33248">
        <ele>52</ele>
        <time>2016-05-23T19:59:09.000Z</time>
      </trkpt>
      <trkpt lat="48.8457" lon="2.33249">
        <ele>52.599998474121</ele>
        <time>2016-05-23T19:59:13.000Z</time>
      </trkpt>
      <trkpt lat="48.8459" lon="2.33247">
        <ele>53.400001525879</ele>
        <time>2016-05-23T19:59:17.000Z</time>
      </trkpt>
      <trkpt lat="48.84613" lon="2.33248">
        <ele>53.799999237061</ele>
        <time>2016-05-23T19:59:21.000Z</time>
      </trkpt>
      <trkpt lat="48.84636" lon="2.33252">
        <ele>53.599998474121</ele>
        <time>2016-05-23T19:59:25.000Z</time>
      </trkpt>
      <trkpt lat="48.84658" lon="2.33253">
        <ele>53.400001525879</ele>
        <time>2016-05-23T19:59:29.000Z</time>
      </trkpt>
      <trkpt lat="48.8468" lon="2.33255">
        <ele>53.400001525879</ele>
        <time>2016-05-23T19:59:33.000Z</time>
      </trkpt>
      <trkpt lat="48.84703" lon="2.33257">
        <ele>53.200000762939</ele>
        <time>2016-05-23T19:59:37.000Z</time>
      </trkpt>
      <trkpt lat="48.84727" lon="2.33259">
        <ele>52.400001525879</ele>
        <time>2016-05-23T19:59:41.000Z</time>
      </trkpt>
      <trkpt lat="48.84746" lon="2.33261">
        <ele>51.599998474121</ele>
        <time>2016-05-23T19:59:44.000Z</time>
      </trkpt>
      <trkpt lat="48.84764" lon="2.33261">
        <ele>51</ele>
        <time>2016-05-23T19:59:47.000Z</time>
      </trkpt>
      <trkpt lat="48.84783" lon="2.33263">
        <ele>50.799999237061</ele>
        <time>2016-05-23T19:59:50.000Z</time>
      </trkpt>
      <trkpt lat="48.84806" lon="2.33263">
        <ele>51.200000762939</ele>
        <time>2016-05-23T19:59:54.000Z</time>
      </trkpt>
      <trkpt lat="48.84827" lon="2.33264">
        <ele>51.400001525879</ele>
        <time>2016-05-23T19:59:58.000Z</time>
      </trkpt>
      <trkpt lat="48.84837" lon="2.33265">
        <ele>51.599998474121</ele>
        <time>2016-05-23T20:00:00.000Z</time>
      </trkpt>
      <trkpt lat="48.84852" lon="2.33268">
        <ele>51.799999237061</ele>
        <time>2016-05-23T20:00:04.000Z</time>
      </trkpt>
      <trkpt lat="48.84862" lon="2.33279">
        <ele>51.599998474121</ele>
        <time>2016-05-23T20:00:08.000Z</time>
      </trkpt>
      <trkpt lat="48.84866" lon="2.33283">
        <ele>51.599998474121</ele>
        <time>2016-05-23T20:00:10.000Z</time>
      </trkpt>
      <trkpt lat="48.84871" lon="2.33288">
        <ele>51.599998474121</ele>
        <time>2016-05-23T20:00:12.000Z</time>
      </trkpt>
      <trkpt lat="48.84876" lon="2.33291">
        <ele>51.799999237061</ele>
        <time>2016-05-23T20:00:16.000Z</time>
      </trkpt>
      <trkpt lat="48.84885" lon="2.33291">
        <ele>51.799999237061</ele>
        <time>2016-05-23T20:00:45.000Z</time>
      </trkpt>
      <trkpt lat="48.84897" lon="2.33284">
        <ele>52.200000762939</ele>
        <time>2016-05-23T20:01:12.000Z</time>
      </trkpt>
      <trkpt lat="48.8491" lon="2.33278">
        <ele>52.599998474121</ele>
        <time>2016-05-23T20:01:23.000Z</time>
      </trkpt>
      <trkpt lat="48.84926" lon="2.33285">
        <ele>52.799999237061</ele>
        <time>2016-05-23T20:01:43.000Z</time>
      </trkpt>
      <trkpt lat="48.84927" lon="2.33287">
        <ele>52.799999237061</ele>
        <time>2016-05-23T20:01:44.000Z</time>
      </trkpt>
      <trkpt lat="48.84928" lon="2.33288">
        <ele>52.799999237061</ele>
        <time>2016-05-23T20:01:49.000Z</time>
      </trkpt>
      <trkpt lat="48.84923" lon="2.33276">
        <ele>53</ele>
        <time>2016-05-23T20:02:05.000Z</time>
      </trkpt>
      <trkpt lat="48.84945" lon="2.33277">
        <ele>53</ele>
        <time>2016-05-23T20:02:12.000Z</time>
      </trkpt>
      <trkpt lat="48.84964" lon="2.33276">
        <ele>52</ele>
        <time>2016-05-23T20:02:17.000Z</time>
      </trkpt>
      <trkpt lat="48.84985" lon="2.3328">
        <ele>51.200000762939</ele>
        <time>2016-05-23T20:02:23.000Z</time>
      </trkpt>
      <trkpt lat="48.85005" lon="2.33283">
        <ele>50.400001525879</ele>
        <time>2016-05-23T20:02:28.000Z</time>
      </trkpt>
      <trkpt lat="48.85024" lon="2.33291">
        <ele>49.400001525879</ele>
        <time>2016-05-23T20:02:34.000Z</time>
      </trkpt>
      <trkpt lat="48.85041" lon="2.33303">
        <ele>49</ele>
        <time>2016-05-23T20:02:43.000Z</time>
      </trkpt>
      <trkpt lat="48.85041" lon="2.33333">
        <ele>48.200000762939</ele>
        <time>2016-05-23T20:02:51.000Z</time>
      </trkpt>
      <trkpt lat="48.85037" lon="2.33361">
        <ele>48.400001525879</ele>
        <time>2016-05-23T20:02:55.000Z</time>
      </trkpt>
      <trkpt lat="48.85032" lon="2.33391">
        <ele>47.799999237061</ele>
        <time>2016-05-23T20:03:00.000Z</time>
      </trkpt>
      <trkpt lat="48.85039" lon="2.33405">
        <ele>48</ele>
        <time>2016-05-23T20:03:03.000Z</time>
      </trkpt>
      <trkpt lat="48.8505" lon="2.33431">
        <ele>49.200000762939</ele>
        <time>2016-05-23T20:03:10.000Z</time>
      </trkpt>
      <trkpt lat="48.8505" lon="2.33445">
        <ele>49.799999237061</ele>
        <time>2016-05-23T20:03:13.000Z</time>
      </trkpt>
      <trkpt lat="48.85061" lon="2.33468">
        <ele>51.599998474121</ele>
        <time>2016-05-23T20:03:18.000Z</time>
      </trkpt>
      <trkpt lat="48.85064" lon="2.33495">
        <ele>53.400001525879</ele>
        <time>2016-05-23T20:03:23.000Z</time>
      </trkpt>
      <trkpt lat="48.85072" lon="2.33508">
        <ele>53</ele>
        <time>2016-05-23T20:03:26.000Z</time>
      </trkpt>
      <trkpt lat="48.85083" lon="2.33532">
        <ele>51.599998474121</ele>
        <time>2016-05-23T20:03:33.000Z</time>
      </trkpt>
      <trkpt lat="48.85085" lon="2.33566">
        <ele>49.599998474121</ele>
        <time>2016-05-23T20:03:41.000Z</time>
      </trkpt>
      <trkpt lat="48.85101" lon="2.33578">
        <ele>49.200000762939</ele>
        <time>2016-05-23T20:03:46.000Z</time>
      </trkpt>
      <trkpt lat="48.8512" lon="2.33584">
        <ele>48.799999237061</ele>
        <time>2016-05-23T20:03:52.000Z</time>
      </trkpt>
      <trkpt lat="48.85124" lon="2.33566">
        <ele>49.799999237061</ele>
        <time>2016-05-23T20:04:10.000Z</time>
      </trkpt>
      <trkpt lat="48.85128" lon="2.33538">
        <ele>51.799999237061</ele>
        <time>2016-05-23T20:04:17.000Z</time>
      </trkpt>
      <trkpt lat="48.85134" lon="2.33532">
        <ele>52.200000762939</ele>
        <time>2016-05-23T20:04:22.000Z</time>
      </trkpt>
      <trkpt lat="48.85153" lon="2.33529">
        <ele>51.400001525879</ele>
        <time>2016-05-23T20:04:28.000Z</time>
      </trkpt>
      <trkpt lat="48.85174" lon="2.33529">
        <ele>50.200000762939</ele>
        <time>2016-05-23T20:04:31.000Z</time>
      </trkpt>
      <trkpt lat="48.85182" lon="2.33513">
        <ele>50</ele>
        <time>2016-05-23T20:04:35.000Z</time>
      </trkpt>
      <trkpt lat="48.85186" lon="2.33482">
        <ele>50</ele>
        <time>2016-05-23T20:04:41.000Z</time>
      </trkpt>
      <trkpt lat="48.8519" lon="2.33454">
        <ele>49.400001525879</ele>
        <time>2016-05-23T20:04:46.000Z</time>
      </trkpt>
      <trkpt lat="48.85194" lon="2.33425">
        <ele>49</ele>
        <time>2016-05-23T20:04:52.000Z</time>
      </trkpt>
      <trkpt lat="48.85201" lon="2.334">
        <ele>48.599998474121</ele>
        <time>2016-05-23T20:04:58.000Z</time>
      </trkpt>
      <trkpt lat="48.85203" lon="2.33398">
        <ele>48.599998474121</ele>
        <time>2016-05-23T20:04:59.000Z</time>
      </trkpt>
      <trkpt lat="48.8519" lon="2.33382">
        <ele>48.200000762939</ele>
        <time>2016-05-23T20:05:05.000Z</time>
      </trkpt>
      <trkpt lat="48.85202" lon="2.33382">
        <ele>48.200000762939</ele>
        <time>2016-05-23T20:05:11.000Z</time>
      </trkpt>
      <trkpt lat="48.8522" lon="2.3337">
        <ele>48</ele>
        <time>2016-05-23T20:05:19.000Z</time>
      </trkpt>
      <trkpt lat="48.85239" lon="2.33361">
        <ele>48.200000762939</ele>
        <time>2016-05-23T20:05:30.000Z</time>
      </trkpt>
      <trkpt lat="48.85245" lon="2.33364">
        <ele>48.400001525879</ele>
        <time>2016-05-23T20:05:35.000Z</time>
      </trkpt>
      <trkpt lat="48.85253" lon="2.33381">
        <ele>48.599998474121</ele>
        <time>2016-05-23T20:05:43.000Z</time>
      </trkpt>
      <trkpt lat="48.85261" lon="2.33358">
        <ele>48.799999237061</ele>
        <time>2016-05-23T20:05:57.000Z</time>
      </trkpt>
      <trkpt lat="48.85262" lon="2.33329">
        <ele>48.799999237061</ele>
        <time>2016-05-23T20:06:04.000Z</time>
      </trkpt>
      <trkpt lat="48.85266" lon="2.3333">
        <ele>48.799999237061</ele>
        <time>2016-05-23T20:06:05.000Z</time>
      </trkpt>
      <trkpt lat="48.85278" lon="2.33333">
        <ele>48.799999237061</ele>
        <time>2016-05-23T20:06:09.000Z</time>
      </trkpt>
      <trkpt lat="48.853" lon="2.33336">
        <ele>48.599998474121</ele>
        <time>2016-05-23T20:06:15.000Z</time>
      </trkpt>
      <trkpt lat="48.85321" lon="2.33335">
        <ele>48.400001525879</ele>
        <time>2016-05-23T20:06:20.000Z</time>
      </trkpt>
      <trkpt lat="48.8534" lon="2.33338">
        <ele>48</ele>
        <time>2016-05-23T20:06:26.000Z</time>
      </trkpt>
      <trkpt lat="48.85359" lon="2.33339">
        <ele>47.799999237061</ele>
        <time>2016-05-23T20:06:34.000Z</time>
      </trkpt>
      <trkpt lat="48.8537" lon="2.33318">
        <ele>47.599998474121</ele>
        <time>2016-05-23T20:06:45.000Z</time>
      </trkpt>
      <trkpt lat="48.8536" lon="2.33291">
        <ele>48</ele>
        <time>2016-05-23T20:06:54.000Z</time>
      </trkpt>
      <trkpt lat="48.85345" lon="2.33272">
        <ele>48.200000762939</ele>
        <time>2016-05-23T20:06:59.000Z</time>
      </trkpt>
      <trkpt lat="48.85329" lon="2.33258">
        <ele>48.400001525879</ele>
        <time>2016-05-23T20:07:03.000Z</time>
      </trkpt>
      <trkpt lat="48.85313" lon="2.33244">
        <ele>48.400001525879</ele>
        <time>2016-05-23T20:07:08.000Z</time>
      </trkpt>
      <trkpt lat="48.85307" lon="2.33212">
        <ele>47.400001525879</ele>
        <time>2016-05-23T20:07:13.000Z</time>
      </trkpt>
      <trkpt lat="48.85303" lon="2.33185">
        <ele>46.799999237061</ele>
        <time>2016-05-23T20:07:17.000Z</time>
      </trkpt>
      <trkpt lat="48.85298" lon="2.33157">
        <ele>46.599998474121</ele>
        <time>2016-05-23T20:07:23.000Z</time>
      </trkpt>
      <trkpt lat="48.85301" lon="2.33152">
        <ele>46.799999237061</ele>
        <time>2016-05-23T20:07:25.000Z</time>
      </trkpt>
      <trkpt lat="48.85319" lon="2.33134">
        <ele>47.400001525879</ele>
        <time>2016-05-23T20:07:32.000Z</time>
      </trkpt>
      <trkpt lat="48.85326" lon="2.33112">
        <ele>48.200000762939</ele>
        <time>2016-05-23T20:07:38.000Z</time>
      </trkpt>
      <trkpt lat="48.85329" lon="2.33109">
        <ele>48.400001525879</ele>
        <time>2016-05-23T20:07:40.000Z</time>
      </trkpt>
      <trkpt lat="48.85326" lon="2.33104">
        <ele>48.400001525879</ele>
        <time>2016-05-23T20:07:44.000Z</time>
      </trkpt>
      <trkpt lat="48.85323" lon="2.33095">
        <ele>48.400001525879</ele>
        <time>2016-05-23T20:07:50.000Z</time>
      </trkpt>
      <trkpt lat="48.85304" lon="2.33084">
        <ele>48</ele>
        <time>2016-05-23T20:08:08.000Z</time>
      </trkpt>
      <trkpt lat="48.85285" lon="2.33066">
        <ele>47.400001525879</ele>
        <time>2016-05-23T20:08:14.000Z</time>
      </trkpt>
      <trkpt lat="48.85267" lon="2.33049">
        <ele>47.200000762939</ele>
        <time>2016-05-23T20:08:18.000Z</time>
      </trkpt>
      <trkpt lat="48.8525" lon="2.33024">
        <ele>47.599998474121</ele>
        <time>2016-05-23T20:08:22.000Z</time>
      </trkpt>
      <trkpt lat="48.85234" lon="2.33007">
        <ele>48</ele>
        <time>2016-05-23T20:08:26.000Z</time>
      </trkpt>
      <trkpt lat="48.85219" lon="2.32991">
        <ele>48.200000762939</ele>
        <time>2016-05-23T20:08:32.000Z</time>
      </trkpt>
      <trkpt lat="48.85207" lon="2.32973">
        <ele>48</ele>
        <time>2016-05-23T20:08:44.000Z</time>
      </trkpt>
      <trkpt lat="48.85189" lon="2.32959">
        <ele>48</ele>
        <time>2016-05-23T20:08:51.000Z</time>
      </trkpt>
      <trkpt lat="48.85172" lon="2.32942">
        <ele>47.799999237061</ele>
        <time>2016-05-23T20:08:56.000Z</time>
      </trkpt>
      <trkpt lat="48.85156" lon="2.32923">
        <ele>47.599998474121</ele>
        <time>2016-05-23T20:09:00.000Z</time>
      </trkpt>
      <trkpt lat="48.85142" lon="2.32907">
        <ele>47.400001525879</ele>
        <time>2016-05-23T20:09:03.000Z</time>
      </trkpt>
      <trkpt lat="48.85129" lon="2.32883">
        <ele>47.400001525879</ele>
        <time>2016-05-23T20:09:07.000Z</time>
      </trkpt>
      <trkpt lat="48.85115" lon="2.32861">
        <ele>47.200000762939</ele>
        <time>2016-05-23T20:09:10.000Z</time>
      </trkpt>
      <trkpt lat="48.85102" lon="2.32841">
        <ele>47.200000762939</ele>
        <time>2016-05-23T20:09:13.000Z</time>
      </trkpt>
      <trkpt lat="48.85086" lon="2.32822">
        <ele>47</ele>
        <time>2016-05-23T20:09:16.000Z</time>
      </trkpt>
      <trkpt lat="48.8507" lon="2.32801">
        <ele>46.400001525879</ele>
        <time>2016-05-23T20:09:20.000Z</time>
      </trkpt>
      <trkpt lat="48.85057" lon="2.3278">
        <ele>45.799999237061</ele>
        <time>2016-05-23T20:09:25.000Z</time>
      </trkpt>
      <trkpt lat="48.85051" lon="2.32768">
        <ele>45.799999237061</ele>
        <time>2016-05-23T20:09:28.000Z</time>
      </trkpt>
      <trkpt lat="48.85036" lon="2.32746">
        <ele>45.599998474121</ele>
        <time>2016-05-23T20:09:34.000Z</time>
      </trkpt>
      <trkpt lat="48.85018" lon="2.32735">
        <ele>45.400001525879</ele>
        <time>2016-05-23T20:09:38.000Z</time>
      </trkpt>
      <trkpt lat="48.85004" lon="2.32721">
        <ele>46.599998474121</ele>
        <time>2016-05-23T20:09:42.000Z</time>
      </trkpt>
      <trkpt lat="48.84993" lon="2.32704">
        <ele>47.599998474121</ele>
        <time>2016-05-23T20:09:47.000Z</time>
      </trkpt>
      <trkpt lat="48.84986" lon="2.3269">
        <ele>48.200000762939</ele>
        <time>2016-05-23T20:09:51.000Z</time>
      </trkpt>
      <trkpt lat="48.84971" lon="2.32668">
        <ele>49.599998474121</ele>
        <time>2016-05-23T20:09:57.000Z</time>
      </trkpt>
      <trkpt lat="48.84962" lon="2.32642">
        <ele>49.799999237061</ele>
        <time>2016-05-23T20:10:01.000Z</time>
      </trkpt>
      <trkpt lat="48.84948" lon="2.32616">
        <ele>50.200000762939</ele>
        <time>2016-05-23T20:10:05.000Z</time>
      </trkpt>
      <trkpt lat="48.84932" lon="2.32596">
        <ele>50.400001525879</ele>
        <time>2016-05-23T20:10:08.000Z</time>
      </trkpt>
      <trkpt lat="48.84919" lon="2.32569">
        <ele>50.200000762939</ele>
        <time>2016-05-23T20:10:13.000Z</time>
      </trkpt>
      <trkpt lat="48.84905" lon="2.32547">
        <ele>50.400001525879</ele>
        <time>2016-05-23T20:10:17.000Z</time>
      </trkpt>
      <trkpt lat="48.84896" lon="2.32524">
        <ele>50</ele>
        <time>2016-05-23T20:10:21.000Z</time>
      </trkpt>
      <trkpt lat="48.84892" lon="2.32518">
        <ele>50</ele>
        <time>2016-05-23T20:10:22.000Z</time>
      </trkpt>
      <trkpt lat="48.84878" lon="2.32494">
        <ele>49.799999237061</ele>
        <time>2016-05-23T20:10:26.000Z</time>
      </trkpt>
      <trkpt lat="48.84866" lon="2.32474">
        <ele>50.200000762939</ele>
        <time>2016-05-23T20:10:30.000Z</time>
      </trkpt>
      <trkpt lat="48.84852" lon="2.32452">
        <ele>50.400001525879</ele>
        <time>2016-05-23T20:10:35.000Z</time>
      </trkpt>
      <trkpt lat="48.84849" lon="2.3245">
        <ele>50.400001525879</ele>
        <time>2016-05-23T20:10:36.000Z</time>
      </trkpt>
      <trkpt lat="48.84837" lon="2.32422">
        <ele>49.799999237061</ele>
        <time>2016-05-23T20:10:42.000Z</time>
      </trkpt>
      <trkpt lat="48.84831" lon="2.32409">
        <ele>49.799999237061</ele>
        <time>2016-05-23T20:10:45.000Z</time>
      </trkpt>
      <trkpt lat="48.84818" lon="2.32389">
        <ele>49.599998474121</ele>
        <time>2016-05-23T20:10:49.000Z</time>
      </trkpt>
      <trkpt lat="48.84804" lon="2.32364">
        <ele>49.400001525879</ele>
        <time>2016-05-23T20:10:54.000Z</time>
      </trkpt>
      <trkpt lat="48.8479" lon="2.32343">
        <ele>49</ele>
        <time>2016-05-23T20:10:58.000Z</time>
      </trkpt>
      <trkpt lat="48.84776" lon="2.32321">
        <ele>49.200000762939</ele>
        <time>2016-05-23T20:11:02.000Z</time>
      </trkpt>
      <trkpt lat="48.84769" lon="2.32306">
        <ele>49.599998474121</ele>
        <time>2016-05-23T20:11:04.000Z</time>
      </trkpt>
      <trkpt lat="48.84757" lon="2.32281">
        <ele>49.799999237061</ele>
        <time>2016-05-23T20:11:08.000Z</time>
      </trkpt>
      <trkpt lat="48.84748" lon="2.32255">
        <ele>50.200000762939</ele>
        <time>2016-05-23T20:11:12.000Z</time>
      </trkpt>
      <trkpt lat="48.84742" lon="2.32244">
        <ele>50.200000762939</ele>
        <time>2016-05-23T20:11:14.000Z</time>
      </trkpt>
      <trkpt lat="48.84729" lon="2.32219">
        <ele>50</ele>
        <time>2016-05-23T20:11:18.000Z</time>
      </trkpt>
      <trkpt lat="48.84717" lon="2.32196">
        <ele>49.599998474121</ele>
        <time>2016-05-23T20:11:22.000Z</time>
      </trkpt>
      <trkpt lat="48.84705" lon="2.32176">
        <ele>49.400001525879</ele>
        <time>2016-05-23T20:11:26.000Z</time>
      </trkpt>
      <trkpt lat="48.84698" lon="2.32164">
        <ele>49.400001525879</ele>
        <time>2016-05-23T20:11:28.000Z</time>
      </trkpt>
      <trkpt lat="48.84687" lon="2.32137">
        <ele>49</ele>
        <time>2016-05-23T20:11:32.000Z</time>
      </trkpt>
      <trkpt lat="48.84676" lon="2.32113">
        <ele>49</ele>
        <time>2016-05-23T20:11:36.000Z</time>
      </trkpt>
      <trkpt lat="48.84666" lon="2.32089">
        <ele>49</ele>
        <time>2016-05-23T20:11:40.000Z</time>
      </trkpt>
      <trkpt lat="48.84651" lon="2.32063">
        <ele>49.200000762939</ele>
        <time>2016-05-23T20:11:44.000Z</time>
      </trkpt>
      <trkpt lat="48.84636" lon="2.32043">
        <ele>49.400001525879</ele>
        <time>2016-05-23T20:11:48.000Z</time>
      </trkpt>
      <trkpt lat="48.84631" lon="2.32038">
        <ele>49.599998474121</ele>
        <time>2016-05-23T20:11:49.000Z</time>
      </trkpt>
      <trkpt lat="48.84616" lon="2.32019">
        <ele>49.799999237061</ele>
        <time>2016-05-23T20:11:53.000Z</time>
      </trkpt>
      <trkpt lat="48.84599" lon="2.31996">
        <ele>50</ele>
        <time>2016-05-23T20:11:57.000Z</time>
      </trkpt>
      <trkpt lat="48.84585" lon="2.31974">
        <ele>50.599998474121</ele>
        <time>2016-05-23T20:12:01.000Z</time>
      </trkpt>
      <trkpt lat="48.84571" lon="2.3195">
        <ele>51</ele>
        <time>2016-05-23T20:12:06.000Z</time>
      </trkpt>
      <trkpt lat="48.84565" lon="2.3194">
        <ele>51.200000762939</ele>
        <time>2016-05-23T20:12:09.000Z</time>
      </trkpt>
      <trkpt lat="48.84562" lon="2.31935">
        <ele>51.200000762939</ele>
        <time>2016-05-23T20:12:11.000Z</time>
      </trkpt>
      <trkpt lat="48.84559" lon="2.31927">
        <ele>51.400001525879</ele>
        <time>2016-05-23T20:12:15.000Z</time>
      </trkpt>
      <trkpt lat="48.84562" lon="2.31935">
        <ele>51.200000762939</ele>
        <time>2016-05-23T20:12:34.000Z</time>
      </trkpt>
      <trkpt lat="48.84576" lon="2.3193">
        <ele>51.200000762939</ele>
        <time>2016-05-23T20:12:43.000Z</time>
      </trkpt>
      <trkpt lat="48.84582" lon="2.31905">
        <ele>51.200000762939</ele>
        <time>2016-05-23T20:12:52.000Z</time>
      </trkpt>
      <trkpt lat="48.84591" lon="2.31879">
        <ele>51.200000762939</ele>
        <time>2016-05-23T20:13:03.000Z</time>
      </trkpt>
      <trkpt lat="48.84606" lon="2.31857">
        <ele>51</ele>
        <time>2016-05-23T20:13:10.000Z</time>
      </trkpt>
      <trkpt lat="48.84615" lon="2.31829">
        <ele>50.599998474121</ele>
        <time>2016-05-23T20:13:16.000Z</time>
      </trkpt>
      <trkpt lat="48.84622" lon="2.31801">
        <ele>50.400001525879</ele>
        <time>2016-05-23T20:13:21.000Z</time>
      </trkpt>
      <trkpt lat="48.84627" lon="2.31772">
        <ele>50.200000762939</ele>
        <time>2016-05-23T20:13:26.000Z</time>
      </trkpt>
      <trkpt lat="48.84639" lon="2.31744">
        <ele>48.400001525879</ele>
        <time>2016-05-23T20:13:32.000Z</time>
      </trkpt>
      <trkpt lat="48.84653" lon="2.31721">
        <ele>46</ele>
        <time>2016-05-23T20:13:37.000Z</time>
      </trkpt>
      <trkpt lat="48.84668" lon="2.31701">
        <ele>44.599998474121</ele>
        <time>2016-05-23T20:13:41.000Z</time>
      </trkpt>
      <trkpt lat="48.84689" lon="2.31694">
        <ele>43.799999237061</ele>
        <time>2016-05-23T20:13:44.000Z</time>
      </trkpt>
      <trkpt lat="48.84694" lon="2.31687">
        <ele>43.799999237061</ele>
        <time>2016-05-23T20:13:46.000Z</time>
      </trkpt>
      <trkpt lat="48.847" lon="2.31675">
        <ele>44</ele>
        <time>2016-05-23T20:13:49.000Z</time>
      </trkpt>
      <trkpt lat="48.84706" lon="2.31666">
        <ele>44.400001525879</ele>
        <time>2016-05-23T20:13:51.000Z</time>
      </trkpt>
      <trkpt lat="48.84723" lon="2.31654">
        <ele>45.400001525879</ele>
        <time>2016-05-23T20:13:55.000Z</time>
      </trkpt>
      <trkpt lat="48.84745" lon="2.31645">
        <ele>47</ele>
        <time>2016-05-23T20:14:00.000Z</time>
      </trkpt>
      <trkpt lat="48.84764" lon="2.31632">
        <ele>48.200000762939</ele>
        <time>2016-05-23T20:14:04.000Z</time>
      </trkpt>
      <trkpt lat="48.84784" lon="2.31623">
        <ele>48.200000762939</ele>
        <time>2016-05-23T20:14:08.000Z</time>
      </trkpt>
      <trkpt lat="48.84804" lon="2.31614">
        <ele>47.400001525879</ele>
        <time>2016-05-23T20:14:12.000Z</time>
      </trkpt>
      <trkpt lat="48.84825" lon="2.31605">
        <ele>46.200000762939</ele>
        <time>2016-05-23T20:14:16.000Z</time>
      </trkpt>
      <trkpt lat="48.84847" lon="2.31592">
        <ele>44.799999237061</ele>
        <time>2016-05-23T20:14:20.000Z</time>
      </trkpt>
      <trkpt lat="48.84869" lon="2.31577">
        <ele>43.400001525879</ele>
        <time>2016-05-23T20:14:24.000Z</time>
      </trkpt>
      <trkpt lat="48.84889" lon="2.31568">
        <ele>42.200000762939</ele>
        <time>2016-05-23T20:14:27.000Z</time>
      </trkpt>
      <trkpt lat="48.84909" lon="2.31558">
        <ele>41</ele>
        <time>2016-05-23T20:14:30.000Z</time>
      </trkpt>
      <trkpt lat="48.8493" lon="2.31546">
        <ele>41.799999237061</ele>
        <time>2016-05-23T20:14:33.000Z</time>
      </trkpt>
      <trkpt lat="48.84952" lon="2.31537">
        <ele>42.799999237061</ele>
        <time>2016-05-23T20:14:36.000Z</time>
      </trkpt>
      <trkpt lat="48.8497" lon="2.3153">
        <ele>43.200000762939</ele>
        <time>2016-05-23T20:14:39.000Z</time>
      </trkpt>
      <trkpt lat="48.84989" lon="2.31519">
        <ele>43.200000762939</ele>
        <time>2016-05-23T20:14:42.000Z</time>
      </trkpt>
      <trkpt lat="48.85011" lon="2.31507">
        <ele>43</ele>
        <time>2016-05-23T20:14:46.000Z</time>
      </trkpt>
      <trkpt lat="48.8503" lon="2.31501">
        <ele>43</ele>
        <time>2016-05-23T20:14:49.000Z</time>
      </trkpt>
      <trkpt lat="48.85052" lon="2.31491">
        <ele>43</ele>
        <time>2016-05-23T20:14:53.000Z</time>
      </trkpt>
      <trkpt lat="48.8507" lon="2.31484">
        <ele>43.200000762939</ele>
        <time>2016-05-23T20:14:56.000Z</time>
      </trkpt>
      <trkpt lat="48.85093" lon="2.31477">
        <ele>43.200000762939</ele>
        <time>2016-05-23T20:15:00.000Z</time>
      </trkpt>
      <trkpt lat="48.85114" lon="2.31473">
        <ele>43.400001525879</ele>
        <time>2016-05-23T20:15:04.000Z</time>
      </trkpt>
      <trkpt lat="48.85133" lon="2.31472">
        <ele>44</ele>
        <time>2016-05-23T20:15:08.000Z</time>
      </trkpt>
      <trkpt lat="48.85151" lon="2.31474">
        <ele>44.400001525879</ele>
        <time>2016-05-23T20:15:12.000Z</time>
      </trkpt>
      <trkpt lat="48.85155" lon="2.31477">
        <ele>44.400001525879</ele>
        <time>2016-05-23T20:15:13.000Z</time>
      </trkpt>
      <trkpt lat="48.85174" lon="2.31482">
        <ele>44.799999237061</ele>
        <time>2016-05-23T20:15:17.000Z</time>
      </trkpt>
      <trkpt lat="48.85178" lon="2.3148">
        <ele>45</ele>
        <time>2016-05-23T20:15:18.000Z</time>
      </trkpt>
      <trkpt lat="48.85191" lon="2.31478">
        <ele>45.200000762939</ele>
        <time>2016-05-23T20:15:21.000Z</time>
      </trkpt>
      <trkpt lat="48.85211" lon="2.31474">
        <ele>44.799999237061</ele>
        <time>2016-05-23T20:15:25.000Z</time>
      </trkpt>
      <trkpt lat="48.85233" lon="2.31469">
        <ele>44.200000762939</ele>
        <time>2016-05-23T20:15:29.000Z</time>
      </trkpt>
      <trkpt lat="48.85256" lon="2.31467">
        <ele>44</ele>
        <time>2016-05-23T20:15:33.000Z</time>
      </trkpt>
      <trkpt lat="48.85274" lon="2.31464">
        <ele>43.799999237061</ele>
        <time>2016-05-23T20:15:36.000Z</time>
      </trkpt>
      <trkpt lat="48.85292" lon="2.31464">
        <ele>43.400001525879</ele>
        <time>2016-05-23T20:15:39.000Z</time>
      </trkpt>
      <trkpt lat="48.85316" lon="2.31466">
        <ele>42.799999237061</ele>
        <time>2016-05-23T20:15:43.000Z</time>
      </trkpt>
      <trkpt lat="48.85336" lon="2.31466">
        <ele>42.400001525879</ele>
        <time>2016-05-23T20:15:46.000Z</time>
      </trkpt>
      <trkpt lat="48.85357" lon="2.31467">
        <ele>42</ele>
        <time>2016-05-23T20:15:49.000Z</time>
      </trkpt>
      <trkpt lat="48.85376" lon="2.31468">
        <ele>41.599998474121</ele>
        <time>2016-05-23T20:15:52.000Z</time>
      </trkpt>
      <trkpt lat="48.85397" lon="2.31466">
        <ele>41.200000762939</ele>
        <time>2016-05-23T20:15:55.000Z</time>
      </trkpt>
      <trkpt lat="48.8542" lon="2.31467">
        <ele>40</ele>
        <time>2016-05-23T20:15:59.000Z</time>
      </trkpt>
      <trkpt lat="48.85443" lon="2.31469">
        <ele>38.400001525879</ele>
        <time>2016-05-23T20:16:03.000Z</time>
      </trkpt>
      <trkpt lat="48.85465" lon="2.31473">
        <ele>38.400001525879</ele>
        <time>2016-05-23T20:16:07.000Z</time>
      </trkpt>
      <trkpt lat="48.85483" lon="2.31475">
        <ele>38.400001525879</ele>
        <time>2016-05-23T20:16:10.000Z</time>
      </trkpt>
      <trkpt lat="48.85502" lon="2.31478">
        <ele>38.599998474121</ele>
        <time>2016-05-23T20:16:13.000Z</time>
      </trkpt>
      <trkpt lat="48.85524" lon="2.31481">
        <ele>39.200000762939</ele>
        <time>2016-05-23T20:16:17.000Z</time>
      </trkpt>
      <trkpt lat="48.85542" lon="2.31482">
        <ele>39.799999237061</ele>
        <time>2016-05-23T20:16:20.000Z</time>
      </trkpt>
      <trkpt lat="48.85565" lon="2.31491">
        <ele>40.599998474121</ele>
        <time>2016-05-23T20:16:24.000Z</time>
      </trkpt>
      <trkpt lat="48.85585" lon="2.31502">
        <ele>41.599998474121</ele>
        <time>2016-05-23T20:16:28.000Z</time>
      </trkpt>
      <trkpt lat="48.85605" lon="2.31505">
        <ele>42.599998474121</ele>
        <time>2016-05-23T20:16:32.000Z</time>
      </trkpt>
      <trkpt lat="48.85627" lon="2.31503">
        <ele>41.400001525879</ele>
        <time>2016-05-23T20:16:36.000Z</time>
      </trkpt>
      <trkpt lat="48.8564" lon="2.31505">
        <ele>41</ele>
        <time>2016-05-23T20:16:39.000Z</time>
      </trkpt>
      <trkpt lat="48.85663" lon="2.31509">
        <ele>40.200000762939</ele>
        <time>2016-05-23T20:16:43.000Z</time>
      </trkpt>
      <trkpt lat="48.85686" lon="2.31516">
        <ele>39.599998474121</ele>
        <time>2016-05-23T20:16:47.000Z</time>
      </trkpt>
      <trkpt lat="48.8569" lon="2.3152">
        <ele>39.599998474121</ele>
        <time>2016-05-23T20:16:48.000Z</time>
      </trkpt>
      <trkpt lat="48.8571" lon="2.3153">
        <ele>39.599998474121</ele>
        <time>2016-05-23T20:16:52.000Z</time>
      </trkpt>
      <trkpt lat="48.8573" lon="2.31542">
        <ele>39.599998474121</ele>
        <time>2016-05-23T20:16:56.000Z</time>
      </trkpt>
      <trkpt lat="48.8575" lon="2.31551">
        <ele>39.400001525879</ele>
        <time>2016-05-23T20:17:00.000Z</time>
      </trkpt>
      <trkpt lat="48.8577" lon="2.31555">
        <ele>38.799999237061</ele>
        <time>2016-05-23T20:17:04.000Z</time>
      </trkpt>
      <trkpt lat="48.85783" lon="2.31556">
        <ele>38.799999237061</ele>
        <time>2016-05-23T20:17:08.000Z</time>
      </trkpt>
      <trkpt lat="48.85789" lon="2.31556">
        <ele>38.599998474121</ele>
        <time>2016-05-23T20:17:11.000Z</time>
      </trkpt>
      <trkpt lat="48.85787" lon="2.31543">
        <ele>38</ele>
        <time>2016-05-23T20:17:22.000Z</time>
      </trkpt>
      <trkpt lat="48.85788" lon="2.31543">
        <ele>38</ele>
        <time>2016-05-23T20:17:23.000Z</time>
      </trkpt>
      <trkpt lat="48.85794" lon="2.31532">
        <ele>37.400001525879</ele>
        <time>2016-05-23T20:17:34.000Z</time>
      </trkpt>
      <trkpt lat="48.85803" lon="2.31505">
        <ele>36.799999237061</ele>
        <time>2016-05-23T20:17:40.000Z</time>
      </trkpt>
      <trkpt lat="48.85808" lon="2.31474">
        <ele>36.599998474121</ele>
        <time>2016-05-23T20:17:45.000Z</time>
      </trkpt>
      <trkpt lat="48.85816" lon="2.31461">
        <ele>36.599998474121</ele>
        <time>2016-05-23T20:17:49.000Z</time>
      </trkpt>
      <trkpt lat="48.85829" lon="2.31468">
        <ele>37</ele>
        <time>2016-05-23T20:17:55.000Z</time>
      </trkpt>
      <trkpt lat="48.85849" lon="2.31473">
        <ele>37.799999237061</ele>
        <time>2016-05-23T20:18:00.000Z</time>
      </trkpt>
      <trkpt lat="48.85869" lon="2.31474">
        <ele>37.599998474121</ele>
        <time>2016-05-23T20:18:05.000Z</time>
      </trkpt>
      <trkpt lat="48.85888" lon="2.31472">
        <ele>37.200000762939</ele>
        <time>2016-05-23T20:18:11.000Z</time>
      </trkpt>
      <trkpt lat="48.85906" lon="2.31473">
        <ele>36.799999237061</ele>
        <time>2016-05-23T20:18:17.000Z</time>
      </trkpt>
      <trkpt lat="48.85907" lon="2.31475">
        <ele>36.799999237061</ele>
        <time>2016-05-23T20:18:18.000Z</time>
      </trkpt>
      <trkpt lat="48.85921" lon="2.31477">
        <ele>36.400001525879</ele>
        <time>2016-05-23T20:18:24.000Z</time>
      </trkpt>
      <trkpt lat="48.8594" lon="2.31477">
        <ele>35.400001525879</ele>
        <time>2016-05-23T20:18:29.000Z</time>
      </trkpt>
      <trkpt lat="48.85961" lon="2.31479">
        <ele>36.400001525879</ele>
        <time>2016-05-23T20:18:34.000Z</time>
      </trkpt>
      <trkpt lat="48.85979" lon="2.31488">
        <ele>37.599998474121</ele>
        <time>2016-05-23T20:18:39.000Z</time>
      </trkpt>
      <trkpt lat="48.85987" lon="2.31493">
        <ele>38.200000762939</ele>
        <time>2016-05-23T20:18:43.000Z</time>
      </trkpt>
      <trkpt lat="48.86005" lon="2.31491">
        <ele>39</ele>
        <time>2016-05-23T20:18:49.000Z</time>
      </trkpt>
      <trkpt lat="48.86024" lon="2.31493">
        <ele>39.400001525879</ele>
        <time>2016-05-23T20:18:54.000Z</time>
      </trkpt>
      <trkpt lat="48.86045" lon="2.31491">
        <ele>38.799999237061</ele>
        <time>2016-05-23T20:19:00.000Z</time>
      </trkpt>
      <trkpt lat="48.86065" lon="2.31487">
        <ele>38.200000762939</ele>
        <time>2016-05-23T20:19:06.000Z</time>
      </trkpt>
      <trkpt lat="48.86084" lon="2.31491">
        <ele>38.400001525879</ele>
        <time>2016-05-23T20:19:12.000Z</time>
      </trkpt>
      <trkpt lat="48.86103" lon="2.31493">
        <ele>38.599998474121</ele>
        <time>2016-05-23T20:19:19.000Z</time>
      </trkpt>
      <trkpt lat="48.86123" lon="2.31497">
        <ele>38.200000762939</ele>
        <time>2016-05-23T20:19:25.000Z</time>
      </trkpt>
      <trkpt lat="48.86145" lon="2.315">
        <ele>37.400001525879</ele>
        <time>2016-05-23T20:19:31.000Z</time>
      </trkpt>
      <trkpt lat="48.86164" lon="2.31499">
        <ele>36.200000762939</ele>
        <time>2016-05-23T20:19:37.000Z</time>
      </trkpt>
      <trkpt lat="48.86186" lon="2.31496">
        <ele>35</ele>
        <time>2016-05-23T20:19:44.000Z</time>
      </trkpt>
      <trkpt lat="48.86207" lon="2.31495">
        <ele>35</ele>
        <time>2016-05-23T20:19:50.000Z</time>
      </trkpt>
      <trkpt lat="48.86226" lon="2.31501">
        <ele>35.200000762939</ele>
        <time>2016-05-23T20:19:55.000Z</time>
      </trkpt>
      <trkpt lat="48.86246" lon="2.31506">
        <ele>35.599998474121</ele>
        <time>2016-05-23T20:20:01.000Z</time>
      </trkpt>
      <trkpt lat="48.86264" lon="2.31511">
        <ele>35.799999237061</ele>
        <time>2016-05-23T20:20:14.000Z</time>
      </trkpt>
      <trkpt lat="48.8627" lon="2.31523">
        <ele>36.599998474121</ele>
        <time>2016-05-23T20:20:16.000Z</time>
      </trkpt>
      <trkpt lat="48.86272" lon="2.31545">
        <ele>37.799999237061</ele>
        <time>2016-05-23T20:20:20.000Z</time>
      </trkpt>
      <trkpt lat="48.86272" lon="2.31579">
        <ele>39.799999237061</ele>
        <time>2016-05-23T20:20:25.000Z</time>
      </trkpt>
      <trkpt lat="48.86271" lon="2.31607">
        <ele>38.400001525879</ele>
        <time>2016-05-23T20:20:29.000Z</time>
      </trkpt>
      <trkpt lat="48.86269" lon="2.31635">
        <ele>36.599998474121</ele>
        <time>2016-05-23T20:20:33.000Z</time>
      </trkpt>
      <trkpt lat="48.86267" lon="2.31664">
        <ele>35.200000762939</ele>
        <time>2016-05-23T20:20:37.000Z</time>
      </trkpt>
      <trkpt lat="48.86266" lon="2.31671">
        <ele>35.599998474121</ele>
        <time>2016-05-23T20:20:38.000Z</time>
      </trkpt>
      <trkpt lat="48.86265" lon="2.31701">
        <ele>36.599998474121</ele>
        <time>2016-05-23T20:20:42.000Z</time>
      </trkpt>
      <trkpt lat="48.86265" lon="2.3173">
        <ele>37.599998474121</ele>
        <time>2016-05-23T20:20:46.000Z</time>
      </trkpt>
      <trkpt lat="48.86261" lon="2.31737">
        <ele>38</ele>
        <time>2016-05-23T20:20:47.000Z</time>
      </trkpt>
      <trkpt lat="48.86257" lon="2.31766">
        <ele>36.400001525879</ele>
        <time>2016-05-23T20:20:51.000Z</time>
      </trkpt>
      <trkpt lat="48.86254" lon="2.31794">
        <ele>34.400001525879</ele>
        <time>2016-05-23T20:20:55.000Z</time>
      </trkpt>
      <trkpt lat="48.86251" lon="2.31814">
        <ele>33.200000762939</ele>
        <time>2016-05-23T20:20:58.000Z</time>
      </trkpt>
      <trkpt lat="48.86245" lon="2.31843">
        <ele>33.200000762939</ele>
        <time>2016-05-23T20:21:03.000Z</time>
      </trkpt>
      <trkpt lat="48.86236" lon="2.31867">
        <ele>33.799999237061</ele>
        <time>2016-05-23T20:21:09.000Z</time>
      </trkpt>
      <trkpt lat="48.86237" lon="2.31866">
        <ele>33.799999237061</ele>
        <time>2016-05-23T20:21:11.000Z</time>
      </trkpt>
      <trkpt lat="48.86237" lon="2.31886">
        <ele>34.200000762939</ele>
        <time>2016-05-23T20:21:25.000Z</time>
      </trkpt>
      <trkpt lat="48.86229" lon="2.31912">
        <ele>36</ele>
        <time>2016-05-23T20:21:31.000Z</time>
      </trkpt>
      <trkpt lat="48.86217" lon="2.31936">
        <ele>36.400001525879</ele>
        <time>2016-05-23T20:21:39.000Z</time>
      </trkpt>
      <trkpt lat="48.862" lon="2.31948">
        <ele>39.200000762939</ele>
        <time>2016-05-23T20:21:44.000Z</time>
      </trkpt>
      <trkpt lat="48.86183" lon="2.31968">
        <ele>41.799999237061</ele>
        <time>2016-05-23T20:21:49.000Z</time>
      </trkpt>
      <trkpt lat="48.86168" lon="2.31987">
        <ele>42.599998474121</ele>
        <time>2016-05-23T20:21:53.000Z</time>
      </trkpt>
      <trkpt lat="48.8615" lon="2.32006">
        <ele>42.799999237061</ele>
        <time>2016-05-23T20:21:57.000Z</time>
      </trkpt>
      <trkpt lat="48.86134" lon="2.32023">
        <ele>43</ele>
        <time>2016-05-23T20:22:01.000Z</time>
      </trkpt>
      <trkpt lat="48.86118" lon="2.32043">
        <ele>42.799999237061</ele>
        <time>2016-05-23T20:22:06.000Z</time>
      </trkpt>
      <trkpt lat="48.86113" lon="2.32047">
        <ele>42.799999237061</ele>
        <time>2016-05-23T20:22:09.000Z</time>
      </trkpt>
      <trkpt lat="48.86111" lon="2.32058">
        <ele>42.799999237061</ele>
        <time>2016-05-23T20:22:30.000Z</time>
      </trkpt>
      <trkpt lat="48.86102" lon="2.32082">
        <ele>42.799999237061</ele>
        <time>2016-05-23T20:22:38.000Z</time>
      </trkpt>
      <trkpt lat="48.86092" lon="2.32107">
        <ele>42.599998474121</ele>
        <time>2016-05-23T20:22:43.000Z</time>
      </trkpt>
      <trkpt lat="48.86089" lon="2.32136">
        <ele>42.599998474121</ele>
        <time>2016-05-23T20:22:48.000Z</time>
      </trkpt>
      <trkpt lat="48.86086" lon="2.32167">
        <ele>42</ele>
        <time>2016-05-23T20:22:53.000Z</time>
      </trkpt>
      <trkpt lat="48.86081" lon="2.32194">
        <ele>41</ele>
        <time>2016-05-23T20:22:57.000Z</time>
      </trkpt>
      <trkpt lat="48.86074" lon="2.32224">
        <ele>40.400001525879</ele>
        <time>2016-05-23T20:23:02.000Z</time>
      </trkpt>
      <trkpt lat="48.86066" lon="2.32251">
        <ele>41.200000762939</ele>
        <time>2016-05-23T20:23:07.000Z</time>
      </trkpt>
      <trkpt lat="48.86057" lon="2.3228">
        <ele>42.200000762939</ele>
        <time>2016-05-23T20:23:12.000Z</time>
      </trkpt>
      <trkpt lat="48.86053" lon="2.3231">
        <ele>43.599998474121</ele>
        <time>2016-05-23T20:23:18.000Z</time>
      </trkpt>
      <trkpt lat="48.86053" lon="2.32318">
        <ele>44</ele>
        <time>2016-05-23T20:23:20.000Z</time>
      </trkpt>
      <trkpt lat="48.8605" lon="2.32339">
        <ele>44</ele>
        <time>2016-05-23T20:23:26.000Z</time>
      </trkpt>
      <trkpt lat="48.86042" lon="2.32367">
        <ele>43.200000762939</ele>
        <time>2016-05-23T20:23:31.000Z</time>
      </trkpt>
      <trkpt lat="48.86033" lon="2.32392">
        <ele>43.400001525879</ele>
        <time>2016-05-23T20:23:35.000Z</time>
      </trkpt>
      <trkpt lat="48.86027" lon="2.32421">
        <ele>43.400001525879</ele>
        <time>2016-05-23T20:23:40.000Z</time>
      </trkpt>
      <trkpt lat="48.86016" lon="2.3245">
        <ele>42</ele>
        <time>2016-05-23T20:23:45.000Z</time>
      </trkpt>
      <trkpt lat="48.86003" lon="2.32479">
        <ele>40.400001525879</ele>
        <time>2016-05-23T20:23:49.000Z</time>
      </trkpt>
      <trkpt lat="48.85994" lon="2.32503">
        <ele>41.200000762939</ele>
        <time>2016-05-23T20:23:53.000Z</time>
      </trkpt>
      <trkpt lat="48.85981" lon="2.32528">
        <ele>43.599998474121</ele>
        <time>2016-05-23T20:23:57.000Z</time>
      </trkpt>
      <trkpt lat="48.85971" lon="2.32556">
        <ele>44.200000762939</ele>
        <time>2016-05-23T20:24:00.000Z</time>
      </trkpt>
      <trkpt lat="48.85963" lon="2.32582">
        <ele>44.200000762939</ele>
        <time>2016-05-23T20:24:03.000Z</time>
      </trkpt>
      <trkpt lat="48.85953" lon="2.32605">
        <ele>44.400001525879</ele>
        <time>2016-05-23T20:24:06.000Z</time>
      </trkpt>
      <trkpt lat="48.85943" lon="2.32636">
        <ele>45.799999237061</ele>
        <time>2016-05-23T20:24:10.000Z</time>
      </trkpt>
      <trkpt lat="48.85937" lon="2.32667">
        <ele>47</ele>
        <time>2016-05-23T20:24:14.000Z</time>
      </trkpt>
      <trkpt lat="48.8593" lon="2.32694">
        <ele>47.200000762939</ele>
        <time>2016-05-23T20:24:18.000Z</time>
      </trkpt>
      <trkpt lat="48.8592" lon="2.32721">
        <ele>47.200000762939</ele>
        <time>2016-05-23T20:24:22.000Z</time>
      </trkpt>
      <trkpt lat="48.85912" lon="2.3275">
        <ele>48</ele>
        <time>2016-05-23T20:24:26.000Z</time>
      </trkpt>
      <trkpt lat="48.85905" lon="2.32775">
        <ele>47.599998474121</ele>
        <time>2016-05-23T20:24:30.000Z</time>
      </trkpt>
      <trkpt lat="48.859" lon="2.32788">
        <ele>47.599998474121</ele>
        <time>2016-05-23T20:24:33.000Z</time>
      </trkpt>
      <trkpt lat="48.85883" lon="2.3281">
        <ele>46.400001525879</ele>
        <time>2016-05-23T20:24:38.000Z</time>
      </trkpt>
      <trkpt lat="48.85879" lon="2.32821">
        <ele>46</ele>
        <time>2016-05-23T20:24:40.000Z</time>
      </trkpt>
      <trkpt lat="48.85877" lon="2.32852">
        <ele>44.799999237061</ele>
        <time>2016-05-23T20:24:46.000Z</time>
      </trkpt>
      <trkpt lat="48.85873" lon="2.32862">
        <ele>45</ele>
        <time>2016-05-23T20:24:48.000Z</time>
      </trkpt>
      <trkpt lat="48.85861" lon="2.32887">
        <ele>45.599998474121</ele>
        <time>2016-05-23T20:24:53.000Z</time>
      </trkpt>
      <trkpt lat="48.85848" lon="2.32915">
        <ele>46</ele>
        <time>2016-05-23T20:24:58.000Z</time>
      </trkpt>
      <trkpt lat="48.85847" lon="2.32929">
        <ele>46.200000762939</ele>
        <time>2016-05-23T20:25:00.000Z</time>
      </trkpt>
      <trkpt lat="48.85836" lon="2.32953">
        <ele>46.599998474121</ele>
        <time>2016-05-23T20:25:05.000Z</time>
      </trkpt>
      <trkpt lat="48.85831" lon="2.32968">
        <ele>47</ele>
        <time>2016-05-23T20:25:08.000Z</time>
      </trkpt>
      <trkpt lat="48.85817" lon="2.32996">
        <ele>47</ele>
        <time>2016-05-23T20:25:12.000Z</time>
      </trkpt>
      <trkpt lat="48.85806" lon="2.33019">
        <ele>46.799999237061</ele>
        <time>2016-05-23T20:25:16.000Z</time>
      </trkpt>
      <trkpt lat="48.85794" lon="2.33047">
        <ele>46.200000762939</ele>
        <time>2016-05-23T20:25:21.000Z</time>
      </trkpt>
      <trkpt lat="48.85793" lon="2.33071">
        <ele>45.799999237061</ele>
        <time>2016-05-23T20:25:24.000Z</time>
      </trkpt>
      <trkpt lat="48.85788" lon="2.3311">
        <ele>45</ele>
        <time>2016-05-23T20:25:28.000Z</time>
      </trkpt>
      <trkpt lat="48.85786" lon="2.33141">
        <ele>45.400001525879</ele>
        <time>2016-05-23T20:25:31.000Z</time>
      </trkpt>
      <trkpt lat="48.8578" lon="2.33175">
        <ele>45.599998474121</ele>
        <time>2016-05-23T20:25:35.000Z</time>
      </trkpt>
      <trkpt lat="48.85776" lon="2.3321">
        <ele>46.400001525879</ele>
        <time>2016-05-23T20:25:39.000Z</time>
      </trkpt>
      <trkpt lat="48.85772" lon="2.33241">
        <ele>47</ele>
        <time>2016-05-23T20:25:43.000Z</time>
      </trkpt>
      <trkpt lat="48.85776" lon="2.3325">
        <ele>46.799999237061</ele>
        <time>2016-05-23T20:25:44.000Z</time>
      </trkpt>
      <trkpt lat="48.85774" lon="2.33263">
        <ele>46.599998474121</ele>
        <time>2016-05-23T20:25:48.000Z</time>
      </trkpt>
      <trkpt lat="48.8578" lon="2.33279">
        <ele>46</ele>
        <time>2016-05-23T20:26:09.000Z</time>
      </trkpt>
      <trkpt lat="48.85798" lon="2.33295">
        <ele>45.200000762939</ele>
        <time>2016-05-23T20:26:15.000Z</time>
      </trkpt>
      <trkpt lat="48.85787" lon="2.33319">
        <ele>45</ele>
        <time>2016-05-23T20:26:28.000Z</time>
      </trkpt>
      <trkpt lat="48.8578" lon="2.33324">
        <ele>45</ele>
        <time>2016-05-23T20:27:08.000Z</time>
      </trkpt>
      <trkpt lat="48.85791" lon="2.33299">
        <ele>45.400001525879</ele>
        <time>2016-05-23T20:27:16.000Z</time>
      </trkpt>
      <trkpt lat="48.85803" lon="2.33277">
        <ele>45.599998474121</ele>
        <time>2016-05-23T20:27:24.000Z</time>
      </trkpt>
      <trkpt lat="48.85816" lon="2.33267">
        <ele>44.599998474121</ele>
        <time>2016-05-23T20:27:29.000Z</time>
      </trkpt>
      <trkpt lat="48.85834" lon="2.33262">
        <ele>43.599998474121</ele>
        <time>2016-05-23T20:27:35.000Z</time>
      </trkpt>
      <trkpt lat="48.85854" lon="2.33269">
        <ele>42.400001525879</ele>
        <time>2016-05-23T20:27:40.000Z</time>
      </trkpt>
      <trkpt lat="48.85873" lon="2.33277">
        <ele>42.599998474121</ele>
        <time>2016-05-23T20:27:44.000Z</time>
      </trkpt>
      <trkpt lat="48.85893" lon="2.33287">
        <ele>43</ele>
        <time>2016-05-23T20:27:49.000Z</time>
      </trkpt>
      <trkpt lat="48.85912" lon="2.33296">
        <ele>42.599998474121</ele>
        <time>2016-05-23T20:27:54.000Z</time>
      </trkpt>
      <trkpt lat="48.8593" lon="2.33306">
        <ele>42</ele>
        <time>2016-05-23T20:27:58.000Z</time>
      </trkpt>
      <trkpt lat="48.85947" lon="2.33318">
        <ele>43</ele>
        <time>2016-05-23T20:28:02.000Z</time>
      </trkpt>
      <trkpt lat="48.8596" lon="2.33328">
        <ele>44.599998474121</ele>
        <time>2016-05-23T20:28:06.000Z</time>
      </trkpt>
      <trkpt lat="48.85968" lon="2.33341">
        <ele>45.599998474121</ele>
        <time>2016-05-23T20:28:11.000Z</time>
      </trkpt>
      <trkpt lat="48.85969" lon="2.33345">
        <ele>45.799999237061</ele>
        <time>2016-05-23T20:28:12.000Z</time>
      </trkpt>
      <trkpt lat="48.85978" lon="2.33357">
        <ele>46.400001525879</ele>
        <time>2016-05-23T20:28:20.000Z</time>
      </trkpt>
      <trkpt lat="48.85979" lon="2.33357">
        <ele>46.599998474121</ele>
        <time>2016-05-23T20:28:21.000Z</time>
      </trkpt>
      <trkpt lat="48.85996" lon="2.33363">
        <ele>47.599998474121</ele>
        <time>2016-05-23T20:28:43.000Z</time>
      </trkpt>
      <trkpt lat="48.86015" lon="2.33369">
        <ele>48.599998474121</ele>
        <time>2016-05-23T20:28:54.000Z</time>
      </trkpt>
      <trkpt lat="48.86033" lon="2.33382">
        <ele>48</ele>
        <time>2016-05-23T20:29:00.000Z</time>
      </trkpt>
      <trkpt lat="48.8605" lon="2.33395">
        <ele>46.200000762939</ele>
        <time>2016-05-23T20:29:05.000Z</time>
      </trkpt>
      <trkpt lat="48.86066" lon="2.33409">
        <ele>44.599998474121</ele>
        <time>2016-05-23T20:29:10.000Z</time>
      </trkpt>
      <trkpt lat="48.86079" lon="2.3343">
        <ele>43.400001525879</ele>
        <time>2016-05-23T20:29:16.000Z</time>
      </trkpt>
      <trkpt lat="48.86093" lon="2.33446">
        <ele>41.599998474121</ele>
        <time>2016-05-23T20:29:20.000Z</time>
      </trkpt>
      <trkpt lat="48.86103" lon="2.33472">
        <ele>40.400001525879</ele>
        <time>2016-05-23T20:29:25.000Z</time>
      </trkpt>
      <trkpt lat="48.86111" lon="2.33499">
        <ele>40.400001525879</ele>
        <time>2016-05-23T20:29:31.000Z</time>
      </trkpt>
      <trkpt lat="48.86124" lon="2.33524">
        <ele>42.599998474121</ele>
        <time>2016-05-23T20:29:36.000Z</time>
      </trkpt>
      <trkpt lat="48.86134" lon="2.33548">
        <ele>44.400001525879</ele>
        <time>2016-05-23T20:29:40.000Z</time>
      </trkpt>
      <trkpt lat="48.8614" lon="2.33578">
        <ele>46.200000762939</ele>
        <time>2016-05-23T20:29:45.000Z</time>
      </trkpt>
      <trkpt lat="48.86146" lon="2.33607">
        <ele>47.200000762939</ele>
        <time>2016-05-23T20:29:49.000Z</time>
      </trkpt>
      <trkpt lat="48.86147" lon="2.33613">
        <ele>47.200000762939</ele>
        <time>2016-05-23T20:29:50.000Z</time>
      </trkpt>
      <trkpt lat="48.86155" lon="2.33619">
        <ele>48</ele>
        <time>2016-05-23T20:29:52.000Z</time>
      </trkpt>
      <trkpt lat="48.86173" lon="2.3363">
        <ele>49.400001525879</ele>
        <time>2016-05-23T20:29:58.000Z</time>
      </trkpt>
      <trkpt lat="48.86187" lon="2.33645">
        <ele>50.599998474121</ele>
        <time>2016-05-23T20:30:04.000Z</time>
      </trkpt>
      <trkpt lat="48.86205" lon="2.33682">
        <ele>50</ele>
        <time>2016-05-23T20:30:41.000Z</time>
      </trkpt>
      <trkpt lat="48.8621" lon="2.33681">
        <ele>49.799999237061</ele>
        <time>2016-05-23T20:30:45.000Z</time>
      </trkpt>
      <trkpt lat="48.86234" lon="2.33683">
        <ele>48.599998474121</ele>
        <time>2016-05-23T20:31:12.000Z</time>
      </trkpt>
      <trkpt lat="48.86258" lon="2.33693">
        <ele>47.400001525879</ele>
        <time>2016-05-23T20:31:19.000Z</time>
      </trkpt>
      <trkpt lat="48.86269" lon="2.33697">
        <ele>46.799999237061</ele>
        <time>2016-05-23T20:31:21.000Z</time>
      </trkpt>
      <trkpt lat="48.86285" lon="2.33712">
        <ele>46</ele>
        <time>2016-05-23T20:31:25.000Z</time>
      </trkpt>
      <trkpt lat="48.86282" lon="2.33743">
        <ele>45.799999237061</ele>
        <time>2016-05-23T20:31:30.000Z</time>
      </trkpt>
      <trkpt lat="48.86268" lon="2.33765">
        <ele>45.799999237061</ele>
        <time>2016-05-23T20:31:33.000Z</time>
      </trkpt>
      <trkpt lat="48.86255" lon="2.33785">
        <ele>45.799999237061</ele>
        <time>2016-05-23T20:31:36.000Z</time>
      </trkpt>
      <trkpt lat="48.86245" lon="2.33811">
        <ele>45.200000762939</ele>
        <time>2016-05-23T20:31:40.000Z</time>
      </trkpt>
      <trkpt lat="48.86241" lon="2.33825">
        <ele>44.599998474121</ele>
        <time>2016-05-23T20:31:42.000Z</time>
      </trkpt>
      <trkpt lat="48.86233" lon="2.33851">
        <ele>44.799999237061</ele>
        <time>2016-05-23T20:31:46.000Z</time>
      </trkpt>
      <trkpt lat="48.86227" lon="2.33872">
        <ele>45.400001525879</ele>
        <time>2016-05-23T20:31:49.000Z</time>
      </trkpt>
      <trkpt lat="48.86222" lon="2.339">
        <ele>45.799999237061</ele>
        <time>2016-05-23T20:31:53.000Z</time>
      </trkpt>
      <trkpt lat="48.86214" lon="2.3393">
        <ele>46.200000762939</ele>
        <time>2016-05-23T20:31:57.000Z</time>
      </trkpt>
      <trkpt lat="48.86207" lon="2.33959">
        <ele>47.400001525879</ele>
        <time>2016-05-23T20:32:01.000Z</time>
      </trkpt>
      <trkpt lat="48.86198" lon="2.33992">
        <ele>48.799999237061</ele>
        <time>2016-05-23T20:32:05.000Z</time>
      </trkpt>
      <trkpt lat="48.86187" lon="2.34021">
        <ele>49</ele>
        <time>2016-05-23T20:32:09.000Z</time>
      </trkpt>
      <trkpt lat="48.8618" lon="2.34051">
        <ele>48.799999237061</ele>
        <time>2016-05-23T20:32:13.000Z</time>
      </trkpt>
      <trkpt lat="48.86174" lon="2.34082">
        <ele>48.400001525879</ele>
        <time>2016-05-23T20:32:18.000Z</time>
      </trkpt>
      <trkpt lat="48.86172" lon="2.34106">
        <ele>48.599998474121</ele>
        <time>2016-05-23T20:32:23.000Z</time>
      </trkpt>
      <trkpt lat="48.86169" lon="2.34115">
        <ele>48.599998474121</ele>
        <time>2016-05-23T20:32:25.000Z</time>
      </trkpt>
      <trkpt lat="48.86161" lon="2.34147">
        <ele>49</ele>
        <time>2016-05-23T20:32:30.000Z</time>
      </trkpt>
      <trkpt lat="48.86151" lon="2.34171">
        <ele>49</ele>
        <time>2016-05-23T20:32:34.000Z</time>
      </trkpt>
      <trkpt lat="48.8614" lon="2.34198">
        <ele>48.799999237061</ele>
        <time>2016-05-23T20:32:38.000Z</time>
      </trkpt>
      <trkpt lat="48.86132" lon="2.34226">
        <ele>49</ele>
        <time>2016-05-23T20:32:42.000Z</time>
      </trkpt>
      <trkpt lat="48.8613" lon="2.34238">
        <ele>49.200000762939</ele>
        <time>2016-05-23T20:32:44.000Z</time>
      </trkpt>
      <trkpt lat="48.86125" lon="2.34265">
        <ele>49</ele>
        <time>2016-05-23T20:32:49.000Z</time>
      </trkpt>
      <trkpt lat="48.86126" lon="2.34296">
        <ele>49.599998474121</ele>
        <time>2016-05-23T20:32:54.000Z</time>
      </trkpt>
      <trkpt lat="48.86121" lon="2.34312">
        <ele>50.200000762939</ele>
        <time>2016-05-23T20:32:57.000Z</time>
      </trkpt>
      <trkpt lat="48.86113" lon="2.34338">
        <ele>50.599998474121</ele>
        <time>2016-05-23T20:33:01.000Z</time>
      </trkpt>
      <trkpt lat="48.86109" lon="2.34367">
        <ele>50.400001525879</ele>
        <time>2016-05-23T20:33:05.000Z</time>
      </trkpt>
      <trkpt lat="48.86108" lon="2.34395">
        <ele>50.200000762939</ele>
        <time>2016-05-23T20:33:09.000Z</time>
      </trkpt>
      <trkpt lat="48.86106" lon="2.34401">
        <ele>50.200000762939</ele>
        <time>2016-05-23T20:33:10.000Z</time>
      </trkpt>
      <trkpt lat="48.86098" lon="2.34432">
        <ele>50.599998474121</ele>
        <time>2016-05-23T20:33:14.000Z</time>
      </trkpt>
      <trkpt lat="48.86101" lon="2.34467">
        <ele>50.799999237061</ele>
        <time>2016-05-23T20:33:18.000Z</time>
      </trkpt>
      <trkpt lat="48.86102" lon="2.34473">
        <ele>51</ele>
        <time>2016-05-23T20:33:19.000Z</time>
      </trkpt>
      <trkpt lat="48.861" lon="2.34482">
        <ele>51.200000762939</ele>
        <time>2016-05-23T20:33:21.000Z</time>
      </trkpt>
      <trkpt lat="48.86091" lon="2.34503">
        <ele>51.200000762939</ele>
        <time>2016-05-23T20:33:37.000Z</time>
      </trkpt>
      <trkpt lat="48.8607" lon="2.34519">
        <ele>51.599998474121</ele>
        <time>2016-05-23T20:33:41.000Z</time>
      </trkpt>
      <trkpt lat="48.86057" lon="2.34541">
        <ele>51.400001525879</ele>
        <time>2016-05-23T20:33:46.000Z</time>
      </trkpt>
      <trkpt lat="48.86054" lon="2.34551">
        <ele>50.799999237061</ele>
        <time>2016-05-23T20:33:48.000Z</time>
      </trkpt>
      <trkpt lat="48.86048" lon="2.3458">
        <ele>49.400001525879</ele>
        <time>2016-05-23T20:33:53.000Z</time>
      </trkpt>
      <trkpt lat="48.86046" lon="2.34585">
        <ele>49</ele>
        <time>2016-05-23T20:33:54.000Z</time>
      </trkpt>
      <trkpt lat="48.86033" lon="2.34606">
        <ele>47.799999237061</ele>
        <time>2016-05-23T20:33:58.000Z</time>
      </trkpt>
      <trkpt lat="48.86022" lon="2.34618">
        <ele>47.599998474121</ele>
        <time>2016-05-23T20:34:01.000Z</time>
      </trkpt>
      <trkpt lat="48.86008" lon="2.34636">
        <ele>47.400001525879</ele>
        <time>2016-05-23T20:34:06.000Z</time>
      </trkpt>
      <trkpt lat="48.85992" lon="2.34651">
        <ele>47</ele>
        <time>2016-05-23T20:34:11.000Z</time>
      </trkpt>
      <trkpt lat="48.85974" lon="2.3466">
        <ele>46.799999237061</ele>
        <time>2016-05-23T20:34:16.000Z</time>
      </trkpt>
      <trkpt lat="48.85961" lon="2.34666">
        <ele>46.799999237061</ele>
        <time>2016-05-23T20:34:21.000Z</time>
      </trkpt>
      <trkpt lat="48.85959" lon="2.34684">
        <ele>46.599998474121</ele>
        <time>2016-05-23T20:34:25.000Z</time>
      </trkpt>
      <trkpt lat="48.85948" lon="2.34706">
        <ele>45.599998474121</ele>
        <time>2016-05-23T20:34:33.000Z</time>
      </trkpt>
      <trkpt lat="48.8595" lon="2.3471">
        <ele>45.400001525879</ele>
        <time>2016-05-23T20:34:36.000Z</time>
      </trkpt>
      <trkpt lat="48.85955" lon="2.34717">
        <ele>45.200000762939</ele>
        <time>2016-05-23T20:34:51.000Z</time>
      </trkpt>
    </trkseg>
  </trk>
</gpx>